<?xml version="1.0" encoding="UTF-8" standalone="no" ?>
<gpx xmlns="http://www.topografix.com/GPX/1/1" xmlns:xsi="http://www.w3.org/2001/XMLSchema-instance" xsi:schemaLocation="http://www.topografix.com/GPX/1/1 http://www.topografix.com/GPX/1/1/gpx.xsd" version="1.1" creator="VisuGPX - https://www.visugpx.com">
  <metadata>
    <name>Col des pins au bousquet</name>
    <desc><![CDATA[Col des pins au bousquet*
Avec les petits à Julien]]></desc>
  </metadata>
  <trk>
    <name><![CDATA[Col des pins - Avec les petits]]></name>
    <trkseg>
      <trkpt lat="43.69387" lon="3.16454">
        <ele>182.79</ele>
        <time>2018-08-11T08:09:03Z</time>
      </trkpt>
      <trkpt lat="43.69387" lon="3.16454">
        <ele>182.79</ele>
        <time>2018-08-11T08:09:04Z</time>
      </trkpt>
      <trkpt lat="43.69378" lon="3.16443">
        <ele>188.56</ele>
        <time>2018-08-11T08:09:33Z</time>
      </trkpt>
      <trkpt lat="43.69378" lon="3.16443">
        <ele>191.44</ele>
        <time>2018-08-11T08:09:34Z</time>
      </trkpt>
      <trkpt lat="43.69378" lon="3.16443">
        <ele>196.73</ele>
        <time>2018-08-11T08:09:36Z</time>
      </trkpt>
      <trkpt lat="43.69377" lon="3.16443">
        <ele>201.05</ele>
        <time>2018-08-11T08:09:38Z</time>
      </trkpt>
      <trkpt lat="43.69376" lon="3.16443">
        <ele>204.9</ele>
        <time>2018-08-11T08:09:40Z</time>
      </trkpt>
      <trkpt lat="43.69377" lon="3.16443">
        <ele>209.22</ele>
        <time>2018-08-11T08:09:42Z</time>
      </trkpt>
      <trkpt lat="43.69377" lon="3.16443">
        <ele>212.59</ele>
        <time>2018-08-11T08:09:44Z</time>
      </trkpt>
      <trkpt lat="43.69377" lon="3.16443">
        <ele>215.95</ele>
        <time>2018-08-11T08:09:46Z</time>
      </trkpt>
      <trkpt lat="43.69377" lon="3.16443">
        <ele>219.8</ele>
        <time>2018-08-11T08:09:48Z</time>
      </trkpt>
      <trkpt lat="43.69378" lon="3.16443">
        <ele>224.61</ele>
        <time>2018-08-11T08:09:51Z</time>
      </trkpt>
      <trkpt lat="43.69378" lon="3.16443">
        <ele>228.45</ele>
        <time>2018-08-11T08:09:54Z</time>
      </trkpt>
      <trkpt lat="43.69378" lon="3.16443">
        <ele>232.78</ele>
        <time>2018-08-11T08:09:57Z</time>
      </trkpt>
      <trkpt lat="43.69377" lon="3.16443">
        <ele>236.62</ele>
        <time>2018-08-11T08:10:00Z</time>
      </trkpt>
      <trkpt lat="43.69378" lon="3.16443">
        <ele>239.99</ele>
        <time>2018-08-11T08:10:04Z</time>
      </trkpt>
      <trkpt lat="43.69378" lon="3.16443">
        <ele>243.35</ele>
        <time>2018-08-11T08:10:08Z</time>
      </trkpt>
      <trkpt lat="43.69377" lon="3.16444">
        <ele>245.27</ele>
        <time>2018-08-11T08:10:11Z</time>
      </trkpt>
      <trkpt lat="43.69378" lon="3.16444">
        <ele>248.64</ele>
        <time>2018-08-11T08:10:15Z</time>
      </trkpt>
      <trkpt lat="43.69378" lon="3.16444">
        <ele>249.6</ele>
        <time>2018-08-11T08:10:18Z</time>
      </trkpt>
      <trkpt lat="43.69378" lon="3.16445">
        <ele>252</ele>
        <time>2018-08-11T08:10:23Z</time>
      </trkpt>
      <trkpt lat="43.69378" lon="3.16446">
        <ele>255.85</ele>
        <time>2018-08-11T08:10:31Z</time>
      </trkpt>
      <trkpt lat="43.69379" lon="3.16446">
        <ele>258.73</ele>
        <time>2018-08-11T08:10:42Z</time>
      </trkpt>
      <trkpt lat="43.69382" lon="3.16446">
        <ele>262.1</ele>
        <time>2018-08-11T08:11:03Z</time>
      </trkpt>
      <trkpt lat="43.69382" lon="3.16448">
        <ele>264.5</ele>
        <time>2018-08-11T08:11:43Z</time>
      </trkpt>
      <trkpt lat="43.69381" lon="3.16448">
        <ele>264.5</ele>
        <time>2018-08-11T08:12:22Z</time>
      </trkpt>
      <trkpt lat="43.6938" lon="3.16448">
        <ele>265.94</ele>
        <time>2018-08-11T08:12:56Z</time>
      </trkpt>
      <trkpt lat="43.6938" lon="3.16448">
        <ele>265.46</ele>
        <time>2018-08-11T08:13:13Z</time>
      </trkpt>
      <trkpt lat="43.70103" lon="3.15222">
        <ele>379.86</ele>
        <time>2018-08-11T09:09:01Z</time>
      </trkpt>
      <trkpt lat="43.70104" lon="3.15222">
        <ele>380.82</ele>
        <time>2018-08-11T09:09:03Z</time>
      </trkpt>
      <trkpt lat="43.70101" lon="3.15222">
        <ele>382.26</ele>
        <time>2018-08-11T09:09:22Z</time>
      </trkpt>
      <trkpt lat="43.70101" lon="3.15222">
        <ele>387.07</ele>
        <time>2018-08-11T09:09:23Z</time>
      </trkpt>
      <trkpt lat="43.70101" lon="3.15222">
        <ele>381.3</ele>
        <time>2018-08-11T09:09:24Z</time>
      </trkpt>
      <trkpt lat="43.70101" lon="3.15222">
        <ele>384.18</ele>
        <time>2018-08-11T09:09:25Z</time>
      </trkpt>
      <trkpt lat="43.70101" lon="3.1522">
        <ele>387.55</ele>
        <time>2018-08-11T09:09:35Z</time>
      </trkpt>
      <trkpt lat="43.70101" lon="3.1522">
        <ele>391.87</ele>
        <time>2018-08-11T09:09:43Z</time>
      </trkpt>
      <trkpt lat="43.70102" lon="3.1522">
        <ele>388.99</ele>
        <time>2018-08-11T09:09:52Z</time>
      </trkpt>
      <trkpt lat="43.70102" lon="3.1522">
        <ele>397.64</ele>
        <time>2018-08-11T09:09:53Z</time>
      </trkpt>
      <trkpt lat="43.70102" lon="3.1522">
        <ele>380.82</ele>
        <time>2018-08-11T09:09:54Z</time>
      </trkpt>
      <trkpt lat="43.70102" lon="3.1522">
        <ele>391.87</ele>
        <time>2018-08-11T09:09:55Z</time>
      </trkpt>
      <trkpt lat="43.70102" lon="3.1522">
        <ele>394.76</ele>
        <time>2018-08-11T09:09:57Z</time>
      </trkpt>
      <trkpt lat="43.70102" lon="3.1522">
        <ele>389.47</ele>
        <time>2018-08-11T09:09:58Z</time>
      </trkpt>
      <trkpt lat="43.70102" lon="3.1522">
        <ele>392.84</ele>
        <time>2018-08-11T09:09:59Z</time>
      </trkpt>
      <trkpt lat="43.70104" lon="3.15216">
        <ele>389.47</ele>
        <time>2018-08-11T09:10:24Z</time>
      </trkpt>
      <trkpt lat="43.70101" lon="3.15216">
        <ele>393.32</ele>
        <time>2018-08-11T09:10:43Z</time>
      </trkpt>
      <trkpt lat="43.70101" lon="3.15216">
        <ele>391.87</ele>
        <time>2018-08-11T09:10:46Z</time>
      </trkpt>
      <trkpt lat="43.70102" lon="3.15218">
        <ele>392.36</ele>
        <time>2018-08-11T09:11:14Z</time>
      </trkpt>
      <trkpt lat="43.70102" lon="3.15217">
        <ele>392.36</ele>
        <time>2018-08-11T09:11:41Z</time>
      </trkpt>
      <trkpt lat="43.70102" lon="3.1522">
        <ele>391.39</ele>
        <time>2018-08-11T09:12:00Z</time>
      </trkpt>
      <trkpt lat="43.70101" lon="3.15221">
        <ele>391.39</ele>
        <time>2018-08-11T09:12:10Z</time>
      </trkpt>
      <trkpt lat="43.70101" lon="3.15217">
        <ele>392.36</ele>
        <time>2018-08-11T09:12:36Z</time>
      </trkpt>
      <trkpt lat="43.70101" lon="3.15217">
        <ele>387.07</ele>
        <time>2018-08-11T09:12:37Z</time>
      </trkpt>
      <trkpt lat="43.70101" lon="3.15217">
        <ele>392.84</ele>
        <time>2018-08-11T09:12:38Z</time>
      </trkpt>
      <trkpt lat="43.70102" lon="3.15218">
        <ele>391.87</ele>
        <time>2018-08-11T09:13:00Z</time>
      </trkpt>
      <trkpt lat="43.70101" lon="3.15222">
        <ele>391.87</ele>
        <time>2018-08-11T09:13:13Z</time>
      </trkpt>
      <trkpt lat="43.70098" lon="3.15225">
        <ele>390.43</ele>
        <time>2018-08-11T09:13:27Z</time>
      </trkpt>
      <trkpt lat="43.7009" lon="3.15222">
        <ele>390.43</ele>
        <time>2018-08-11T09:13:43Z</time>
      </trkpt>
      <trkpt lat="43.70081" lon="3.15223">
        <ele>388.99</ele>
        <time>2018-08-11T09:13:58Z</time>
      </trkpt>
      <trkpt lat="43.70077" lon="3.15221">
        <ele>388.51</ele>
        <time>2018-08-11T09:14:14Z</time>
      </trkpt>
      <trkpt lat="43.70073" lon="3.15219">
        <ele>389.47</ele>
        <time>2018-08-11T09:14:34Z</time>
      </trkpt>
      <trkpt lat="43.70072" lon="3.15217">
        <ele>389.47</ele>
        <time>2018-08-11T09:14:55Z</time>
      </trkpt>
      <trkpt lat="43.70071" lon="3.15218">
        <ele>389.47</ele>
        <time>2018-08-11T09:15:12Z</time>
      </trkpt>
      <trkpt lat="43.70075" lon="3.15219">
        <ele>388.99</ele>
        <time>2018-08-11T09:15:38Z</time>
      </trkpt>
      <trkpt lat="43.70075" lon="3.15221">
        <ele>388.51</ele>
        <time>2018-08-11T09:15:54Z</time>
      </trkpt>
      <trkpt lat="43.70078" lon="3.15228">
        <ele>388.99</ele>
        <time>2018-08-11T09:16:07Z</time>
      </trkpt>
      <trkpt lat="43.70078" lon="3.15226">
        <ele>388.03</ele>
        <time>2018-08-11T09:16:25Z</time>
      </trkpt>
      <trkpt lat="43.70079" lon="3.15234">
        <ele>386.59</ele>
        <time>2018-08-11T09:16:39Z</time>
      </trkpt>
      <trkpt lat="43.70082" lon="3.15246">
        <ele>385.15</ele>
        <time>2018-08-11T09:16:51Z</time>
      </trkpt>
      <trkpt lat="43.70086" lon="3.15254">
        <ele>384.18</ele>
        <time>2018-08-11T09:17:04Z</time>
      </trkpt>
      <trkpt lat="43.70087" lon="3.15257">
        <ele>383.7</ele>
        <time>2018-08-11T09:17:22Z</time>
      </trkpt>
      <trkpt lat="43.70089" lon="3.15263">
        <ele>383.22</ele>
        <time>2018-08-11T09:17:39Z</time>
      </trkpt>
      <trkpt lat="43.70089" lon="3.15263">
        <ele>383.22</ele>
        <time>2018-08-11T09:18:05Z</time>
      </trkpt>
      <trkpt lat="43.70089" lon="3.15263">
        <ele>383.7</ele>
        <time>2018-08-11T09:18:25Z</time>
      </trkpt>
      <trkpt lat="43.70091" lon="3.1527">
        <ele>382.26</ele>
        <time>2018-08-11T09:18:37Z</time>
      </trkpt>
      <trkpt lat="43.70096" lon="3.15277">
        <ele>381.78</ele>
        <time>2018-08-11T09:18:49Z</time>
      </trkpt>
      <trkpt lat="43.70101" lon="3.15284">
        <ele>380.34</ele>
        <time>2018-08-11T09:19:02Z</time>
      </trkpt>
      <trkpt lat="43.70104" lon="3.15294">
        <ele>378.42</ele>
        <time>2018-08-11T09:19:16Z</time>
      </trkpt>
      <trkpt lat="43.70107" lon="3.15306">
        <ele>377.45</ele>
        <time>2018-08-11T09:19:34Z</time>
      </trkpt>
      <trkpt lat="43.70108" lon="3.15307">
        <ele>376.49</ele>
        <time>2018-08-11T09:19:46Z</time>
      </trkpt>
      <trkpt lat="43.70109" lon="3.1531">
        <ele>378.42</ele>
        <time>2018-08-11T09:19:49Z</time>
      </trkpt>
      <trkpt lat="43.7011" lon="3.15311">
        <ele>376.49</ele>
        <time>2018-08-11T09:19:50Z</time>
      </trkpt>
      <trkpt lat="43.7011" lon="3.15316">
        <ele>375.05</ele>
        <time>2018-08-11T09:20:07Z</time>
      </trkpt>
      <trkpt lat="43.70113" lon="3.15321">
        <ele>374.57</ele>
        <time>2018-08-11T09:20:22Z</time>
      </trkpt>
      <trkpt lat="43.70113" lon="3.15328">
        <ele>374.09</ele>
        <time>2018-08-11T09:20:38Z</time>
      </trkpt>
      <trkpt lat="43.70112" lon="3.15334">
        <ele>373.13</ele>
        <time>2018-08-11T09:20:51Z</time>
      </trkpt>
      <trkpt lat="43.70105" lon="3.15338">
        <ele>372.17</ele>
        <time>2018-08-11T09:21:08Z</time>
      </trkpt>
      <trkpt lat="43.70099" lon="3.15346">
        <ele>371.21</ele>
        <time>2018-08-11T09:21:22Z</time>
      </trkpt>
      <trkpt lat="43.70094" lon="3.15351">
        <ele>369.76</ele>
        <time>2018-08-11T09:21:36Z</time>
      </trkpt>
      <trkpt lat="43.7009" lon="3.15361">
        <ele>367.84</ele>
        <time>2018-08-11T09:21:53Z</time>
      </trkpt>
      <trkpt lat="43.70086" lon="3.15366">
        <ele>367.84</ele>
        <time>2018-08-11T09:22:07Z</time>
      </trkpt>
      <trkpt lat="43.70086" lon="3.15367">
        <ele>367.36</ele>
        <time>2018-08-11T09:22:34Z</time>
      </trkpt>
      <trkpt lat="43.70084" lon="3.15367">
        <ele>367.36</ele>
        <time>2018-08-11T09:23:16Z</time>
      </trkpt>
      <trkpt lat="43.70084" lon="3.15369">
        <ele>367.36</ele>
        <time>2018-08-11T09:23:51Z</time>
      </trkpt>
      <trkpt lat="43.70085" lon="3.15369">
        <ele>367.84</ele>
        <time>2018-08-11T09:24:33Z</time>
      </trkpt>
      <trkpt lat="43.70083" lon="3.15369">
        <ele>366.4</ele>
        <time>2018-08-11T09:24:55Z</time>
      </trkpt>
      <trkpt lat="43.70085" lon="3.15379">
        <ele>365.92</ele>
        <time>2018-08-11T09:25:04Z</time>
      </trkpt>
      <trkpt lat="43.70086" lon="3.15386">
        <ele>364.96</ele>
        <time>2018-08-11T09:25:16Z</time>
      </trkpt>
      <trkpt lat="43.70087" lon="3.15386">
        <ele>365.44</ele>
        <time>2018-08-11T09:25:46Z</time>
      </trkpt>
      <trkpt lat="43.70088" lon="3.15386">
        <ele>364.96</ele>
        <time>2018-08-11T09:26:14Z</time>
      </trkpt>
      <trkpt lat="43.70088" lon="3.15391">
        <ele>364.48</ele>
        <time>2018-08-11T09:26:34Z</time>
      </trkpt>
      <trkpt lat="43.70092" lon="3.15397">
        <ele>363.04</ele>
        <time>2018-08-11T09:26:49Z</time>
      </trkpt>
      <trkpt lat="43.70091" lon="3.15416">
        <ele>360.15</ele>
        <time>2018-08-11T09:27:08Z</time>
      </trkpt>
      <trkpt lat="43.70092" lon="3.15422">
        <ele>359.67</ele>
        <time>2018-08-11T09:27:21Z</time>
      </trkpt>
      <trkpt lat="43.70097" lon="3.15437">
        <ele>358.23</ele>
        <time>2018-08-11T09:27:35Z</time>
      </trkpt>
      <trkpt lat="43.70101" lon="3.15451">
        <ele>357.27</ele>
        <time>2018-08-11T09:27:49Z</time>
      </trkpt>
      <trkpt lat="43.70104" lon="3.15452">
        <ele>356.31</ele>
        <time>2018-08-11T09:28:02Z</time>
      </trkpt>
      <trkpt lat="43.70108" lon="3.15464">
        <ele>354.86</ele>
        <time>2018-08-11T09:28:19Z</time>
      </trkpt>
      <trkpt lat="43.70109" lon="3.15466">
        <ele>353.9</ele>
        <time>2018-08-11T09:28:35Z</time>
      </trkpt>
      <trkpt lat="43.70111" lon="3.15473">
        <ele>352.94</ele>
        <time>2018-08-11T09:28:53Z</time>
      </trkpt>
      <trkpt lat="43.7011" lon="3.15475">
        <ele>353.42</ele>
        <time>2018-08-11T09:28:59Z</time>
      </trkpt>
      <trkpt lat="43.70109" lon="3.15469">
        <ele>353.42</ele>
        <time>2018-08-11T09:29:13Z</time>
      </trkpt>
      <trkpt lat="43.7011" lon="3.1547">
        <ele>353.42</ele>
        <time>2018-08-11T09:29:33Z</time>
      </trkpt>
      <trkpt lat="43.7011" lon="3.15471">
        <ele>353.42</ele>
        <time>2018-08-11T09:29:58Z</time>
      </trkpt>
      <trkpt lat="43.7011" lon="3.15471">
        <ele>353.9</ele>
        <time>2018-08-11T09:30:19Z</time>
      </trkpt>
      <trkpt lat="43.70109" lon="3.15475">
        <ele>353.42</ele>
        <time>2018-08-11T09:30:25Z</time>
      </trkpt>
      <trkpt lat="43.70097" lon="3.15482">
        <ele>351.98</ele>
        <time>2018-08-11T09:30:38Z</time>
      </trkpt>
      <trkpt lat="43.70088" lon="3.15492">
        <ele>349.58</ele>
        <time>2018-08-11T09:30:51Z</time>
      </trkpt>
      <trkpt lat="43.7008" lon="3.15504">
        <ele>347.17</ele>
        <time>2018-08-11T09:31:04Z</time>
      </trkpt>
      <trkpt lat="43.70078" lon="3.1551">
        <ele>346.21</ele>
        <time>2018-08-11T09:31:09Z</time>
      </trkpt>
      <trkpt lat="43.70076" lon="3.15521">
        <ele>345.25</ele>
        <time>2018-08-11T09:31:16Z</time>
      </trkpt>
      <trkpt lat="43.70078" lon="3.15549">
        <ele>344.29</ele>
        <time>2018-08-11T09:31:29Z</time>
      </trkpt>
      <trkpt lat="43.70083" lon="3.1556">
        <ele>343.81</ele>
        <time>2018-08-11T09:31:36Z</time>
      </trkpt>
      <trkpt lat="43.70087" lon="3.15567">
        <ele>343.33</ele>
        <time>2018-08-11T09:31:42Z</time>
      </trkpt>
      <trkpt lat="43.70089" lon="3.1557">
        <ele>343.33</ele>
        <time>2018-08-11T09:31:46Z</time>
      </trkpt>
      <trkpt lat="43.70097" lon="3.15578">
        <ele>342.85</ele>
        <time>2018-08-11T09:31:56Z</time>
      </trkpt>
      <trkpt lat="43.70101" lon="3.15581">
        <ele>342.85</ele>
        <time>2018-08-11T09:32:01Z</time>
      </trkpt>
      <trkpt lat="43.70116" lon="3.15589">
        <ele>342.85</ele>
        <time>2018-08-11T09:32:15Z</time>
      </trkpt>
      <trkpt lat="43.7012" lon="3.15589">
        <ele>342.37</ele>
        <time>2018-08-11T09:32:19Z</time>
      </trkpt>
      <trkpt lat="43.70123" lon="3.1559">
        <ele>342.37</ele>
        <time>2018-08-11T09:32:23Z</time>
      </trkpt>
      <trkpt lat="43.70127" lon="3.15589">
        <ele>342.37</ele>
        <time>2018-08-11T09:32:26Z</time>
      </trkpt>
      <trkpt lat="43.70143" lon="3.15588">
        <ele>341.89</ele>
        <time>2018-08-11T09:32:39Z</time>
      </trkpt>
      <trkpt lat="43.70154" lon="3.15588">
        <ele>340.44</ele>
        <time>2018-08-11T09:32:50Z</time>
      </trkpt>
      <trkpt lat="43.70166" lon="3.15592">
        <ele>339.48</ele>
        <time>2018-08-11T09:33:03Z</time>
      </trkpt>
      <trkpt lat="43.70168" lon="3.15593">
        <ele>339.48</ele>
        <time>2018-08-11T09:33:05Z</time>
      </trkpt>
      <trkpt lat="43.70182" lon="3.15597">
        <ele>339.96</ele>
        <time>2018-08-11T09:33:18Z</time>
      </trkpt>
      <trkpt lat="43.7019" lon="3.15601">
        <ele>340.44</ele>
        <time>2018-08-11T09:33:26Z</time>
      </trkpt>
      <trkpt lat="43.70202" lon="3.15613">
        <ele>341.41</ele>
        <time>2018-08-11T09:33:41Z</time>
      </trkpt>
      <trkpt lat="43.70204" lon="3.15614">
        <ele>340.44</ele>
        <time>2018-08-11T09:33:44Z</time>
      </trkpt>
      <trkpt lat="43.70213" lon="3.15616">
        <ele>337.08</ele>
        <time>2018-08-11T09:33:53Z</time>
      </trkpt>
      <trkpt lat="43.70214" lon="3.15617">
        <ele>343.33</ele>
        <time>2018-08-11T09:33:54Z</time>
      </trkpt>
      <trkpt lat="43.7023" lon="3.15624">
        <ele>341.41</ele>
        <time>2018-08-11T09:34:09Z</time>
      </trkpt>
      <trkpt lat="43.70233" lon="3.15624">
        <ele>342.37</ele>
        <time>2018-08-11T09:34:12Z</time>
      </trkpt>
      <trkpt lat="43.70242" lon="3.15618">
        <ele>342.37</ele>
        <time>2018-08-11T09:34:22Z</time>
      </trkpt>
      <trkpt lat="43.70252" lon="3.15615">
        <ele>343.33</ele>
        <time>2018-08-11T09:34:35Z</time>
      </trkpt>
      <trkpt lat="43.70253" lon="3.15615">
        <ele>343.33</ele>
        <time>2018-08-11T09:34:50Z</time>
      </trkpt>
      <trkpt lat="43.70255" lon="3.15612">
        <ele>343.33</ele>
        <time>2018-08-11T09:35:08Z</time>
      </trkpt>
      <trkpt lat="43.70266" lon="3.15614">
        <ele>343.81</ele>
        <time>2018-08-11T09:35:25Z</time>
      </trkpt>
      <trkpt lat="43.70268" lon="3.15613">
        <ele>344.29</ele>
        <time>2018-08-11T09:35:27Z</time>
      </trkpt>
      <trkpt lat="43.70274" lon="3.15612">
        <ele>344.77</ele>
        <time>2018-08-11T09:35:43Z</time>
      </trkpt>
      <trkpt lat="43.70278" lon="3.15604">
        <ele>345.73</ele>
        <time>2018-08-11T09:35:58Z</time>
      </trkpt>
      <trkpt lat="43.70282" lon="3.15598">
        <ele>347.65</ele>
        <time>2018-08-11T09:36:13Z</time>
      </trkpt>
      <trkpt lat="43.70286" lon="3.15592">
        <ele>348.62</ele>
        <time>2018-08-11T09:36:29Z</time>
      </trkpt>
      <trkpt lat="43.70289" lon="3.15588">
        <ele>348.62</ele>
        <time>2018-08-11T09:36:38Z</time>
      </trkpt>
      <trkpt lat="43.70287" lon="3.15585">
        <ele>349.58</ele>
        <time>2018-08-11T09:36:52Z</time>
      </trkpt>
      <trkpt lat="43.70285" lon="3.15566">
        <ele>351.98</ele>
        <time>2018-08-11T09:37:08Z</time>
      </trkpt>
      <trkpt lat="43.70285" lon="3.15564">
        <ele>351.98</ele>
        <time>2018-08-11T09:37:12Z</time>
      </trkpt>
      <trkpt lat="43.70284" lon="3.15562">
        <ele>352.46</ele>
        <time>2018-08-11T09:37:14Z</time>
      </trkpt>
      <trkpt lat="43.7028" lon="3.15555">
        <ele>353.9</ele>
        <time>2018-08-11T09:37:29Z</time>
      </trkpt>
      <trkpt lat="43.70284" lon="3.1555">
        <ele>353.9</ele>
        <time>2018-08-11T09:37:42Z</time>
      </trkpt>
      <trkpt lat="43.70292" lon="3.15537">
        <ele>355.34</ele>
        <time>2018-08-11T09:38:02Z</time>
      </trkpt>
      <trkpt lat="43.70303" lon="3.15532">
        <ele>357.75</ele>
        <time>2018-08-11T09:38:25Z</time>
      </trkpt>
      <trkpt lat="43.70304" lon="3.15527">
        <ele>358.71</ele>
        <time>2018-08-11T09:38:45Z</time>
      </trkpt>
      <trkpt lat="43.70304" lon="3.15517">
        <ele>361.11</ele>
        <time>2018-08-11T09:38:59Z</time>
      </trkpt>
      <trkpt lat="43.703" lon="3.15504">
        <ele>362.07</ele>
        <time>2018-08-11T09:39:16Z</time>
      </trkpt>
      <trkpt lat="43.70298" lon="3.15494">
        <ele>362.55</ele>
        <time>2018-08-11T09:39:29Z</time>
      </trkpt>
      <trkpt lat="43.70295" lon="3.15485">
        <ele>364.48</ele>
        <time>2018-08-11T09:39:44Z</time>
      </trkpt>
      <trkpt lat="43.7029" lon="3.15475">
        <ele>365.44</ele>
        <time>2018-08-11T09:39:56Z</time>
      </trkpt>
      <trkpt lat="43.70287" lon="3.15464">
        <ele>365.92</ele>
        <time>2018-08-11T09:40:12Z</time>
      </trkpt>
      <trkpt lat="43.70287" lon="3.15457">
        <ele>367.36</ele>
        <time>2018-08-11T09:40:25Z</time>
      </trkpt>
      <trkpt lat="43.70285" lon="3.1545">
        <ele>369.28</ele>
        <time>2018-08-11T09:40:40Z</time>
      </trkpt>
      <trkpt lat="43.70282" lon="3.15439">
        <ele>370.73</ele>
        <time>2018-08-11T09:40:53Z</time>
      </trkpt>
      <trkpt lat="43.70277" lon="3.15431">
        <ele>371.69</ele>
        <time>2018-08-11T09:41:09Z</time>
      </trkpt>
      <trkpt lat="43.70274" lon="3.1542">
        <ele>373.13</ele>
        <time>2018-08-11T09:41:23Z</time>
      </trkpt>
      <trkpt lat="43.70274" lon="3.1542">
        <ele>373.61</ele>
        <time>2018-08-11T09:41:40Z</time>
      </trkpt>
      <trkpt lat="43.70274" lon="3.15416">
        <ele>374.09</ele>
        <time>2018-08-11T09:41:55Z</time>
      </trkpt>
      <trkpt lat="43.70272" lon="3.1541">
        <ele>375.05</ele>
        <time>2018-08-11T09:42:10Z</time>
      </trkpt>
      <trkpt lat="43.70271" lon="3.15406">
        <ele>375.53</ele>
        <time>2018-08-11T09:42:23Z</time>
      </trkpt>
      <trkpt lat="43.70272" lon="3.15399">
        <ele>376.49</ele>
        <time>2018-08-11T09:42:38Z</time>
      </trkpt>
      <trkpt lat="43.70266" lon="3.1539">
        <ele>377.45</ele>
        <time>2018-08-11T09:42:53Z</time>
      </trkpt>
      <trkpt lat="43.70256" lon="3.1538">
        <ele>376.97</ele>
        <time>2018-08-11T09:43:07Z</time>
      </trkpt>
      <trkpt lat="43.70244" lon="3.15371">
        <ele>376.97</ele>
        <time>2018-08-11T09:43:23Z</time>
      </trkpt>
      <trkpt lat="43.70237" lon="3.15361">
        <ele>375.53</ele>
        <time>2018-08-11T09:43:38Z</time>
      </trkpt>
      <trkpt lat="43.70229" lon="3.1535">
        <ele>375.53</ele>
        <time>2018-08-11T09:43:53Z</time>
      </trkpt>
      <trkpt lat="43.70229" lon="3.1535">
        <ele>375.53</ele>
        <time>2018-08-11T09:43:54Z</time>
      </trkpt>
      <trkpt lat="43.70227" lon="3.15341">
        <ele>376.97</ele>
        <time>2018-08-11T09:44:06Z</time>
      </trkpt>
      <trkpt lat="43.70223" lon="3.15329">
        <ele>378.42</ele>
        <time>2018-08-11T09:44:18Z</time>
      </trkpt>
      <trkpt lat="43.7022" lon="3.15321">
        <ele>378.9</ele>
        <time>2018-08-11T09:44:30Z</time>
      </trkpt>
      <trkpt lat="43.70219" lon="3.15314">
        <ele>380.82</ele>
        <time>2018-08-11T09:44:46Z</time>
      </trkpt>
      <trkpt lat="43.70219" lon="3.15314">
        <ele>380.82</ele>
        <time>2018-08-11T09:44:49Z</time>
      </trkpt>
      <trkpt lat="43.7022" lon="3.15305">
        <ele>381.78</ele>
        <time>2018-08-11T09:45:03Z</time>
      </trkpt>
      <trkpt lat="43.70221" lon="3.15306">
        <ele>382.26</ele>
        <time>2018-08-11T09:45:23Z</time>
      </trkpt>
      <trkpt lat="43.70223" lon="3.15304">
        <ele>381.78</ele>
        <time>2018-08-11T09:45:46Z</time>
      </trkpt>
      <trkpt lat="43.70217" lon="3.15297">
        <ele>382.74</ele>
        <time>2018-08-11T09:46:00Z</time>
      </trkpt>
      <trkpt lat="43.70212" lon="3.15292">
        <ele>384.18</ele>
        <time>2018-08-11T09:46:15Z</time>
      </trkpt>
      <trkpt lat="43.70208" lon="3.15282">
        <ele>387.07</ele>
        <time>2018-08-11T09:46:32Z</time>
      </trkpt>
      <trkpt lat="43.702" lon="3.15272">
        <ele>387.55</ele>
        <time>2018-08-11T09:46:49Z</time>
      </trkpt>
      <trkpt lat="43.70195" lon="3.15261">
        <ele>388.51</ele>
        <time>2018-08-11T09:47:04Z</time>
      </trkpt>
      <trkpt lat="43.70195" lon="3.15254">
        <ele>388.99</ele>
        <time>2018-08-11T09:47:19Z</time>
      </trkpt>
      <trkpt lat="43.70198" lon="3.1525">
        <ele>391.87</ele>
        <time>2018-08-11T09:47:35Z</time>
      </trkpt>
      <trkpt lat="43.70202" lon="3.15244">
        <ele>392.36</ele>
        <time>2018-08-11T09:47:48Z</time>
      </trkpt>
      <trkpt lat="43.70202" lon="3.15244">
        <ele>392.84</ele>
        <time>2018-08-11T09:48:02Z</time>
      </trkpt>
      <trkpt lat="43.70202" lon="3.15244">
        <ele>392.84</ele>
        <time>2018-08-11T09:48:20Z</time>
      </trkpt>
      <trkpt lat="43.70202" lon="3.15244">
        <ele>392.84</ele>
        <time>2018-08-11T09:48:40Z</time>
      </trkpt>
      <trkpt lat="43.70202" lon="3.15243">
        <ele>392.84</ele>
        <time>2018-08-11T09:49:01Z</time>
      </trkpt>
      <trkpt lat="43.70201" lon="3.15243">
        <ele>392.84</ele>
        <time>2018-08-11T09:49:27Z</time>
      </trkpt>
      <trkpt lat="43.70199" lon="3.15242">
        <ele>393.8</ele>
        <time>2018-08-11T09:49:57Z</time>
      </trkpt>
      <trkpt lat="43.702" lon="3.15242">
        <ele>393.32</ele>
        <time>2018-08-11T09:50:18Z</time>
      </trkpt>
      <trkpt lat="43.70201" lon="3.15241">
        <ele>394.28</ele>
        <time>2018-08-11T09:50:52Z</time>
      </trkpt>
      <trkpt lat="43.70201" lon="3.15241">
        <ele>393.8</ele>
        <time>2018-08-11T09:51:28Z</time>
      </trkpt>
      <trkpt lat="43.702" lon="3.15241">
        <ele>393.8</ele>
        <time>2018-08-11T09:51:42Z</time>
      </trkpt>
      <trkpt lat="43.70201" lon="3.15241">
        <ele>393.8</ele>
        <time>2018-08-11T09:52:17Z</time>
      </trkpt>
      <trkpt lat="43.70201" lon="3.15242">
        <ele>394.28</ele>
        <time>2018-08-11T09:52:48Z</time>
      </trkpt>
      <trkpt lat="43.702" lon="3.15241">
        <ele>395.24</ele>
        <time>2018-08-11T09:53:17Z</time>
      </trkpt>
      <trkpt lat="43.70202" lon="3.15239">
        <ele>395.72</ele>
        <time>2018-08-11T09:53:28Z</time>
      </trkpt>
      <trkpt lat="43.70202" lon="3.15239">
        <ele>396.68</ele>
        <time>2018-08-11T09:53:33Z</time>
      </trkpt>
      <trkpt lat="43.70205" lon="3.15234">
        <ele>397.16</ele>
        <time>2018-08-11T09:53:46Z</time>
      </trkpt>
      <trkpt lat="43.70205" lon="3.15231">
        <ele>399.57</ele>
        <time>2018-08-11T09:54:02Z</time>
      </trkpt>
      <trkpt lat="43.70203" lon="3.15224">
        <ele>400.05</ele>
        <time>2018-08-11T09:54:18Z</time>
      </trkpt>
      <trkpt lat="43.70201" lon="3.15218">
        <ele>401.49</ele>
        <time>2018-08-11T09:54:35Z</time>
      </trkpt>
      <trkpt lat="43.702" lon="3.1521">
        <ele>402.93</ele>
        <time>2018-08-11T09:54:48Z</time>
      </trkpt>
      <trkpt lat="43.70199" lon="3.15204">
        <ele>404.37</ele>
        <time>2018-08-11T09:55:05Z</time>
      </trkpt>
      <trkpt lat="43.70198" lon="3.15196">
        <ele>405.81</ele>
        <time>2018-08-11T09:55:19Z</time>
      </trkpt>
      <trkpt lat="43.70198" lon="3.1519">
        <ele>407.26</ele>
        <time>2018-08-11T09:55:32Z</time>
      </trkpt>
      <trkpt lat="43.70196" lon="3.15184">
        <ele>408.22</ele>
        <time>2018-08-11T09:55:44Z</time>
      </trkpt>
      <trkpt lat="43.70192" lon="3.15178">
        <ele>408.7</ele>
        <time>2018-08-11T09:55:57Z</time>
      </trkpt>
      <trkpt lat="43.7019" lon="3.15171">
        <ele>409.66</ele>
        <time>2018-08-11T09:56:09Z</time>
      </trkpt>
      <trkpt lat="43.70185" lon="3.15166">
        <ele>410.14</ele>
        <time>2018-08-11T09:56:24Z</time>
      </trkpt>
      <trkpt lat="43.70178" lon="3.1516">
        <ele>410.62</ele>
        <time>2018-08-11T09:56:38Z</time>
      </trkpt>
      <trkpt lat="43.70172" lon="3.15151">
        <ele>411.1</ele>
        <time>2018-08-11T09:56:51Z</time>
      </trkpt>
      <trkpt lat="43.70169" lon="3.15152">
        <ele>409.66</ele>
        <time>2018-08-11T09:57:06Z</time>
      </trkpt>
      <trkpt lat="43.70164" lon="3.15153">
        <ele>411.1</ele>
        <time>2018-08-11T09:57:20Z</time>
      </trkpt>
      <trkpt lat="43.70157" lon="3.15145">
        <ele>413.5</ele>
        <time>2018-08-11T09:57:37Z</time>
      </trkpt>
      <trkpt lat="43.70147" lon="3.15139">
        <ele>413.98</ele>
        <time>2018-08-11T09:57:49Z</time>
      </trkpt>
      <trkpt lat="43.70141" lon="3.15132">
        <ele>415.43</ele>
        <time>2018-08-11T09:58:03Z</time>
      </trkpt>
      <trkpt lat="43.70138" lon="3.15131">
        <ele>416.87</ele>
        <time>2018-08-11T09:58:17Z</time>
      </trkpt>
      <trkpt lat="43.70133" lon="3.15123">
        <ele>418.31</ele>
        <time>2018-08-11T09:58:32Z</time>
      </trkpt>
      <trkpt lat="43.70129" lon="3.15112">
        <ele>420.23</ele>
        <time>2018-08-11T09:58:46Z</time>
      </trkpt>
      <trkpt lat="43.70123" lon="3.15107">
        <ele>421.68</ele>
        <time>2018-08-11T09:59:00Z</time>
      </trkpt>
      <trkpt lat="43.70116" lon="3.15101">
        <ele>423.12</ele>
        <time>2018-08-11T09:59:14Z</time>
      </trkpt>
      <trkpt lat="43.70117" lon="3.15102">
        <ele>423.12</ele>
        <time>2018-08-11T09:59:30Z</time>
      </trkpt>
      <trkpt lat="43.70112" lon="3.15092">
        <ele>423.12</ele>
        <time>2018-08-11T09:59:47Z</time>
      </trkpt>
      <trkpt lat="43.70111" lon="3.1509">
        <ele>423.12</ele>
        <time>2018-08-11T10:00:05Z</time>
      </trkpt>
      <trkpt lat="43.70111" lon="3.1509">
        <ele>423.12</ele>
        <time>2018-08-11T10:00:32Z</time>
      </trkpt>
      <trkpt lat="43.70111" lon="3.15088">
        <ele>423.12</ele>
        <time>2018-08-11T10:00:52Z</time>
      </trkpt>
      <trkpt lat="43.70111" lon="3.15084">
        <ele>423.6</ele>
        <time>2018-08-11T10:01:13Z</time>
      </trkpt>
      <trkpt lat="43.70112" lon="3.15083">
        <ele>424.56</ele>
        <time>2018-08-11T10:01:21Z</time>
      </trkpt>
      <trkpt lat="43.70112" lon="3.15083">
        <ele>423.6</ele>
        <time>2018-08-11T10:01:23Z</time>
      </trkpt>
      <trkpt lat="43.70112" lon="3.15083">
        <ele>412.54</ele>
        <time>2018-08-11T10:01:31Z</time>
      </trkpt>
      <trkpt lat="43.70112" lon="3.15083">
        <ele>427.44</ele>
        <time>2018-08-11T10:01:32Z</time>
      </trkpt>
      <trkpt lat="43.70112" lon="3.15083">
        <ele>423.6</ele>
        <time>2018-08-11T10:01:33Z</time>
      </trkpt>
      <trkpt lat="43.70112" lon="3.15082">
        <ele>411.1</ele>
        <time>2018-08-11T10:01:48Z</time>
      </trkpt>
      <trkpt lat="43.70112" lon="3.15082">
        <ele>426</ele>
        <time>2018-08-11T10:01:49Z</time>
      </trkpt>
      <trkpt lat="43.70112" lon="3.15082">
        <ele>421.19</ele>
        <time>2018-08-11T10:01:54Z</time>
      </trkpt>
      <trkpt lat="43.70112" lon="3.15082">
        <ele>431.77</ele>
        <time>2018-08-11T10:02:00Z</time>
      </trkpt>
      <trkpt lat="43.70112" lon="3.15082">
        <ele>424.08</ele>
        <time>2018-08-11T10:02:01Z</time>
      </trkpt>
      <trkpt lat="43.70112" lon="3.15082">
        <ele>419.75</ele>
        <time>2018-08-11T10:02:02Z</time>
      </trkpt>
      <trkpt lat="43.70112" lon="3.15082">
        <ele>428.4</ele>
        <time>2018-08-11T10:02:03Z</time>
      </trkpt>
      <trkpt lat="43.70112" lon="3.15082">
        <ele>431.77</ele>
        <time>2018-08-11T10:02:04Z</time>
      </trkpt>
      <trkpt lat="43.70112" lon="3.15082">
        <ele>422.64</ele>
        <time>2018-08-11T10:02:05Z</time>
      </trkpt>
      <trkpt lat="43.70112" lon="3.15082">
        <ele>423.6</ele>
        <time>2018-08-11T10:02:06Z</time>
      </trkpt>
      <trkpt lat="43.70112" lon="3.15081">
        <ele>423.6</ele>
        <time>2018-08-11T10:02:20Z</time>
      </trkpt>
      <trkpt lat="43.70112" lon="3.1508">
        <ele>418.79</ele>
        <time>2018-08-11T10:02:25Z</time>
      </trkpt>
      <trkpt lat="43.70112" lon="3.1508">
        <ele>423.6</ele>
        <time>2018-08-11T10:02:26Z</time>
      </trkpt>
      <trkpt lat="43.70112" lon="3.15079">
        <ele>423.12</ele>
        <time>2018-08-11T10:02:42Z</time>
      </trkpt>
      <trkpt lat="43.70112" lon="3.15079">
        <ele>423.6</ele>
        <time>2018-08-11T10:02:54Z</time>
      </trkpt>
      <trkpt lat="43.70106" lon="3.15072">
        <ele>423.6</ele>
        <time>2018-08-11T10:03:06Z</time>
      </trkpt>
      <trkpt lat="43.70101" lon="3.15061">
        <ele>424.56</ele>
        <time>2018-08-11T10:03:18Z</time>
      </trkpt>
      <trkpt lat="43.70098" lon="3.15054">
        <ele>425.52</ele>
        <time>2018-08-11T10:03:29Z</time>
      </trkpt>
      <trkpt lat="43.70095" lon="3.15045">
        <ele>427.44</ele>
        <time>2018-08-11T10:03:42Z</time>
      </trkpt>
      <trkpt lat="43.70092" lon="3.15036">
        <ele>428.89</ele>
        <time>2018-08-11T10:03:57Z</time>
      </trkpt>
      <trkpt lat="43.70089" lon="3.15026">
        <ele>429.85</ele>
        <time>2018-08-11T10:04:10Z</time>
      </trkpt>
      <trkpt lat="43.70085" lon="3.15016">
        <ele>430.33</ele>
        <time>2018-08-11T10:04:24Z</time>
      </trkpt>
      <trkpt lat="43.70082" lon="3.15007">
        <ele>431.77</ele>
        <time>2018-08-11T10:04:39Z</time>
      </trkpt>
      <trkpt lat="43.70077" lon="3.14996">
        <ele>433.21</ele>
        <time>2018-08-11T10:04:52Z</time>
      </trkpt>
      <trkpt lat="43.70074" lon="3.14992">
        <ele>434.65</ele>
        <time>2018-08-11T10:05:02Z</time>
      </trkpt>
      <trkpt lat="43.70072" lon="3.14986">
        <ele>435.61</ele>
        <time>2018-08-11T10:05:17Z</time>
      </trkpt>
      <trkpt lat="43.70069" lon="3.14981">
        <ele>436.58</ele>
        <time>2018-08-11T10:05:30Z</time>
      </trkpt>
      <trkpt lat="43.70063" lon="3.14972">
        <ele>439.46</ele>
        <time>2018-08-11T10:05:46Z</time>
      </trkpt>
      <trkpt lat="43.70057" lon="3.14968">
        <ele>440.42</ele>
        <time>2018-08-11T10:06:02Z</time>
      </trkpt>
      <trkpt lat="43.70052" lon="3.14965">
        <ele>440.9</ele>
        <time>2018-08-11T10:06:18Z</time>
      </trkpt>
      <trkpt lat="43.70048" lon="3.14962">
        <ele>441.38</ele>
        <time>2018-08-11T10:06:31Z</time>
      </trkpt>
      <trkpt lat="43.70042" lon="3.14959">
        <ele>442.34</ele>
        <time>2018-08-11T10:06:45Z</time>
      </trkpt>
      <trkpt lat="43.70035" lon="3.14954">
        <ele>442.82</ele>
        <time>2018-08-11T10:06:59Z</time>
      </trkpt>
      <trkpt lat="43.70029" lon="3.14949">
        <ele>444.27</ele>
        <time>2018-08-11T10:07:12Z</time>
      </trkpt>
      <trkpt lat="43.70024" lon="3.14947">
        <ele>444.75</ele>
        <time>2018-08-11T10:07:32Z</time>
      </trkpt>
      <trkpt lat="43.70022" lon="3.14946">
        <ele>445.23</ele>
        <time>2018-08-11T10:07:47Z</time>
      </trkpt>
      <trkpt lat="43.7002" lon="3.14938">
        <ele>446.67</ele>
        <time>2018-08-11T10:07:58Z</time>
      </trkpt>
      <trkpt lat="43.70018" lon="3.14935">
        <ele>448.11</ele>
        <time>2018-08-11T10:08:14Z</time>
      </trkpt>
      <trkpt lat="43.70015" lon="3.14931">
        <ele>449.55</ele>
        <time>2018-08-11T10:08:28Z</time>
      </trkpt>
      <trkpt lat="43.70013" lon="3.14923">
        <ele>451.48</ele>
        <time>2018-08-11T10:08:44Z</time>
      </trkpt>
      <trkpt lat="43.70007" lon="3.14913">
        <ele>452.44</ele>
        <time>2018-08-11T10:08:58Z</time>
      </trkpt>
      <trkpt lat="43.70003" lon="3.14912">
        <ele>452.92</ele>
        <time>2018-08-11T10:09:11Z</time>
      </trkpt>
      <trkpt lat="43.69994" lon="3.14904">
        <ele>454.36</ele>
        <time>2018-08-11T10:09:24Z</time>
      </trkpt>
      <trkpt lat="43.69988" lon="3.14899">
        <ele>455.32</ele>
        <time>2018-08-11T10:09:35Z</time>
      </trkpt>
      <trkpt lat="43.69985" lon="3.14896">
        <ele>455.8</ele>
        <time>2018-08-11T10:09:49Z</time>
      </trkpt>
      <trkpt lat="43.69981" lon="3.14892">
        <ele>457.72</ele>
        <time>2018-08-11T10:10:01Z</time>
      </trkpt>
      <trkpt lat="43.69979" lon="3.14889">
        <ele>458.69</ele>
        <time>2018-08-11T10:10:14Z</time>
      </trkpt>
      <trkpt lat="43.69976" lon="3.14884">
        <ele>460.13</ele>
        <time>2018-08-11T10:10:26Z</time>
      </trkpt>
      <trkpt lat="43.69972" lon="3.14876">
        <ele>462.05</ele>
        <time>2018-08-11T10:10:40Z</time>
      </trkpt>
      <trkpt lat="43.69967" lon="3.14871">
        <ele>463.01</ele>
        <time>2018-08-11T10:10:51Z</time>
      </trkpt>
      <trkpt lat="43.69961" lon="3.1487">
        <ele>462.53</ele>
        <time>2018-08-11T10:11:04Z</time>
      </trkpt>
      <trkpt lat="43.69953" lon="3.14872">
        <ele>463.97</ele>
        <time>2018-08-11T10:11:16Z</time>
      </trkpt>
      <trkpt lat="43.69947" lon="3.14873">
        <ele>463.97</ele>
        <time>2018-08-11T10:11:29Z</time>
      </trkpt>
      <trkpt lat="43.69941" lon="3.14875">
        <ele>465.42</ele>
        <time>2018-08-11T10:11:41Z</time>
      </trkpt>
      <trkpt lat="43.69934" lon="3.14877">
        <ele>465.9</ele>
        <time>2018-08-11T10:11:53Z</time>
      </trkpt>
      <trkpt lat="43.69924" lon="3.14878">
        <ele>467.82</ele>
        <time>2018-08-11T10:12:08Z</time>
      </trkpt>
      <trkpt lat="43.69923" lon="3.14877">
        <ele>467.82</ele>
        <time>2018-08-11T10:12:09Z</time>
      </trkpt>
      <trkpt lat="43.69919" lon="3.14877">
        <ele>468.78</ele>
        <time>2018-08-11T10:12:20Z</time>
      </trkpt>
      <trkpt lat="43.69911" lon="3.14873">
        <ele>469.26</ele>
        <time>2018-08-11T10:12:32Z</time>
      </trkpt>
      <trkpt lat="43.69908" lon="3.14865">
        <ele>471.18</ele>
        <time>2018-08-11T10:12:46Z</time>
      </trkpt>
      <trkpt lat="43.69903" lon="3.14857">
        <ele>472.63</ele>
        <time>2018-08-11T10:13:01Z</time>
      </trkpt>
      <trkpt lat="43.69901" lon="3.1485">
        <ele>473.59</ele>
        <time>2018-08-11T10:13:15Z</time>
      </trkpt>
      <trkpt lat="43.69901" lon="3.14843">
        <ele>475.51</ele>
        <time>2018-08-11T10:13:28Z</time>
      </trkpt>
      <trkpt lat="43.69899" lon="3.14836">
        <ele>477.43</ele>
        <time>2018-08-11T10:13:42Z</time>
      </trkpt>
      <trkpt lat="43.69898" lon="3.14827">
        <ele>477.91</ele>
        <time>2018-08-11T10:13:53Z</time>
      </trkpt>
      <trkpt lat="43.69897" lon="3.14822">
        <ele>478.87</ele>
        <time>2018-08-11T10:14:06Z</time>
      </trkpt>
      <trkpt lat="43.69896" lon="3.14818">
        <ele>479.84</ele>
        <time>2018-08-11T10:14:22Z</time>
      </trkpt>
      <trkpt lat="43.69894" lon="3.14814">
        <ele>482.24</ele>
        <time>2018-08-11T10:14:35Z</time>
      </trkpt>
      <trkpt lat="43.69892" lon="3.14804">
        <ele>483.2</ele>
        <time>2018-08-11T10:14:47Z</time>
      </trkpt>
      <trkpt lat="43.69891" lon="3.14795">
        <ele>484.16</ele>
        <time>2018-08-11T10:14:58Z</time>
      </trkpt>
      <trkpt lat="43.69888" lon="3.14786">
        <ele>485.6</ele>
        <time>2018-08-11T10:15:11Z</time>
      </trkpt>
      <trkpt lat="43.69888" lon="3.14781">
        <ele>486.08</ele>
        <time>2018-08-11T10:15:26Z</time>
      </trkpt>
      <trkpt lat="43.69887" lon="3.14777">
        <ele>487.05</ele>
        <time>2018-08-11T10:15:42Z</time>
      </trkpt>
      <trkpt lat="43.69885" lon="3.14769">
        <ele>488.49</ele>
        <time>2018-08-11T10:15:57Z</time>
      </trkpt>
      <trkpt lat="43.69884" lon="3.14762">
        <ele>489.45</ele>
        <time>2018-08-11T10:16:23Z</time>
      </trkpt>
      <trkpt lat="43.69884" lon="3.14756">
        <ele>490.41</ele>
        <time>2018-08-11T10:16:35Z</time>
      </trkpt>
      <trkpt lat="43.69883" lon="3.14749">
        <ele>491.85</ele>
        <time>2018-08-11T10:16:51Z</time>
      </trkpt>
      <trkpt lat="43.6988" lon="3.14745">
        <ele>492.81</ele>
        <time>2018-08-11T10:17:03Z</time>
      </trkpt>
      <trkpt lat="43.69878" lon="3.14741">
        <ele>494.74</ele>
        <time>2018-08-11T10:17:16Z</time>
      </trkpt>
      <trkpt lat="43.69877" lon="3.14734">
        <ele>495.7</ele>
        <time>2018-08-11T10:17:28Z</time>
      </trkpt>
      <trkpt lat="43.69874" lon="3.1473">
        <ele>496.18</ele>
        <time>2018-08-11T10:17:42Z</time>
      </trkpt>
      <trkpt lat="43.69873" lon="3.14728">
        <ele>494.74</ele>
        <time>2018-08-11T10:18:13Z</time>
      </trkpt>
      <trkpt lat="43.69872" lon="3.14728">
        <ele>495.22</ele>
        <time>2018-08-11T10:18:34Z</time>
      </trkpt>
      <trkpt lat="43.69872" lon="3.14726">
        <ele>495.22</ele>
        <time>2018-08-11T10:19:06Z</time>
      </trkpt>
      <trkpt lat="43.6987" lon="3.14724">
        <ele>496.18</ele>
        <time>2018-08-11T10:19:39Z</time>
      </trkpt>
      <trkpt lat="43.6987" lon="3.14725">
        <ele>496.18</ele>
        <time>2018-08-11T10:20:12Z</time>
      </trkpt>
      <trkpt lat="43.6987" lon="3.14725">
        <ele>496.18</ele>
        <time>2018-08-11T10:20:40Z</time>
      </trkpt>
      <trkpt lat="43.6987" lon="3.14723">
        <ele>496.66</ele>
        <time>2018-08-11T10:21:15Z</time>
      </trkpt>
      <trkpt lat="43.69871" lon="3.14723">
        <ele>497.14</ele>
        <time>2018-08-11T10:21:38Z</time>
      </trkpt>
      <trkpt lat="43.69871" lon="3.14724">
        <ele>497.14</ele>
        <time>2018-08-11T10:21:52Z</time>
      </trkpt>
      <trkpt lat="43.69873" lon="3.14724">
        <ele>496.66</ele>
        <time>2018-08-11T10:22:19Z</time>
      </trkpt>
      <trkpt lat="43.69872" lon="3.14723">
        <ele>497.14</ele>
        <time>2018-08-11T10:22:33Z</time>
      </trkpt>
      <trkpt lat="43.69872" lon="3.14721">
        <ele>496.66</ele>
        <time>2018-08-11T10:22:55Z</time>
      </trkpt>
      <trkpt lat="43.69871" lon="3.14718">
        <ele>497.14</ele>
        <time>2018-08-11T10:23:27Z</time>
      </trkpt>
      <trkpt lat="43.69872" lon="3.14715">
        <ele>496.66</ele>
        <time>2018-08-11T10:24:01Z</time>
      </trkpt>
      <trkpt lat="43.69872" lon="3.14714">
        <ele>497.14</ele>
        <time>2018-08-11T10:24:29Z</time>
      </trkpt>
      <trkpt lat="43.69872" lon="3.14714">
        <ele>496.66</ele>
        <time>2018-08-11T10:25:03Z</time>
      </trkpt>
      <trkpt lat="43.69872" lon="3.14714">
        <ele>495.7</ele>
        <time>2018-08-11T10:25:37Z</time>
      </trkpt>
      <trkpt lat="43.69872" lon="3.14716">
        <ele>495.7</ele>
        <time>2018-08-11T10:26:09Z</time>
      </trkpt>
      <trkpt lat="43.69872" lon="3.14716">
        <ele>495.7</ele>
        <time>2018-08-11T10:26:40Z</time>
      </trkpt>
      <trkpt lat="43.69872" lon="3.14717">
        <ele>495.7</ele>
        <time>2018-08-11T10:27:08Z</time>
      </trkpt>
      <trkpt lat="43.69872" lon="3.14716">
        <ele>495.7</ele>
        <time>2018-08-11T10:27:37Z</time>
      </trkpt>
      <trkpt lat="43.69873" lon="3.14716">
        <ele>495.7</ele>
        <time>2018-08-11T10:28:13Z</time>
      </trkpt>
      <trkpt lat="43.69872" lon="3.14716">
        <ele>496.18</ele>
        <time>2018-08-11T10:28:48Z</time>
      </trkpt>
      <trkpt lat="43.69872" lon="3.14716">
        <ele>496.18</ele>
        <time>2018-08-11T10:29:25Z</time>
      </trkpt>
      <trkpt lat="43.69872" lon="3.14717">
        <ele>495.22</ele>
        <time>2018-08-11T10:29:41Z</time>
      </trkpt>
      <trkpt lat="43.69873" lon="3.14718">
        <ele>495.7</ele>
        <time>2018-08-11T10:30:16Z</time>
      </trkpt>
      <trkpt lat="43.69874" lon="3.14721">
        <ele>495.7</ele>
        <time>2018-08-11T10:30:56Z</time>
      </trkpt>
      <trkpt lat="43.69874" lon="3.14722">
        <ele>495.22</ele>
        <time>2018-08-11T10:31:33Z</time>
      </trkpt>
      <trkpt lat="43.69874" lon="3.14721">
        <ele>495.22</ele>
        <time>2018-08-11T10:32:06Z</time>
      </trkpt>
      <trkpt lat="43.69875" lon="3.14722">
        <ele>494.74</ele>
        <time>2018-08-11T10:32:34Z</time>
      </trkpt>
      <trkpt lat="43.69874" lon="3.14723">
        <ele>495.7</ele>
        <time>2018-08-11T10:33:03Z</time>
      </trkpt>
      <trkpt lat="43.69874" lon="3.14723">
        <ele>495.22</ele>
        <time>2018-08-11T10:33:38Z</time>
      </trkpt>
      <trkpt lat="43.69873" lon="3.14722">
        <ele>495.7</ele>
        <time>2018-08-11T10:34:09Z</time>
      </trkpt>
      <trkpt lat="43.69872" lon="3.14721">
        <ele>495.7</ele>
        <time>2018-08-11T10:34:23Z</time>
      </trkpt>
      <trkpt lat="43.69873" lon="3.1472">
        <ele>496.18</ele>
        <time>2018-08-11T10:34:40Z</time>
      </trkpt>
      <trkpt lat="43.69872" lon="3.1472">
        <ele>496.18</ele>
        <time>2018-08-11T10:34:55Z</time>
      </trkpt>
      <trkpt lat="43.69874" lon="3.14716">
        <ele>498.1</ele>
        <time>2018-08-11T10:35:06Z</time>
      </trkpt>
      <trkpt lat="43.69876" lon="3.14716">
        <ele>500.02</ele>
        <time>2018-08-11T10:35:20Z</time>
      </trkpt>
      <trkpt lat="43.69877" lon="3.14715">
        <ele>500.5</ele>
        <time>2018-08-11T10:35:32Z</time>
      </trkpt>
      <trkpt lat="43.69878" lon="3.14713">
        <ele>502.43</ele>
        <time>2018-08-11T10:35:45Z</time>
      </trkpt>
      <trkpt lat="43.69877" lon="3.14711">
        <ele>503.87</ele>
        <time>2018-08-11T10:35:56Z</time>
      </trkpt>
      <trkpt lat="43.69874" lon="3.14709">
        <ele>505.79</ele>
        <time>2018-08-11T10:36:11Z</time>
      </trkpt>
      <trkpt lat="43.69871" lon="3.14703">
        <ele>507.23</ele>
        <time>2018-08-11T10:36:25Z</time>
      </trkpt>
      <trkpt lat="43.6987" lon="3.14699">
        <ele>508.19</ele>
        <time>2018-08-11T10:36:36Z</time>
      </trkpt>
      <trkpt lat="43.69869" lon="3.14694">
        <ele>508.19</ele>
        <time>2018-08-11T10:37:06Z</time>
      </trkpt>
      <trkpt lat="43.69867" lon="3.1469">
        <ele>509.16</ele>
        <time>2018-08-11T10:37:19Z</time>
      </trkpt>
      <trkpt lat="43.69863" lon="3.14686">
        <ele>511.08</ele>
        <time>2018-08-11T10:37:32Z</time>
      </trkpt>
      <trkpt lat="43.69861" lon="3.14682">
        <ele>511.56</ele>
        <time>2018-08-11T10:37:54Z</time>
      </trkpt>
      <trkpt lat="43.69859" lon="3.14678">
        <ele>512.52</ele>
        <time>2018-08-11T10:38:25Z</time>
      </trkpt>
      <trkpt lat="43.69857" lon="3.14678">
        <ele>513.96</ele>
        <time>2018-08-11T10:38:38Z</time>
      </trkpt>
      <trkpt lat="43.69855" lon="3.14679">
        <ele>514.92</ele>
        <time>2018-08-11T10:38:53Z</time>
      </trkpt>
      <trkpt lat="43.6985" lon="3.14675">
        <ele>517.33</ele>
        <time>2018-08-11T10:39:06Z</time>
      </trkpt>
      <trkpt lat="43.69845" lon="3.14672">
        <ele>519.73</ele>
        <time>2018-08-11T10:39:17Z</time>
      </trkpt>
      <trkpt lat="43.69843" lon="3.14671">
        <ele>519.73</ele>
        <time>2018-08-11T10:39:22Z</time>
      </trkpt>
      <trkpt lat="43.69839" lon="3.14666">
        <ele>521.17</ele>
        <time>2018-08-11T10:39:34Z</time>
      </trkpt>
      <trkpt lat="43.69837" lon="3.14663">
        <ele>523.09</ele>
        <time>2018-08-11T10:39:49Z</time>
      </trkpt>
      <trkpt lat="43.69836" lon="3.14661">
        <ele>524.06</ele>
        <time>2018-08-11T10:40:03Z</time>
      </trkpt>
      <trkpt lat="43.69833" lon="3.1466">
        <ele>525.02</ele>
        <time>2018-08-11T10:40:17Z</time>
      </trkpt>
      <trkpt lat="43.69826" lon="3.14657">
        <ele>526.94</ele>
        <time>2018-08-11T10:40:30Z</time>
      </trkpt>
      <trkpt lat="43.69817" lon="3.14652">
        <ele>528.86</ele>
        <time>2018-08-11T10:40:43Z</time>
      </trkpt>
      <trkpt lat="43.69814" lon="3.1465">
        <ele>530.3</ele>
        <time>2018-08-11T10:40:59Z</time>
      </trkpt>
      <trkpt lat="43.69807" lon="3.14644">
        <ele>531.75</ele>
        <time>2018-08-11T10:41:13Z</time>
      </trkpt>
      <trkpt lat="43.69801" lon="3.14639">
        <ele>532.71</ele>
        <time>2018-08-11T10:41:28Z</time>
      </trkpt>
      <trkpt lat="43.69795" lon="3.14628">
        <ele>534.15</ele>
        <time>2018-08-11T10:41:42Z</time>
      </trkpt>
      <trkpt lat="43.69793" lon="3.14614">
        <ele>534.63</ele>
        <time>2018-08-11T10:41:55Z</time>
      </trkpt>
      <trkpt lat="43.69795" lon="3.14613">
        <ele>535.11</ele>
        <time>2018-08-11T10:42:09Z</time>
      </trkpt>
      <trkpt lat="43.69797" lon="3.14614">
        <ele>535.59</ele>
        <time>2018-08-11T10:42:41Z</time>
      </trkpt>
      <trkpt lat="43.69797" lon="3.14612">
        <ele>535.59</ele>
        <time>2018-08-11T10:42:51Z</time>
      </trkpt>
      <trkpt lat="43.69792" lon="3.14604">
        <ele>536.55</ele>
        <time>2018-08-11T10:43:03Z</time>
      </trkpt>
      <trkpt lat="43.69792" lon="3.14594">
        <ele>537.51</ele>
        <time>2018-08-11T10:43:16Z</time>
      </trkpt>
      <trkpt lat="43.69793" lon="3.14588">
        <ele>537.99</ele>
        <time>2018-08-11T10:43:28Z</time>
      </trkpt>
      <trkpt lat="43.69792" lon="3.14587">
        <ele>538.48</ele>
        <time>2018-08-11T10:43:43Z</time>
      </trkpt>
      <trkpt lat="43.69792" lon="3.14572">
        <ele>539.92</ele>
        <time>2018-08-11T10:43:59Z</time>
      </trkpt>
      <trkpt lat="43.69794" lon="3.14558">
        <ele>540.88</ele>
        <time>2018-08-11T10:44:11Z</time>
      </trkpt>
      <trkpt lat="43.69794" lon="3.14548">
        <ele>541.36</ele>
        <time>2018-08-11T10:44:24Z</time>
      </trkpt>
      <trkpt lat="43.69797" lon="3.14536">
        <ele>542.8</ele>
        <time>2018-08-11T10:44:36Z</time>
      </trkpt>
      <trkpt lat="43.69798" lon="3.14533">
        <ele>543.28</ele>
        <time>2018-08-11T10:44:47Z</time>
      </trkpt>
      <trkpt lat="43.69797" lon="3.14526">
        <ele>544.24</ele>
        <time>2018-08-11T10:44:59Z</time>
      </trkpt>
      <trkpt lat="43.69796" lon="3.14523">
        <ele>544.72</ele>
        <time>2018-08-11T10:45:10Z</time>
      </trkpt>
      <trkpt lat="43.69798" lon="3.14522">
        <ele>544.24</ele>
        <time>2018-08-11T10:45:36Z</time>
      </trkpt>
      <trkpt lat="43.69798" lon="3.14522">
        <ele>545.2</ele>
        <time>2018-08-11T10:46:03Z</time>
      </trkpt>
      <trkpt lat="43.69795" lon="3.14519">
        <ele>545.69</ele>
        <time>2018-08-11T10:46:31Z</time>
      </trkpt>
      <trkpt lat="43.69795" lon="3.14519">
        <ele>546.17</ele>
        <time>2018-08-11T10:46:43Z</time>
      </trkpt>
      <trkpt lat="43.69799" lon="3.14508">
        <ele>547.13</ele>
        <time>2018-08-11T10:46:55Z</time>
      </trkpt>
      <trkpt lat="43.69802" lon="3.145">
        <ele>548.09</ele>
        <time>2018-08-11T10:47:13Z</time>
      </trkpt>
      <trkpt lat="43.69804" lon="3.14491">
        <ele>548.57</ele>
        <time>2018-08-11T10:47:36Z</time>
      </trkpt>
      <trkpt lat="43.69803" lon="3.14476">
        <ele>550.01</ele>
        <time>2018-08-11T10:47:50Z</time>
      </trkpt>
      <trkpt lat="43.698" lon="3.1447">
        <ele>551.45</ele>
        <time>2018-08-11T10:48:05Z</time>
      </trkpt>
      <trkpt lat="43.698" lon="3.14465">
        <ele>552.41</ele>
        <time>2018-08-11T10:48:16Z</time>
      </trkpt>
      <trkpt lat="43.698" lon="3.14464">
        <ele>553.86</ele>
        <time>2018-08-11T10:48:31Z</time>
      </trkpt>
      <trkpt lat="43.698" lon="3.14466">
        <ele>553.86</ele>
        <time>2018-08-11T10:49:01Z</time>
      </trkpt>
      <trkpt lat="43.698" lon="3.14466">
        <ele>555.3</ele>
        <time>2018-08-11T10:49:31Z</time>
      </trkpt>
      <trkpt lat="43.698" lon="3.14459">
        <ele>556.74</ele>
        <time>2018-08-11T10:49:43Z</time>
      </trkpt>
      <trkpt lat="43.69802" lon="3.14451">
        <ele>557.7</ele>
        <time>2018-08-11T10:49:53Z</time>
      </trkpt>
      <trkpt lat="43.69803" lon="3.14446">
        <ele>557.7</ele>
        <time>2018-08-11T10:50:01Z</time>
      </trkpt>
      <trkpt lat="43.69806" lon="3.14446">
        <ele>558.18</ele>
        <time>2018-08-11T10:50:33Z</time>
      </trkpt>
      <trkpt lat="43.69804" lon="3.14446">
        <ele>558.66</ele>
        <time>2018-08-11T10:50:51Z</time>
      </trkpt>
      <trkpt lat="43.69805" lon="3.14446">
        <ele>559.14</ele>
        <time>2018-08-11T10:51:04Z</time>
      </trkpt>
      <trkpt lat="43.69806" lon="3.14444">
        <ele>559.62</ele>
        <time>2018-08-11T10:51:17Z</time>
      </trkpt>
      <trkpt lat="43.69805" lon="3.14441">
        <ele>560.59</ele>
        <time>2018-08-11T10:51:30Z</time>
      </trkpt>
      <trkpt lat="43.69803" lon="3.14439">
        <ele>562.51</ele>
        <time>2018-08-11T10:51:45Z</time>
      </trkpt>
      <trkpt lat="43.69801" lon="3.14437">
        <ele>562.99</ele>
        <time>2018-08-11T10:51:56Z</time>
      </trkpt>
      <trkpt lat="43.69801" lon="3.14434">
        <ele>563.95</ele>
        <time>2018-08-11T10:52:08Z</time>
      </trkpt>
      <trkpt lat="43.69801" lon="3.14427">
        <ele>565.87</ele>
        <time>2018-08-11T10:52:22Z</time>
      </trkpt>
      <trkpt lat="43.69799" lon="3.14422">
        <ele>567.32</ele>
        <time>2018-08-11T10:52:35Z</time>
      </trkpt>
      <trkpt lat="43.69799" lon="3.14421">
        <ele>568.28</ele>
        <time>2018-08-11T10:52:49Z</time>
      </trkpt>
      <trkpt lat="43.69802" lon="3.14414">
        <ele>568.76</ele>
        <time>2018-08-11T10:53:01Z</time>
      </trkpt>
      <trkpt lat="43.69803" lon="3.14409">
        <ele>569.24</ele>
        <time>2018-08-11T10:53:16Z</time>
      </trkpt>
      <trkpt lat="43.69806" lon="3.14405">
        <ele>570.2</ele>
        <time>2018-08-11T10:53:23Z</time>
      </trkpt>
      <trkpt lat="43.69808" lon="3.14402">
        <ele>571.64</ele>
        <time>2018-08-11T10:53:37Z</time>
      </trkpt>
      <trkpt lat="43.6981" lon="3.144">
        <ele>573.56</ele>
        <time>2018-08-11T10:53:57Z</time>
      </trkpt>
      <trkpt lat="43.69809" lon="3.14396">
        <ele>574.04</ele>
        <time>2018-08-11T10:54:06Z</time>
      </trkpt>
      <trkpt lat="43.69813" lon="3.14393">
        <ele>574.04</ele>
        <time>2018-08-11T10:54:22Z</time>
      </trkpt>
      <trkpt lat="43.69813" lon="3.1439">
        <ele>574.53</ele>
        <time>2018-08-11T10:54:52Z</time>
      </trkpt>
      <trkpt lat="43.69814" lon="3.14388">
        <ele>575.49</ele>
        <time>2018-08-11T10:55:14Z</time>
      </trkpt>
      <trkpt lat="43.69815" lon="3.14387">
        <ele>575.01</ele>
        <time>2018-08-11T10:55:48Z</time>
      </trkpt>
      <trkpt lat="43.69814" lon="3.14386">
        <ele>575.49</ele>
        <time>2018-08-11T10:56:09Z</time>
      </trkpt>
      <trkpt lat="43.69814" lon="3.14385">
        <ele>575.49</ele>
        <time>2018-08-11T10:56:34Z</time>
      </trkpt>
      <trkpt lat="43.69814" lon="3.14386">
        <ele>575.01</ele>
        <time>2018-08-11T10:56:59Z</time>
      </trkpt>
      <trkpt lat="43.69814" lon="3.14385">
        <ele>575.01</ele>
        <time>2018-08-11T10:57:28Z</time>
      </trkpt>
      <trkpt lat="43.69813" lon="3.14386">
        <ele>575.49</ele>
        <time>2018-08-11T10:57:51Z</time>
      </trkpt>
      <trkpt lat="43.69814" lon="3.14384">
        <ele>575.01</ele>
        <time>2018-08-11T10:58:21Z</time>
      </trkpt>
      <trkpt lat="43.69814" lon="3.14383">
        <ele>575.49</ele>
        <time>2018-08-11T10:58:41Z</time>
      </trkpt>
      <trkpt lat="43.69815" lon="3.14385">
        <ele>575.01</ele>
        <time>2018-08-11T10:59:04Z</time>
      </trkpt>
      <trkpt lat="43.69814" lon="3.14382">
        <ele>575.49</ele>
        <time>2018-08-11T10:59:24Z</time>
      </trkpt>
      <trkpt lat="43.69814" lon="3.14382">
        <ele>575.49</ele>
        <time>2018-08-11T10:59:51Z</time>
      </trkpt>
      <trkpt lat="43.69814" lon="3.14382">
        <ele>575.01</ele>
        <time>2018-08-11T11:00:22Z</time>
      </trkpt>
      <trkpt lat="43.69815" lon="3.14382">
        <ele>575.01</ele>
        <time>2018-08-11T11:00:53Z</time>
      </trkpt>
      <trkpt lat="43.69815" lon="3.14382">
        <ele>575.01</ele>
        <time>2018-08-11T11:01:09Z</time>
      </trkpt>
      <trkpt lat="43.69812" lon="3.14376">
        <ele>575.97</ele>
        <time>2018-08-11T11:01:24Z</time>
      </trkpt>
      <trkpt lat="43.69812" lon="3.1437">
        <ele>578.37</ele>
        <time>2018-08-11T11:01:38Z</time>
      </trkpt>
      <trkpt lat="43.6981" lon="3.14367">
        <ele>578.37</ele>
        <time>2018-08-11T11:01:51Z</time>
      </trkpt>
      <trkpt lat="43.69809" lon="3.14362">
        <ele>579.33</ele>
        <time>2018-08-11T11:02:16Z</time>
      </trkpt>
      <trkpt lat="43.69807" lon="3.14355">
        <ele>580.29</ele>
        <time>2018-08-11T11:02:28Z</time>
      </trkpt>
      <trkpt lat="43.69807" lon="3.14347">
        <ele>581.73</ele>
        <time>2018-08-11T11:02:43Z</time>
      </trkpt>
      <trkpt lat="43.69808" lon="3.1434">
        <ele>582.7</ele>
        <time>2018-08-11T11:02:58Z</time>
      </trkpt>
      <trkpt lat="43.69813" lon="3.14325">
        <ele>584.62</ele>
        <time>2018-08-11T11:03:13Z</time>
      </trkpt>
      <trkpt lat="43.69814" lon="3.1432">
        <ele>585.1</ele>
        <time>2018-08-11T11:03:27Z</time>
      </trkpt>
      <trkpt lat="43.69816" lon="3.14314">
        <ele>587.02</ele>
        <time>2018-08-11T11:03:43Z</time>
      </trkpt>
      <trkpt lat="43.69815" lon="3.1431">
        <ele>588.46</ele>
        <time>2018-08-11T11:03:53Z</time>
      </trkpt>
      <trkpt lat="43.69815" lon="3.14303">
        <ele>588.46</ele>
        <time>2018-08-11T11:04:04Z</time>
      </trkpt>
      <trkpt lat="43.69815" lon="3.14291">
        <ele>588.95</ele>
        <time>2018-08-11T11:04:17Z</time>
      </trkpt>
      <trkpt lat="43.69815" lon="3.14285">
        <ele>590.39</ele>
        <time>2018-08-11T11:04:30Z</time>
      </trkpt>
      <trkpt lat="43.69817" lon="3.14275">
        <ele>591.35</ele>
        <time>2018-08-11T11:04:43Z</time>
      </trkpt>
      <trkpt lat="43.69815" lon="3.14268">
        <ele>592.31</ele>
        <time>2018-08-11T11:04:54Z</time>
      </trkpt>
      <trkpt lat="43.69816" lon="3.14264">
        <ele>593.27</ele>
        <time>2018-08-11T11:05:07Z</time>
      </trkpt>
      <trkpt lat="43.69818" lon="3.14254">
        <ele>593.27</ele>
        <time>2018-08-11T11:05:20Z</time>
      </trkpt>
      <trkpt lat="43.69818" lon="3.14239">
        <ele>592.79</ele>
        <time>2018-08-11T11:05:32Z</time>
      </trkpt>
      <trkpt lat="43.69821" lon="3.14224">
        <ele>591.83</ele>
        <time>2018-08-11T11:05:44Z</time>
      </trkpt>
      <trkpt lat="43.69821" lon="3.1422">
        <ele>592.31</ele>
        <time>2018-08-11T11:05:57Z</time>
      </trkpt>
      <trkpt lat="43.69824" lon="3.14219">
        <ele>593.75</ele>
        <time>2018-08-11T11:06:33Z</time>
      </trkpt>
      <trkpt lat="43.69823" lon="3.14214">
        <ele>593.27</ele>
        <time>2018-08-11T11:06:44Z</time>
      </trkpt>
      <trkpt lat="43.69822" lon="3.14212">
        <ele>593.75</ele>
        <time>2018-08-11T11:06:57Z</time>
      </trkpt>
      <trkpt lat="43.69819" lon="3.14199">
        <ele>593.75</ele>
        <time>2018-08-11T11:07:09Z</time>
      </trkpt>
      <trkpt lat="43.69821" lon="3.14193">
        <ele>593.75</ele>
        <time>2018-08-11T11:07:25Z</time>
      </trkpt>
      <trkpt lat="43.6982" lon="3.1419">
        <ele>594.23</ele>
        <time>2018-08-11T11:07:46Z</time>
      </trkpt>
      <trkpt lat="43.69819" lon="3.14188">
        <ele>594.23</ele>
        <time>2018-08-11T11:08:03Z</time>
      </trkpt>
      <trkpt lat="43.6982" lon="3.14184">
        <ele>593.75</ele>
        <time>2018-08-11T11:08:26Z</time>
      </trkpt>
      <trkpt lat="43.69821" lon="3.14184">
        <ele>594.23</ele>
        <time>2018-08-11T11:08:43Z</time>
      </trkpt>
      <trkpt lat="43.6982" lon="3.14182">
        <ele>594.71</ele>
        <time>2018-08-11T11:09:11Z</time>
      </trkpt>
      <trkpt lat="43.69819" lon="3.14182">
        <ele>595.19</ele>
        <time>2018-08-11T11:09:36Z</time>
      </trkpt>
      <trkpt lat="43.69821" lon="3.14181">
        <ele>596.15</ele>
        <time>2018-08-11T11:10:04Z</time>
      </trkpt>
      <trkpt lat="43.69822" lon="3.14181">
        <ele>595.67</ele>
        <time>2018-08-11T11:10:33Z</time>
      </trkpt>
      <trkpt lat="43.69823" lon="3.14181">
        <ele>596.15</ele>
        <time>2018-08-11T11:11:02Z</time>
      </trkpt>
      <trkpt lat="43.69823" lon="3.14181">
        <ele>596.64</ele>
        <time>2018-08-11T11:11:31Z</time>
      </trkpt>
      <trkpt lat="43.69824" lon="3.1418">
        <ele>596.64</ele>
        <time>2018-08-11T11:11:59Z</time>
      </trkpt>
      <trkpt lat="43.69823" lon="3.14181">
        <ele>597.12</ele>
        <time>2018-08-11T11:12:29Z</time>
      </trkpt>
      <trkpt lat="43.69823" lon="3.14182">
        <ele>597.12</ele>
        <time>2018-08-11T11:13:01Z</time>
      </trkpt>
      <trkpt lat="43.69823" lon="3.1418">
        <ele>597.12</ele>
        <time>2018-08-11T11:13:27Z</time>
      </trkpt>
      <trkpt lat="43.69823" lon="3.1418">
        <ele>597.12</ele>
        <time>2018-08-11T11:13:59Z</time>
      </trkpt>
      <trkpt lat="43.69822" lon="3.14181">
        <ele>597.12</ele>
        <time>2018-08-11T11:14:31Z</time>
      </trkpt>
      <trkpt lat="43.69822" lon="3.1418">
        <ele>597.6</ele>
        <time>2018-08-11T11:15:00Z</time>
      </trkpt>
      <trkpt lat="43.69822" lon="3.1418">
        <ele>597.12</ele>
        <time>2018-08-11T11:15:27Z</time>
      </trkpt>
      <trkpt lat="43.69822" lon="3.1418">
        <ele>597.6</ele>
        <time>2018-08-11T11:15:58Z</time>
      </trkpt>
      <trkpt lat="43.69822" lon="3.14178">
        <ele>597.6</ele>
        <time>2018-08-11T11:16:27Z</time>
      </trkpt>
      <trkpt lat="43.69823" lon="3.14177">
        <ele>597.6</ele>
        <time>2018-08-11T11:17:01Z</time>
      </trkpt>
      <trkpt lat="43.69822" lon="3.14178">
        <ele>598.08</ele>
        <time>2018-08-11T11:17:35Z</time>
      </trkpt>
      <trkpt lat="43.69823" lon="3.14178">
        <ele>598.08</ele>
        <time>2018-08-11T11:18:15Z</time>
      </trkpt>
      <trkpt lat="43.69823" lon="3.14177">
        <ele>598.08</ele>
        <time>2018-08-11T11:18:54Z</time>
      </trkpt>
      <trkpt lat="43.69824" lon="3.14177">
        <ele>598.08</ele>
        <time>2018-08-11T11:19:31Z</time>
      </trkpt>
      <trkpt lat="43.69823" lon="3.14179">
        <ele>597.12</ele>
        <time>2018-08-11T11:20:04Z</time>
      </trkpt>
      <trkpt lat="43.69823" lon="3.14182">
        <ele>598.08</ele>
        <time>2018-08-11T11:20:35Z</time>
      </trkpt>
      <trkpt lat="43.69823" lon="3.14185">
        <ele>597.12</ele>
        <time>2018-08-11T11:21:07Z</time>
      </trkpt>
      <trkpt lat="43.69823" lon="3.14184">
        <ele>597.6</ele>
        <time>2018-08-11T11:21:33Z</time>
      </trkpt>
      <trkpt lat="43.69823" lon="3.14183">
        <ele>597.6</ele>
        <time>2018-08-11T11:22:04Z</time>
      </trkpt>
      <trkpt lat="43.69824" lon="3.14182">
        <ele>597.12</ele>
        <time>2018-08-11T11:22:39Z</time>
      </trkpt>
      <trkpt lat="43.69824" lon="3.14182">
        <ele>597.12</ele>
        <time>2018-08-11T11:23:15Z</time>
      </trkpt>
      <trkpt lat="43.69824" lon="3.14181">
        <ele>596.64</ele>
        <time>2018-08-11T11:23:53Z</time>
      </trkpt>
      <trkpt lat="43.69823" lon="3.1418">
        <ele>597.12</ele>
        <time>2018-08-11T11:24:27Z</time>
      </trkpt>
      <trkpt lat="43.69824" lon="3.1418">
        <ele>597.12</ele>
        <time>2018-08-11T11:25:08Z</time>
      </trkpt>
      <trkpt lat="43.69824" lon="3.1418">
        <ele>596.64</ele>
        <time>2018-08-11T11:25:43Z</time>
      </trkpt>
      <trkpt lat="43.69823" lon="3.1418">
        <ele>596.64</ele>
        <time>2018-08-11T11:26:22Z</time>
      </trkpt>
      <trkpt lat="43.69823" lon="3.14181">
        <ele>596.15</ele>
        <time>2018-08-11T11:26:57Z</time>
      </trkpt>
      <trkpt lat="43.69823" lon="3.1418">
        <ele>596.15</ele>
        <time>2018-08-11T11:27:35Z</time>
      </trkpt>
      <trkpt lat="43.69825" lon="3.1418">
        <ele>595.67</ele>
        <time>2018-08-11T11:28:13Z</time>
      </trkpt>
      <trkpt lat="43.69825" lon="3.14179">
        <ele>596.15</ele>
        <time>2018-08-11T11:28:48Z</time>
      </trkpt>
      <trkpt lat="43.69825" lon="3.14178">
        <ele>596.64</ele>
        <time>2018-08-11T11:29:22Z</time>
      </trkpt>
      <trkpt lat="43.69826" lon="3.14179">
        <ele>595.67</ele>
        <time>2018-08-11T11:29:56Z</time>
      </trkpt>
      <trkpt lat="43.69825" lon="3.14179">
        <ele>595.19</ele>
        <time>2018-08-11T11:30:30Z</time>
      </trkpt>
      <trkpt lat="43.69826" lon="3.14179">
        <ele>595.67</ele>
        <time>2018-08-11T11:31:04Z</time>
      </trkpt>
      <trkpt lat="43.69825" lon="3.14181">
        <ele>595.19</ele>
        <time>2018-08-11T11:31:34Z</time>
      </trkpt>
      <trkpt lat="43.69825" lon="3.14179">
        <ele>595.67</ele>
        <time>2018-08-11T11:32:08Z</time>
      </trkpt>
      <trkpt lat="43.69825" lon="3.1418">
        <ele>594.71</ele>
        <time>2018-08-11T11:32:42Z</time>
      </trkpt>
      <trkpt lat="43.69825" lon="3.14181">
        <ele>595.67</ele>
        <time>2018-08-11T11:33:20Z</time>
      </trkpt>
      <trkpt lat="43.69824" lon="3.14181">
        <ele>596.15</ele>
        <time>2018-08-11T11:33:54Z</time>
      </trkpt>
      <trkpt lat="43.69824" lon="3.14181">
        <ele>595.67</ele>
        <time>2018-08-11T11:34:25Z</time>
      </trkpt>
      <trkpt lat="43.69824" lon="3.14181">
        <ele>595.19</ele>
        <time>2018-08-11T11:34:56Z</time>
      </trkpt>
      <trkpt lat="43.69824" lon="3.14181">
        <ele>595.19</ele>
        <time>2018-08-11T11:35:38Z</time>
      </trkpt>
      <trkpt lat="43.69823" lon="3.14181">
        <ele>595.19</ele>
        <time>2018-08-11T11:36:12Z</time>
      </trkpt>
      <trkpt lat="43.69824" lon="3.14182">
        <ele>595.19</ele>
        <time>2018-08-11T11:36:38Z</time>
      </trkpt>
      <trkpt lat="43.69825" lon="3.14181">
        <ele>594.71</ele>
        <time>2018-08-11T11:36:56Z</time>
      </trkpt>
      <trkpt lat="43.69826" lon="3.1418">
        <ele>594.71</ele>
        <time>2018-08-11T11:37:18Z</time>
      </trkpt>
      <trkpt lat="43.69827" lon="3.1418">
        <ele>594.23</ele>
        <time>2018-08-11T11:37:48Z</time>
      </trkpt>
      <trkpt lat="43.69828" lon="3.1418">
        <ele>593.75</ele>
        <time>2018-08-11T11:38:18Z</time>
      </trkpt>
      <trkpt lat="43.69827" lon="3.14181">
        <ele>593.75</ele>
        <time>2018-08-11T11:38:55Z</time>
      </trkpt>
      <trkpt lat="43.69826" lon="3.14182">
        <ele>593.75</ele>
        <time>2018-08-11T11:39:26Z</time>
      </trkpt>
      <trkpt lat="43.69826" lon="3.14182">
        <ele>593.75</ele>
        <time>2018-08-11T11:39:54Z</time>
      </trkpt>
      <trkpt lat="43.69826" lon="3.14182">
        <ele>592.79</ele>
        <time>2018-08-11T11:40:25Z</time>
      </trkpt>
      <trkpt lat="43.69827" lon="3.14181">
        <ele>593.27</ele>
        <time>2018-08-11T11:40:57Z</time>
      </trkpt>
      <trkpt lat="43.69827" lon="3.14181">
        <ele>592.79</ele>
        <time>2018-08-11T11:41:33Z</time>
      </trkpt>
      <trkpt lat="43.69827" lon="3.14181">
        <ele>592.79</ele>
        <time>2018-08-11T11:42:13Z</time>
      </trkpt>
      <trkpt lat="43.69826" lon="3.14181">
        <ele>591.83</ele>
        <time>2018-08-11T11:42:49Z</time>
      </trkpt>
      <trkpt lat="43.69826" lon="3.14181">
        <ele>591.35</ele>
        <time>2018-08-11T11:43:24Z</time>
      </trkpt>
      <trkpt lat="43.69826" lon="3.14181">
        <ele>591.35</ele>
        <time>2018-08-11T11:43:50Z</time>
      </trkpt>
      <trkpt lat="43.69826" lon="3.14182">
        <ele>591.35</ele>
        <time>2018-08-11T11:44:19Z</time>
      </trkpt>
      <trkpt lat="43.69827" lon="3.14183">
        <ele>590.87</ele>
        <time>2018-08-11T11:44:52Z</time>
      </trkpt>
      <trkpt lat="43.69827" lon="3.14184">
        <ele>590.39</ele>
        <time>2018-08-11T11:45:24Z</time>
      </trkpt>
      <trkpt lat="43.69827" lon="3.14184">
        <ele>590.87</ele>
        <time>2018-08-11T11:45:55Z</time>
      </trkpt>
      <trkpt lat="43.69828" lon="3.14183">
        <ele>590.87</ele>
        <time>2018-08-11T11:46:27Z</time>
      </trkpt>
      <trkpt lat="43.69828" lon="3.14183">
        <ele>590.39</ele>
        <time>2018-08-11T11:47:02Z</time>
      </trkpt>
      <trkpt lat="43.69829" lon="3.14182">
        <ele>590.39</ele>
        <time>2018-08-11T11:47:29Z</time>
      </trkpt>
      <trkpt lat="43.69829" lon="3.14182">
        <ele>590.87</ele>
        <time>2018-08-11T11:48:05Z</time>
      </trkpt>
      <trkpt lat="43.69829" lon="3.14182">
        <ele>589.91</ele>
        <time>2018-08-11T11:48:38Z</time>
      </trkpt>
      <trkpt lat="43.69828" lon="3.14182">
        <ele>589.43</ele>
        <time>2018-08-11T11:49:13Z</time>
      </trkpt>
      <trkpt lat="43.69828" lon="3.14181">
        <ele>588.95</ele>
        <time>2018-08-11T11:49:47Z</time>
      </trkpt>
      <trkpt lat="43.69828" lon="3.14181">
        <ele>589.43</ele>
        <time>2018-08-11T11:50:22Z</time>
      </trkpt>
      <trkpt lat="43.69826" lon="3.14182">
        <ele>588.95</ele>
        <time>2018-08-11T11:51:01Z</time>
      </trkpt>
      <trkpt lat="43.69827" lon="3.14183">
        <ele>588.46</ele>
        <time>2018-08-11T11:51:36Z</time>
      </trkpt>
      <trkpt lat="43.69828" lon="3.14182">
        <ele>588.95</ele>
        <time>2018-08-11T11:52:07Z</time>
      </trkpt>
      <trkpt lat="43.69828" lon="3.14181">
        <ele>588.46</ele>
        <time>2018-08-11T11:52:35Z</time>
      </trkpt>
      <trkpt lat="43.69828" lon="3.1418">
        <ele>587.98</ele>
        <time>2018-08-11T11:52:55Z</time>
      </trkpt>
      <trkpt lat="43.69828" lon="3.14181">
        <ele>588.95</ele>
        <time>2018-08-11T11:53:14Z</time>
      </trkpt>
      <trkpt lat="43.69828" lon="3.1418">
        <ele>588.95</ele>
        <time>2018-08-11T11:53:24Z</time>
      </trkpt>
      <trkpt lat="43.69828" lon="3.1418">
        <ele>589.43</ele>
        <time>2018-08-11T11:53:40Z</time>
      </trkpt>
      <trkpt lat="43.69828" lon="3.1418">
        <ele>589.43</ele>
        <time>2018-08-11T11:53:54Z</time>
      </trkpt>
      <trkpt lat="43.69826" lon="3.14176">
        <ele>588.95</ele>
        <time>2018-08-11T11:54:09Z</time>
      </trkpt>
      <trkpt lat="43.69822" lon="3.14174">
        <ele>590.39</ele>
        <time>2018-08-11T11:54:23Z</time>
      </trkpt>
      <trkpt lat="43.69818" lon="3.14169">
        <ele>591.83</ele>
        <time>2018-08-11T11:54:36Z</time>
      </trkpt>
      <trkpt lat="43.69815" lon="3.1417">
        <ele>592.79</ele>
        <time>2018-08-11T11:54:47Z</time>
      </trkpt>
      <trkpt lat="43.69816" lon="3.14171">
        <ele>593.27</ele>
        <time>2018-08-11T11:55:08Z</time>
      </trkpt>
      <trkpt lat="43.69813" lon="3.14171">
        <ele>593.27</ele>
        <time>2018-08-11T11:55:27Z</time>
      </trkpt>
      <trkpt lat="43.69807" lon="3.1417">
        <ele>594.71</ele>
        <time>2018-08-11T11:55:40Z</time>
      </trkpt>
      <trkpt lat="43.69798" lon="3.14172">
        <ele>596.15</ele>
        <time>2018-08-11T11:55:55Z</time>
      </trkpt>
      <trkpt lat="43.69793" lon="3.14174">
        <ele>596.64</ele>
        <time>2018-08-11T11:56:09Z</time>
      </trkpt>
      <trkpt lat="43.6979" lon="3.14175">
        <ele>597.6</ele>
        <time>2018-08-11T11:56:22Z</time>
      </trkpt>
      <trkpt lat="43.69785" lon="3.14179">
        <ele>599.04</ele>
        <time>2018-08-11T11:56:35Z</time>
      </trkpt>
      <trkpt lat="43.69781" lon="3.14178">
        <ele>600</ele>
        <time>2018-08-11T11:56:47Z</time>
      </trkpt>
      <trkpt lat="43.69778" lon="3.14178">
        <ele>601.44</ele>
        <time>2018-08-11T11:56:59Z</time>
      </trkpt>
      <trkpt lat="43.6977" lon="3.14179">
        <ele>601.92</ele>
        <time>2018-08-11T11:57:13Z</time>
      </trkpt>
      <trkpt lat="43.69763" lon="3.14176">
        <ele>603.85</ele>
        <time>2018-08-11T11:57:26Z</time>
      </trkpt>
      <trkpt lat="43.69762" lon="3.14176">
        <ele>603.85</ele>
        <time>2018-08-11T11:57:27Z</time>
      </trkpt>
      <trkpt lat="43.69754" lon="3.14173">
        <ele>605.29</ele>
        <time>2018-08-11T11:57:40Z</time>
      </trkpt>
      <trkpt lat="43.69742" lon="3.1417">
        <ele>606.73</ele>
        <time>2018-08-11T11:57:52Z</time>
      </trkpt>
      <trkpt lat="43.69738" lon="3.1417">
        <ele>607.69</ele>
        <time>2018-08-11T11:57:55Z</time>
      </trkpt>
      <trkpt lat="43.69733" lon="3.14169">
        <ele>608.65</ele>
        <time>2018-08-11T11:58:02Z</time>
      </trkpt>
      <trkpt lat="43.69729" lon="3.14168">
        <ele>609.61</ele>
        <time>2018-08-11T11:58:14Z</time>
      </trkpt>
      <trkpt lat="43.69723" lon="3.14163">
        <ele>611.54</ele>
        <time>2018-08-11T11:58:27Z</time>
      </trkpt>
      <trkpt lat="43.6972" lon="3.14158">
        <ele>612.5</ele>
        <time>2018-08-11T11:58:40Z</time>
      </trkpt>
      <trkpt lat="43.69714" lon="3.14153">
        <ele>612.98</ele>
        <time>2018-08-11T11:58:50Z</time>
      </trkpt>
      <trkpt lat="43.69713" lon="3.14151">
        <ele>615.38</ele>
        <time>2018-08-11T11:59:03Z</time>
      </trkpt>
      <trkpt lat="43.69713" lon="3.14145">
        <ele>615.86</ele>
        <time>2018-08-11T11:59:14Z</time>
      </trkpt>
      <trkpt lat="43.69709" lon="3.14137">
        <ele>617.3</ele>
        <time>2018-08-11T11:59:28Z</time>
      </trkpt>
      <trkpt lat="43.697" lon="3.14131">
        <ele>618.26</ele>
        <time>2018-08-11T11:59:38Z</time>
      </trkpt>
      <trkpt lat="43.69695" lon="3.14127">
        <ele>619.71</ele>
        <time>2018-08-11T11:59:51Z</time>
      </trkpt>
      <trkpt lat="43.69694" lon="3.14121">
        <ele>621.15</ele>
        <time>2018-08-11T12:00:04Z</time>
      </trkpt>
      <trkpt lat="43.69693" lon="3.14107">
        <ele>623.07</ele>
        <time>2018-08-11T12:00:18Z</time>
      </trkpt>
      <trkpt lat="43.6969" lon="3.1409">
        <ele>623.55</ele>
        <time>2018-08-11T12:00:30Z</time>
      </trkpt>
      <trkpt lat="43.6969" lon="3.14082">
        <ele>624.99</ele>
        <time>2018-08-11T12:00:42Z</time>
      </trkpt>
      <trkpt lat="43.69685" lon="3.14068">
        <ele>626.44</ele>
        <time>2018-08-11T12:00:55Z</time>
      </trkpt>
      <trkpt lat="43.69684" lon="3.14064">
        <ele>627.4</ele>
        <time>2018-08-11T12:01:07Z</time>
      </trkpt>
      <trkpt lat="43.69684" lon="3.14052">
        <ele>629.32</ele>
        <time>2018-08-11T12:01:21Z</time>
      </trkpt>
      <trkpt lat="43.69678" lon="3.14039">
        <ele>629.32</ele>
        <time>2018-08-11T12:01:34Z</time>
      </trkpt>
      <trkpt lat="43.69674" lon="3.14029">
        <ele>629.8</ele>
        <time>2018-08-11T12:01:47Z</time>
      </trkpt>
      <trkpt lat="43.69673" lon="3.14009">
        <ele>630.28</ele>
        <time>2018-08-11T12:02:01Z</time>
      </trkpt>
      <trkpt lat="43.69673" lon="3.14009">
        <ele>628.84</ele>
        <time>2018-08-11T12:02:22Z</time>
      </trkpt>
      <trkpt lat="43.69673" lon="3.14002">
        <ele>628.84</ele>
        <time>2018-08-11T12:02:37Z</time>
      </trkpt>
      <trkpt lat="43.69668" lon="3.14004">
        <ele>628.84</ele>
        <time>2018-08-11T12:02:48Z</time>
      </trkpt>
      <trkpt lat="43.69665" lon="3.14003">
        <ele>628.36</ele>
        <time>2018-08-11T12:03:16Z</time>
      </trkpt>
      <trkpt lat="43.69658" lon="3.14004">
        <ele>629.32</ele>
        <time>2018-08-11T12:03:35Z</time>
      </trkpt>
      <trkpt lat="43.69658" lon="3.14004">
        <ele>628.84</ele>
        <time>2018-08-11T12:03:39Z</time>
      </trkpt>
      <trkpt lat="43.69652" lon="3.14006">
        <ele>630.28</ele>
        <time>2018-08-11T12:03:51Z</time>
      </trkpt>
      <trkpt lat="43.6965" lon="3.14007">
        <ele>630.28</ele>
        <time>2018-08-11T12:04:02Z</time>
      </trkpt>
      <trkpt lat="43.69645" lon="3.14011">
        <ele>630.76</ele>
        <time>2018-08-11T12:04:15Z</time>
      </trkpt>
      <trkpt lat="43.6964" lon="3.14009">
        <ele>629.8</ele>
        <time>2018-08-11T12:04:25Z</time>
      </trkpt>
      <trkpt lat="43.69634" lon="3.14009">
        <ele>629.8</ele>
        <time>2018-08-11T12:04:39Z</time>
      </trkpt>
      <trkpt lat="43.69623" lon="3.14009">
        <ele>629.8</ele>
        <time>2018-08-11T12:04:50Z</time>
      </trkpt>
      <trkpt lat="43.69614" lon="3.14008">
        <ele>630.28</ele>
        <time>2018-08-11T12:05:02Z</time>
      </trkpt>
      <trkpt lat="43.69606" lon="3.14009">
        <ele>629.8</ele>
        <time>2018-08-11T12:05:12Z</time>
      </trkpt>
      <trkpt lat="43.69601" lon="3.1401">
        <ele>630.28</ele>
        <time>2018-08-11T12:05:18Z</time>
      </trkpt>
      <trkpt lat="43.69596" lon="3.1401">
        <ele>631.72</ele>
        <time>2018-08-11T12:05:32Z</time>
      </trkpt>
      <trkpt lat="43.69595" lon="3.14008">
        <ele>632.68</ele>
        <time>2018-08-11T12:05:45Z</time>
      </trkpt>
      <trkpt lat="43.69589" lon="3.14006">
        <ele>634.13</ele>
        <time>2018-08-11T12:05:58Z</time>
      </trkpt>
      <trkpt lat="43.69584" lon="3.13996">
        <ele>632.68</ele>
        <time>2018-08-11T12:06:11Z</time>
      </trkpt>
      <trkpt lat="43.69575" lon="3.13988">
        <ele>631.24</ele>
        <time>2018-08-11T12:06:23Z</time>
      </trkpt>
      <trkpt lat="43.69573" lon="3.13989">
        <ele>631.24</ele>
        <time>2018-08-11T12:06:46Z</time>
      </trkpt>
      <trkpt lat="43.69568" lon="3.13979">
        <ele>630.76</ele>
        <time>2018-08-11T12:06:57Z</time>
      </trkpt>
      <trkpt lat="43.69563" lon="3.13971">
        <ele>630.76</ele>
        <time>2018-08-11T12:07:05Z</time>
      </trkpt>
      <trkpt lat="43.69557" lon="3.13965">
        <ele>630.28</ele>
        <time>2018-08-11T12:07:15Z</time>
      </trkpt>
      <trkpt lat="43.69554" lon="3.13956">
        <ele>629.8</ele>
        <time>2018-08-11T12:07:28Z</time>
      </trkpt>
      <trkpt lat="43.6955" lon="3.13953">
        <ele>628.84</ele>
        <time>2018-08-11T12:07:40Z</time>
      </trkpt>
      <trkpt lat="43.6954" lon="3.13944">
        <ele>627.88</ele>
        <time>2018-08-11T12:07:53Z</time>
      </trkpt>
      <trkpt lat="43.69537" lon="3.13936">
        <ele>628.36</ele>
        <time>2018-08-11T12:08:08Z</time>
      </trkpt>
      <trkpt lat="43.69525" lon="3.13934">
        <ele>628.36</ele>
        <time>2018-08-11T12:08:18Z</time>
      </trkpt>
      <trkpt lat="43.69516" lon="3.13928">
        <ele>628.84</ele>
        <time>2018-08-11T12:08:32Z</time>
      </trkpt>
      <trkpt lat="43.69516" lon="3.13925">
        <ele>629.32</ele>
        <time>2018-08-11T12:09:00Z</time>
      </trkpt>
      <trkpt lat="43.69514" lon="3.13924">
        <ele>629.32</ele>
        <time>2018-08-11T12:09:22Z</time>
      </trkpt>
      <trkpt lat="43.69505" lon="3.13923">
        <ele>630.28</ele>
        <time>2018-08-11T12:09:32Z</time>
      </trkpt>
      <trkpt lat="43.695" lon="3.13925">
        <ele>629.8</ele>
        <time>2018-08-11T12:09:43Z</time>
      </trkpt>
      <trkpt lat="43.69502" lon="3.13921">
        <ele>631.24</ele>
        <time>2018-08-11T12:09:54Z</time>
      </trkpt>
      <trkpt lat="43.69502" lon="3.13919">
        <ele>631.24</ele>
        <time>2018-08-11T12:10:00Z</time>
      </trkpt>
      <trkpt lat="43.69496" lon="3.13918">
        <ele>631.24</ele>
        <time>2018-08-11T12:10:11Z</time>
      </trkpt>
      <trkpt lat="43.69489" lon="3.1392">
        <ele>632.68</ele>
        <time>2018-08-11T12:10:26Z</time>
      </trkpt>
      <trkpt lat="43.69476" lon="3.13922">
        <ele>632.68</ele>
        <time>2018-08-11T12:10:40Z</time>
      </trkpt>
      <trkpt lat="43.69469" lon="3.13925">
        <ele>632.2</ele>
        <time>2018-08-11T12:10:53Z</time>
      </trkpt>
      <trkpt lat="43.69465" lon="3.13928">
        <ele>631.72</ele>
        <time>2018-08-11T12:11:05Z</time>
      </trkpt>
      <trkpt lat="43.69455" lon="3.13934">
        <ele>632.2</ele>
        <time>2018-08-11T12:11:17Z</time>
      </trkpt>
      <trkpt lat="43.6945" lon="3.13932">
        <ele>632.2</ele>
        <time>2018-08-11T12:11:27Z</time>
      </trkpt>
      <trkpt lat="43.69442" lon="3.13935">
        <ele>633.65</ele>
        <time>2018-08-11T12:11:39Z</time>
      </trkpt>
      <trkpt lat="43.69439" lon="3.13937">
        <ele>633.17</ele>
        <time>2018-08-11T12:11:52Z</time>
      </trkpt>
      <trkpt lat="43.69437" lon="3.13932">
        <ele>634.13</ele>
        <time>2018-08-11T12:12:03Z</time>
      </trkpt>
      <trkpt lat="43.69427" lon="3.13937">
        <ele>634.13</ele>
        <time>2018-08-11T12:12:15Z</time>
      </trkpt>
      <trkpt lat="43.69419" lon="3.13935">
        <ele>636.05</ele>
        <time>2018-08-11T12:12:30Z</time>
      </trkpt>
      <trkpt lat="43.69413" lon="3.13934">
        <ele>636.53</ele>
        <time>2018-08-11T12:12:47Z</time>
      </trkpt>
      <trkpt lat="43.69411" lon="3.13932">
        <ele>637.97</ele>
        <time>2018-08-11T12:13:02Z</time>
      </trkpt>
      <trkpt lat="43.69406" lon="3.13926">
        <ele>640.86</ele>
        <time>2018-08-11T12:13:16Z</time>
      </trkpt>
      <trkpt lat="43.694" lon="3.13918">
        <ele>642.78</ele>
        <time>2018-08-11T12:13:30Z</time>
      </trkpt>
      <trkpt lat="43.69394" lon="3.13911">
        <ele>643.74</ele>
        <time>2018-08-11T12:13:42Z</time>
      </trkpt>
      <trkpt lat="43.69389" lon="3.13894">
        <ele>642.78</ele>
        <time>2018-08-11T12:13:57Z</time>
      </trkpt>
      <trkpt lat="43.69387" lon="3.13888">
        <ele>642.78</ele>
        <time>2018-08-11T12:14:10Z</time>
      </trkpt>
      <trkpt lat="43.69385" lon="3.13885">
        <ele>641.82</ele>
        <time>2018-08-11T12:14:37Z</time>
      </trkpt>
      <trkpt lat="43.69384" lon="3.13884">
        <ele>642.3</ele>
        <time>2018-08-11T12:15:07Z</time>
      </trkpt>
      <trkpt lat="43.69383" lon="3.13889">
        <ele>642.78</ele>
        <time>2018-08-11T12:15:37Z</time>
      </trkpt>
      <trkpt lat="43.69383" lon="3.13887">
        <ele>641.82</ele>
        <time>2018-08-11T12:16:15Z</time>
      </trkpt>
      <trkpt lat="43.69383" lon="3.13885">
        <ele>641.34</ele>
        <time>2018-08-11T12:16:49Z</time>
      </trkpt>
      <trkpt lat="43.69383" lon="3.13884">
        <ele>641.82</ele>
        <time>2018-08-11T12:17:23Z</time>
      </trkpt>
      <trkpt lat="43.69383" lon="3.13884">
        <ele>641.34</ele>
        <time>2018-08-11T12:17:59Z</time>
      </trkpt>
      <trkpt lat="43.69383" lon="3.13883">
        <ele>640.86</ele>
        <time>2018-08-11T12:18:33Z</time>
      </trkpt>
      <trkpt lat="43.69383" lon="3.13884">
        <ele>640.86</ele>
        <time>2018-08-11T12:19:09Z</time>
      </trkpt>
      <trkpt lat="43.69384" lon="3.13882">
        <ele>641.34</ele>
        <time>2018-08-11T12:19:23Z</time>
      </trkpt>
      <trkpt lat="43.69384" lon="3.13883">
        <ele>640.86</ele>
        <time>2018-08-11T12:19:36Z</time>
      </trkpt>
      <trkpt lat="43.69385" lon="3.13885">
        <ele>638.93</ele>
        <time>2018-08-11T12:19:50Z</time>
      </trkpt>
      <trkpt lat="43.69383" lon="3.1389">
        <ele>637.01</ele>
        <time>2018-08-11T12:20:03Z</time>
      </trkpt>
      <trkpt lat="43.69384" lon="3.13893">
        <ele>637.97</ele>
        <time>2018-08-11T12:20:16Z</time>
      </trkpt>
      <trkpt lat="43.69386" lon="3.13894">
        <ele>638.45</ele>
        <time>2018-08-11T12:20:29Z</time>
      </trkpt>
      <trkpt lat="43.69384" lon="3.13893">
        <ele>638.93</ele>
        <time>2018-08-11T12:20:41Z</time>
      </trkpt>
      <trkpt lat="43.69377" lon="3.13891">
        <ele>637.49</ele>
        <time>2018-08-11T12:20:54Z</time>
      </trkpt>
      <trkpt lat="43.69372" lon="3.1389">
        <ele>636.53</ele>
        <time>2018-08-11T12:21:07Z</time>
      </trkpt>
      <trkpt lat="43.69366" lon="3.13892">
        <ele>635.57</ele>
        <time>2018-08-11T12:21:22Z</time>
      </trkpt>
      <trkpt lat="43.69358" lon="3.13902">
        <ele>635.09</ele>
        <time>2018-08-11T12:21:34Z</time>
      </trkpt>
      <trkpt lat="43.6935" lon="3.13908">
        <ele>634.61</ele>
        <time>2018-08-11T12:21:48Z</time>
      </trkpt>
      <trkpt lat="43.69341" lon="3.13915">
        <ele>634.61</ele>
        <time>2018-08-11T12:22:13Z</time>
      </trkpt>
      <trkpt lat="43.69336" lon="3.13918">
        <ele>633.65</ele>
        <time>2018-08-11T12:22:30Z</time>
      </trkpt>
      <trkpt lat="43.69334" lon="3.13918">
        <ele>634.13</ele>
        <time>2018-08-11T12:23:06Z</time>
      </trkpt>
      <trkpt lat="43.69332" lon="3.13917">
        <ele>634.13</ele>
        <time>2018-08-11T12:23:33Z</time>
      </trkpt>
      <trkpt lat="43.69331" lon="3.1392">
        <ele>633.65</ele>
        <time>2018-08-11T12:23:55Z</time>
      </trkpt>
      <trkpt lat="43.69329" lon="3.1392">
        <ele>633.65</ele>
        <time>2018-08-11T12:24:10Z</time>
      </trkpt>
      <trkpt lat="43.69328" lon="3.1392">
        <ele>634.13</ele>
        <time>2018-08-11T12:24:29Z</time>
      </trkpt>
      <trkpt lat="43.6933" lon="3.1392">
        <ele>635.57</ele>
        <time>2018-08-11T12:24:43Z</time>
      </trkpt>
      <trkpt lat="43.69339" lon="3.13915">
        <ele>636.05</ele>
        <time>2018-08-11T12:24:57Z</time>
      </trkpt>
      <trkpt lat="43.69342" lon="3.13914">
        <ele>636.05</ele>
        <time>2018-08-11T12:25:35Z</time>
      </trkpt>
      <trkpt lat="43.69346" lon="3.13911">
        <ele>636.05</ele>
        <time>2018-08-11T12:26:02Z</time>
      </trkpt>
      <trkpt lat="43.69345" lon="3.13913">
        <ele>635.09</ele>
        <time>2018-08-11T12:26:15Z</time>
      </trkpt>
      <trkpt lat="43.69344" lon="3.13916">
        <ele>634.61</ele>
        <time>2018-08-11T12:26:25Z</time>
      </trkpt>
      <trkpt lat="43.69341" lon="3.13919">
        <ele>633.65</ele>
        <time>2018-08-11T12:26:39Z</time>
      </trkpt>
      <trkpt lat="43.6934" lon="3.13924">
        <ele>633.65</ele>
        <time>2018-08-11T12:26:50Z</time>
      </trkpt>
      <trkpt lat="43.69331" lon="3.13927">
        <ele>633.17</ele>
        <time>2018-08-11T12:27:04Z</time>
      </trkpt>
      <trkpt lat="43.69327" lon="3.13927">
        <ele>633.17</ele>
        <time>2018-08-11T12:27:15Z</time>
      </trkpt>
      <trkpt lat="43.69323" lon="3.13938">
        <ele>633.65</ele>
        <time>2018-08-11T12:27:28Z</time>
      </trkpt>
      <trkpt lat="43.69316" lon="3.13943">
        <ele>633.65</ele>
        <time>2018-08-11T12:27:40Z</time>
      </trkpt>
      <trkpt lat="43.69305" lon="3.1395">
        <ele>634.61</ele>
        <time>2018-08-11T12:27:54Z</time>
      </trkpt>
      <trkpt lat="43.69297" lon="3.13959">
        <ele>634.61</ele>
        <time>2018-08-11T12:28:06Z</time>
      </trkpt>
      <trkpt lat="43.69287" lon="3.13966">
        <ele>635.09</ele>
        <time>2018-08-11T12:28:19Z</time>
      </trkpt>
      <trkpt lat="43.69279" lon="3.13974">
        <ele>636.05</ele>
        <time>2018-08-11T12:28:31Z</time>
      </trkpt>
      <trkpt lat="43.69273" lon="3.1398">
        <ele>636.53</ele>
        <time>2018-08-11T12:28:43Z</time>
      </trkpt>
      <trkpt lat="43.69268" lon="3.13987">
        <ele>636.05</ele>
        <time>2018-08-11T12:28:53Z</time>
      </trkpt>
      <trkpt lat="43.69266" lon="3.13991">
        <ele>636.05</ele>
        <time>2018-08-11T12:28:59Z</time>
      </trkpt>
      <trkpt lat="43.69257" lon="3.14006">
        <ele>635.57</ele>
        <time>2018-08-11T12:29:12Z</time>
      </trkpt>
      <trkpt lat="43.6925" lon="3.14014">
        <ele>635.09</ele>
        <time>2018-08-11T12:29:25Z</time>
      </trkpt>
      <trkpt lat="43.69247" lon="3.14022">
        <ele>634.61</ele>
        <time>2018-08-11T12:29:40Z</time>
      </trkpt>
      <trkpt lat="43.6924" lon="3.14033">
        <ele>634.13</ele>
        <time>2018-08-11T12:29:51Z</time>
      </trkpt>
      <trkpt lat="43.69232" lon="3.14048">
        <ele>634.13</ele>
        <time>2018-08-11T12:30:03Z</time>
      </trkpt>
      <trkpt lat="43.69226" lon="3.14058">
        <ele>634.13</ele>
        <time>2018-08-11T12:30:13Z</time>
      </trkpt>
      <trkpt lat="43.69219" lon="3.14066">
        <ele>635.09</ele>
        <time>2018-08-11T12:30:27Z</time>
      </trkpt>
      <trkpt lat="43.69211" lon="3.14078">
        <ele>634.61</ele>
        <time>2018-08-11T12:30:38Z</time>
      </trkpt>
      <trkpt lat="43.69198" lon="3.14094">
        <ele>634.61</ele>
        <time>2018-08-11T12:30:52Z</time>
      </trkpt>
      <trkpt lat="43.69192" lon="3.14105">
        <ele>634.13</ele>
        <time>2018-08-11T12:31:07Z</time>
      </trkpt>
      <trkpt lat="43.69188" lon="3.14111">
        <ele>634.61</ele>
        <time>2018-08-11T12:31:22Z</time>
      </trkpt>
      <trkpt lat="43.69184" lon="3.14117">
        <ele>635.09</ele>
        <time>2018-08-11T12:31:36Z</time>
      </trkpt>
      <trkpt lat="43.69184" lon="3.14126">
        <ele>635.57</ele>
        <time>2018-08-11T12:31:48Z</time>
      </trkpt>
      <trkpt lat="43.6918" lon="3.14141">
        <ele>636.05</ele>
        <time>2018-08-11T12:32:00Z</time>
      </trkpt>
      <trkpt lat="43.69176" lon="3.14149">
        <ele>637.01</ele>
        <time>2018-08-11T12:32:16Z</time>
      </trkpt>
      <trkpt lat="43.69175" lon="3.1416">
        <ele>637.49</ele>
        <time>2018-08-11T12:32:45Z</time>
      </trkpt>
      <trkpt lat="43.69171" lon="3.14167">
        <ele>638.93</ele>
        <time>2018-08-11T12:32:58Z</time>
      </trkpt>
      <trkpt lat="43.69168" lon="3.14171">
        <ele>639.89</ele>
        <time>2018-08-11T12:33:10Z</time>
      </trkpt>
      <trkpt lat="43.69167" lon="3.14175">
        <ele>639.89</ele>
        <time>2018-08-11T12:33:21Z</time>
      </trkpt>
      <trkpt lat="43.69164" lon="3.1418">
        <ele>640.86</ele>
        <time>2018-08-11T12:33:35Z</time>
      </trkpt>
      <trkpt lat="43.69162" lon="3.14186">
        <ele>641.34</ele>
        <time>2018-08-11T12:33:49Z</time>
      </trkpt>
      <trkpt lat="43.69161" lon="3.14192">
        <ele>642.78</ele>
        <time>2018-08-11T12:34:01Z</time>
      </trkpt>
      <trkpt lat="43.69159" lon="3.14199">
        <ele>643.26</ele>
        <time>2018-08-11T12:34:13Z</time>
      </trkpt>
      <trkpt lat="43.69156" lon="3.14206">
        <ele>644.7</ele>
        <time>2018-08-11T12:34:27Z</time>
      </trkpt>
      <trkpt lat="43.69154" lon="3.14214">
        <ele>645.66</ele>
        <time>2018-08-11T12:34:41Z</time>
      </trkpt>
      <trkpt lat="43.69152" lon="3.14224">
        <ele>646.14</ele>
        <time>2018-08-11T12:34:54Z</time>
      </trkpt>
      <trkpt lat="43.69149" lon="3.14232">
        <ele>646.14</ele>
        <time>2018-08-11T12:35:07Z</time>
      </trkpt>
      <trkpt lat="43.69148" lon="3.14242">
        <ele>646.62</ele>
        <time>2018-08-11T12:35:20Z</time>
      </trkpt>
      <trkpt lat="43.69147" lon="3.14259">
        <ele>647.59</ele>
        <time>2018-08-11T12:35:34Z</time>
      </trkpt>
      <trkpt lat="43.69144" lon="3.14268">
        <ele>648.55</ele>
        <time>2018-08-11T12:35:46Z</time>
      </trkpt>
      <trkpt lat="43.6914" lon="3.14276">
        <ele>649.51</ele>
        <time>2018-08-11T12:36:00Z</time>
      </trkpt>
      <trkpt lat="43.69137" lon="3.14285">
        <ele>650.95</ele>
        <time>2018-08-11T12:36:15Z</time>
      </trkpt>
      <trkpt lat="43.69134" lon="3.14293">
        <ele>652.39</ele>
        <time>2018-08-11T12:36:28Z</time>
      </trkpt>
      <trkpt lat="43.6913" lon="3.14321">
        <ele>652.87</ele>
        <time>2018-08-11T12:36:39Z</time>
      </trkpt>
      <trkpt lat="43.69132" lon="3.14326">
        <ele>652.39</ele>
        <time>2018-08-11T12:36:41Z</time>
      </trkpt>
      <trkpt lat="43.69134" lon="3.14332">
        <ele>652.87</ele>
        <time>2018-08-11T12:36:43Z</time>
      </trkpt>
      <trkpt lat="43.69132" lon="3.14376">
        <ele>652.87</ele>
        <time>2018-08-11T12:36:55Z</time>
      </trkpt>
      <trkpt lat="43.69123" lon="3.14415">
        <ele>653.35</ele>
        <time>2018-08-11T12:37:10Z</time>
      </trkpt>
      <trkpt lat="43.69126" lon="3.14438">
        <ele>654.31</ele>
        <time>2018-08-11T12:37:23Z</time>
      </trkpt>
      <trkpt lat="43.69122" lon="3.14457">
        <ele>654.31</ele>
        <time>2018-08-11T12:37:37Z</time>
      </trkpt>
      <trkpt lat="43.69115" lon="3.14474">
        <ele>653.83</ele>
        <time>2018-08-11T12:37:52Z</time>
      </trkpt>
      <trkpt lat="43.69114" lon="3.14487">
        <ele>652.87</ele>
        <time>2018-08-11T12:38:04Z</time>
      </trkpt>
      <trkpt lat="43.69109" lon="3.14499">
        <ele>651.43</ele>
        <time>2018-08-11T12:38:18Z</time>
      </trkpt>
      <trkpt lat="43.69109" lon="3.14514">
        <ele>651.43</ele>
        <time>2018-08-11T12:38:32Z</time>
      </trkpt>
      <trkpt lat="43.69101" lon="3.14524">
        <ele>650.95</ele>
        <time>2018-08-11T12:38:43Z</time>
      </trkpt>
      <trkpt lat="43.69092" lon="3.14534">
        <ele>649.99</ele>
        <time>2018-08-11T12:38:59Z</time>
      </trkpt>
      <trkpt lat="43.69084" lon="3.1454">
        <ele>648.55</ele>
        <time>2018-08-11T12:39:12Z</time>
      </trkpt>
      <trkpt lat="43.69084" lon="3.14541">
        <ele>648.55</ele>
        <time>2018-08-11T12:39:13Z</time>
      </trkpt>
      <trkpt lat="43.69076" lon="3.14551">
        <ele>647.59</ele>
        <time>2018-08-11T12:39:24Z</time>
      </trkpt>
      <trkpt lat="43.69075" lon="3.14558">
        <ele>646.62</ele>
        <time>2018-08-11T12:39:35Z</time>
      </trkpt>
      <trkpt lat="43.69072" lon="3.14566">
        <ele>644.7</ele>
        <time>2018-08-11T12:39:47Z</time>
      </trkpt>
      <trkpt lat="43.69072" lon="3.14571">
        <ele>644.7</ele>
        <time>2018-08-11T12:40:01Z</time>
      </trkpt>
      <trkpt lat="43.69071" lon="3.14573">
        <ele>643.74</ele>
        <time>2018-08-11T12:40:04Z</time>
      </trkpt>
      <trkpt lat="43.69073" lon="3.14577">
        <ele>643.74</ele>
        <time>2018-08-11T12:40:17Z</time>
      </trkpt>
      <trkpt lat="43.69072" lon="3.14583">
        <ele>642.3</ele>
        <time>2018-08-11T12:40:29Z</time>
      </trkpt>
      <trkpt lat="43.69067" lon="3.14594">
        <ele>641.34</ele>
        <time>2018-08-11T12:40:41Z</time>
      </trkpt>
      <trkpt lat="43.69069" lon="3.14602">
        <ele>639.89</ele>
        <time>2018-08-11T12:40:48Z</time>
      </trkpt>
      <trkpt lat="43.69064" lon="3.14614">
        <ele>638.93</ele>
        <time>2018-08-11T12:41:00Z</time>
      </trkpt>
      <trkpt lat="43.69062" lon="3.14619">
        <ele>638.45</ele>
        <time>2018-08-11T12:41:11Z</time>
      </trkpt>
      <trkpt lat="43.6906" lon="3.14628">
        <ele>637.97</ele>
        <time>2018-08-11T12:41:22Z</time>
      </trkpt>
      <trkpt lat="43.69058" lon="3.14635">
        <ele>637.01</ele>
        <time>2018-08-11T12:41:31Z</time>
      </trkpt>
      <trkpt lat="43.69059" lon="3.1464">
        <ele>637.01</ele>
        <time>2018-08-11T12:41:54Z</time>
      </trkpt>
      <trkpt lat="43.69063" lon="3.14647">
        <ele>636.05</ele>
        <time>2018-08-11T12:42:18Z</time>
      </trkpt>
      <trkpt lat="43.69064" lon="3.14659">
        <ele>635.57</ele>
        <time>2018-08-11T12:42:30Z</time>
      </trkpt>
      <trkpt lat="43.69059" lon="3.14665">
        <ele>634.61</ele>
        <time>2018-08-11T12:42:50Z</time>
      </trkpt>
      <trkpt lat="43.69056" lon="3.1467">
        <ele>632.2</ele>
        <time>2018-08-11T12:43:02Z</time>
      </trkpt>
      <trkpt lat="43.69055" lon="3.14672">
        <ele>632.2</ele>
        <time>2018-08-11T12:43:18Z</time>
      </trkpt>
      <trkpt lat="43.69056" lon="3.1468">
        <ele>631.24</ele>
        <time>2018-08-11T12:43:33Z</time>
      </trkpt>
      <trkpt lat="43.69054" lon="3.14688">
        <ele>629.32</ele>
        <time>2018-08-11T12:43:46Z</time>
      </trkpt>
      <trkpt lat="43.69053" lon="3.14693">
        <ele>627.88</ele>
        <time>2018-08-11T12:43:59Z</time>
      </trkpt>
      <trkpt lat="43.69051" lon="3.14702">
        <ele>625.96</ele>
        <time>2018-08-11T12:44:13Z</time>
      </trkpt>
      <trkpt lat="43.69046" lon="3.14711">
        <ele>625.47</ele>
        <time>2018-08-11T12:44:25Z</time>
      </trkpt>
      <trkpt lat="43.69043" lon="3.14719">
        <ele>623.55</ele>
        <time>2018-08-11T12:44:43Z</time>
      </trkpt>
      <trkpt lat="43.69041" lon="3.14722">
        <ele>623.55</ele>
        <time>2018-08-11T12:44:58Z</time>
      </trkpt>
      <trkpt lat="43.69038" lon="3.14726">
        <ele>622.59</ele>
        <time>2018-08-11T12:45:24Z</time>
      </trkpt>
      <trkpt lat="43.69036" lon="3.14728">
        <ele>622.59</ele>
        <time>2018-08-11T12:45:38Z</time>
      </trkpt>
      <trkpt lat="43.69034" lon="3.1473">
        <ele>622.11</ele>
        <time>2018-08-11T12:46:04Z</time>
      </trkpt>
      <trkpt lat="43.69032" lon="3.14734">
        <ele>621.63</ele>
        <time>2018-08-11T12:46:32Z</time>
      </trkpt>
      <trkpt lat="43.6903" lon="3.14736">
        <ele>622.59</ele>
        <time>2018-08-11T12:46:52Z</time>
      </trkpt>
      <trkpt lat="43.69027" lon="3.14738">
        <ele>621.63</ele>
        <time>2018-08-11T12:47:11Z</time>
      </trkpt>
      <trkpt lat="43.69025" lon="3.14741">
        <ele>620.19</ele>
        <time>2018-08-11T12:47:19Z</time>
      </trkpt>
      <trkpt lat="43.69026" lon="3.14749">
        <ele>618.75</ele>
        <time>2018-08-11T12:47:29Z</time>
      </trkpt>
      <trkpt lat="43.69024" lon="3.1476">
        <ele>618.75</ele>
        <time>2018-08-11T12:47:39Z</time>
      </trkpt>
      <trkpt lat="43.69021" lon="3.14764">
        <ele>618.75</ele>
        <time>2018-08-11T12:47:44Z</time>
      </trkpt>
      <trkpt lat="43.69011" lon="3.14774">
        <ele>618.75</ele>
        <time>2018-08-11T12:47:56Z</time>
      </trkpt>
      <trkpt lat="43.69005" lon="3.14777">
        <ele>618.75</ele>
        <time>2018-08-11T12:48:08Z</time>
      </trkpt>
      <trkpt lat="43.69003" lon="3.14778">
        <ele>618.26</ele>
        <time>2018-08-11T12:48:19Z</time>
      </trkpt>
      <trkpt lat="43.68996" lon="3.14785">
        <ele>617.3</ele>
        <time>2018-08-11T12:48:33Z</time>
      </trkpt>
      <trkpt lat="43.68993" lon="3.14793">
        <ele>615.38</ele>
        <time>2018-08-11T12:48:44Z</time>
      </trkpt>
      <trkpt lat="43.68992" lon="3.14794">
        <ele>615.38</ele>
        <time>2018-08-11T12:48:45Z</time>
      </trkpt>
      <trkpt lat="43.68984" lon="3.14805">
        <ele>614.9</ele>
        <time>2018-08-11T12:48:57Z</time>
      </trkpt>
      <trkpt lat="43.68982" lon="3.14808">
        <ele>612.98</ele>
        <time>2018-08-11T12:49:11Z</time>
      </trkpt>
      <trkpt lat="43.6898" lon="3.1481">
        <ele>612.98</ele>
        <time>2018-08-11T12:49:34Z</time>
      </trkpt>
      <trkpt lat="43.6898" lon="3.14815">
        <ele>611.54</ele>
        <time>2018-08-11T12:49:47Z</time>
      </trkpt>
      <trkpt lat="43.68987" lon="3.14823">
        <ele>612.02</ele>
        <time>2018-08-11T12:50:06Z</time>
      </trkpt>
      <trkpt lat="43.68985" lon="3.14826">
        <ele>611.54</ele>
        <time>2018-08-11T12:50:28Z</time>
      </trkpt>
      <trkpt lat="43.68976" lon="3.14829">
        <ele>610.09</ele>
        <time>2018-08-11T12:50:44Z</time>
      </trkpt>
      <trkpt lat="43.68978" lon="3.14834">
        <ele>609.13</ele>
        <time>2018-08-11T12:50:54Z</time>
      </trkpt>
      <trkpt lat="43.68977" lon="3.14837">
        <ele>609.13</ele>
        <time>2018-08-11T12:51:16Z</time>
      </trkpt>
      <trkpt lat="43.68977" lon="3.14838">
        <ele>609.61</ele>
        <time>2018-08-11T12:51:35Z</time>
      </trkpt>
      <trkpt lat="43.68976" lon="3.14838">
        <ele>608.17</ele>
        <time>2018-08-11T12:51:55Z</time>
      </trkpt>
      <trkpt lat="43.6898" lon="3.14843">
        <ele>608.65</ele>
        <time>2018-08-11T12:52:07Z</time>
      </trkpt>
      <trkpt lat="43.68979" lon="3.14846">
        <ele>608.65</ele>
        <time>2018-08-11T12:52:21Z</time>
      </trkpt>
      <trkpt lat="43.68976" lon="3.14849">
        <ele>608.65</ele>
        <time>2018-08-11T12:52:45Z</time>
      </trkpt>
      <trkpt lat="43.6897" lon="3.14855">
        <ele>608.17</ele>
        <time>2018-08-11T12:52:58Z</time>
      </trkpt>
      <trkpt lat="43.68968" lon="3.14854">
        <ele>607.69</ele>
        <time>2018-08-11T12:53:09Z</time>
      </trkpt>
      <trkpt lat="43.6897" lon="3.14853">
        <ele>606.73</ele>
        <time>2018-08-11T12:53:21Z</time>
      </trkpt>
      <trkpt lat="43.68973" lon="3.14854">
        <ele>605.77</ele>
        <time>2018-08-11T12:53:34Z</time>
      </trkpt>
      <trkpt lat="43.68981" lon="3.14846">
        <ele>604.81</ele>
        <time>2018-08-11T12:53:48Z</time>
      </trkpt>
      <trkpt lat="43.68983" lon="3.14846">
        <ele>604.81</ele>
        <time>2018-08-11T12:54:06Z</time>
      </trkpt>
      <trkpt lat="43.68997" lon="3.1484">
        <ele>602.88</ele>
        <time>2018-08-11T12:54:22Z</time>
      </trkpt>
      <trkpt lat="43.69003" lon="3.14836">
        <ele>601.92</ele>
        <time>2018-08-11T12:54:34Z</time>
      </trkpt>
      <trkpt lat="43.69004" lon="3.14839">
        <ele>601.92</ele>
        <time>2018-08-11T12:54:46Z</time>
      </trkpt>
      <trkpt lat="43.69001" lon="3.14846">
        <ele>600.96</ele>
        <time>2018-08-11T12:54:57Z</time>
      </trkpt>
      <trkpt lat="43.68992" lon="3.14855">
        <ele>600.48</ele>
        <time>2018-08-11T12:55:09Z</time>
      </trkpt>
      <trkpt lat="43.68987" lon="3.14861">
        <ele>600</ele>
        <time>2018-08-11T12:55:28Z</time>
      </trkpt>
      <trkpt lat="43.68984" lon="3.14868">
        <ele>599.52</ele>
        <time>2018-08-11T12:55:40Z</time>
      </trkpt>
      <trkpt lat="43.68977" lon="3.14873">
        <ele>599.04</ele>
        <time>2018-08-11T12:55:57Z</time>
      </trkpt>
      <trkpt lat="43.68978" lon="3.14884">
        <ele>598.56</ele>
        <time>2018-08-11T12:56:11Z</time>
      </trkpt>
      <trkpt lat="43.68976" lon="3.14893">
        <ele>598.08</ele>
        <time>2018-08-11T12:56:22Z</time>
      </trkpt>
      <trkpt lat="43.68971" lon="3.14909">
        <ele>597.12</ele>
        <time>2018-08-11T12:56:33Z</time>
      </trkpt>
      <trkpt lat="43.68968" lon="3.14919">
        <ele>596.64</ele>
        <time>2018-08-11T12:56:41Z</time>
      </trkpt>
      <trkpt lat="43.68965" lon="3.1493">
        <ele>596.15</ele>
        <time>2018-08-11T12:56:52Z</time>
      </trkpt>
      <trkpt lat="43.68959" lon="3.1494">
        <ele>596.15</ele>
        <time>2018-08-11T12:57:02Z</time>
      </trkpt>
      <trkpt lat="43.6896" lon="3.14941">
        <ele>596.15</ele>
        <time>2018-08-11T12:57:03Z</time>
      </trkpt>
      <trkpt lat="43.68966" lon="3.14955">
        <ele>594.23</ele>
        <time>2018-08-11T12:57:14Z</time>
      </trkpt>
      <trkpt lat="43.6897" lon="3.14967">
        <ele>594.23</ele>
        <time>2018-08-11T12:57:24Z</time>
      </trkpt>
      <trkpt lat="43.68966" lon="3.14977">
        <ele>593.75</ele>
        <time>2018-08-11T12:57:35Z</time>
      </trkpt>
      <trkpt lat="43.68965" lon="3.14994">
        <ele>592.79</ele>
        <time>2018-08-11T12:57:49Z</time>
      </trkpt>
      <trkpt lat="43.68958" lon="3.15007">
        <ele>592.31</ele>
        <time>2018-08-11T12:58:01Z</time>
      </trkpt>
      <trkpt lat="43.68954" lon="3.15018">
        <ele>591.35</ele>
        <time>2018-08-11T12:58:12Z</time>
      </trkpt>
      <trkpt lat="43.68951" lon="3.1503">
        <ele>589.91</ele>
        <time>2018-08-11T12:58:25Z</time>
      </trkpt>
      <trkpt lat="43.68947" lon="3.15043">
        <ele>589.91</ele>
        <time>2018-08-11T12:58:36Z</time>
      </trkpt>
      <trkpt lat="43.68957" lon="3.15055">
        <ele>588.95</ele>
        <time>2018-08-11T12:58:48Z</time>
      </trkpt>
      <trkpt lat="43.68957" lon="3.15066">
        <ele>587.98</ele>
        <time>2018-08-11T12:59:01Z</time>
      </trkpt>
      <trkpt lat="43.68956" lon="3.15076">
        <ele>586.54</ele>
        <time>2018-08-11T12:59:12Z</time>
      </trkpt>
      <trkpt lat="43.68955" lon="3.15079">
        <ele>586.54</ele>
        <time>2018-08-11T12:59:32Z</time>
      </trkpt>
      <trkpt lat="43.68954" lon="3.15089">
        <ele>585.58</ele>
        <time>2018-08-11T12:59:47Z</time>
      </trkpt>
      <trkpt lat="43.68953" lon="3.15092">
        <ele>584.62</ele>
        <time>2018-08-11T12:59:49Z</time>
      </trkpt>
      <trkpt lat="43.68951" lon="3.15102">
        <ele>584.14</ele>
        <time>2018-08-11T12:59:59Z</time>
      </trkpt>
      <trkpt lat="43.68952" lon="3.15107">
        <ele>583.66</ele>
        <time>2018-08-11T13:00:16Z</time>
      </trkpt>
      <trkpt lat="43.68948" lon="3.15117">
        <ele>583.18</ele>
        <time>2018-08-11T13:00:27Z</time>
      </trkpt>
      <trkpt lat="43.68941" lon="3.15122">
        <ele>582.22</ele>
        <time>2018-08-11T13:00:47Z</time>
      </trkpt>
      <trkpt lat="43.68943" lon="3.15126">
        <ele>581.25</ele>
        <time>2018-08-11T13:01:02Z</time>
      </trkpt>
      <trkpt lat="43.6894" lon="3.15135">
        <ele>581.25</ele>
        <time>2018-08-11T13:01:16Z</time>
      </trkpt>
      <trkpt lat="43.68934" lon="3.15141">
        <ele>582.22</ele>
        <time>2018-08-11T13:01:28Z</time>
      </trkpt>
      <trkpt lat="43.68932" lon="3.15145">
        <ele>581.73</ele>
        <time>2018-08-11T13:01:39Z</time>
      </trkpt>
      <trkpt lat="43.68928" lon="3.15146">
        <ele>580.77</ele>
        <time>2018-08-11T13:01:52Z</time>
      </trkpt>
      <trkpt lat="43.68926" lon="3.1515">
        <ele>579.81</ele>
        <time>2018-08-11T13:02:08Z</time>
      </trkpt>
      <trkpt lat="43.68927" lon="3.15157">
        <ele>580.77</ele>
        <time>2018-08-11T13:02:19Z</time>
      </trkpt>
      <trkpt lat="43.68925" lon="3.15158">
        <ele>579.81</ele>
        <time>2018-08-11T13:02:32Z</time>
      </trkpt>
      <trkpt lat="43.68925" lon="3.15159">
        <ele>579.33</ele>
        <time>2018-08-11T13:02:54Z</time>
      </trkpt>
      <trkpt lat="43.68926" lon="3.15164">
        <ele>580.29</ele>
        <time>2018-08-11T13:03:18Z</time>
      </trkpt>
      <trkpt lat="43.68926" lon="3.1517">
        <ele>580.29</ele>
        <time>2018-08-11T13:03:38Z</time>
      </trkpt>
      <trkpt lat="43.68926" lon="3.15174">
        <ele>580.77</ele>
        <time>2018-08-11T13:04:04Z</time>
      </trkpt>
      <trkpt lat="43.68923" lon="3.15174">
        <ele>580.77</ele>
        <time>2018-08-11T13:04:19Z</time>
      </trkpt>
      <trkpt lat="43.68921" lon="3.15171">
        <ele>580.77</ele>
        <time>2018-08-11T13:04:45Z</time>
      </trkpt>
      <trkpt lat="43.68916" lon="3.15175">
        <ele>578.85</ele>
        <time>2018-08-11T13:05:00Z</time>
      </trkpt>
      <trkpt lat="43.68918" lon="3.15181">
        <ele>577.89</ele>
        <time>2018-08-11T13:05:15Z</time>
      </trkpt>
      <trkpt lat="43.68918" lon="3.15185">
        <ele>577.41</ele>
        <time>2018-08-11T13:05:31Z</time>
      </trkpt>
      <trkpt lat="43.68913" lon="3.15191">
        <ele>576.45</ele>
        <time>2018-08-11T13:05:44Z</time>
      </trkpt>
      <trkpt lat="43.68908" lon="3.15195">
        <ele>576.93</ele>
        <time>2018-08-11T13:05:58Z</time>
      </trkpt>
      <trkpt lat="43.68905" lon="3.15197">
        <ele>576.93</ele>
        <time>2018-08-11T13:06:08Z</time>
      </trkpt>
      <trkpt lat="43.68902" lon="3.152">
        <ele>578.37</ele>
        <time>2018-08-11T13:06:18Z</time>
      </trkpt>
      <trkpt lat="43.68893" lon="3.15209">
        <ele>577.41</ele>
        <time>2018-08-11T13:06:34Z</time>
      </trkpt>
      <trkpt lat="43.68896" lon="3.15212">
        <ele>575.97</ele>
        <time>2018-08-11T13:06:49Z</time>
      </trkpt>
      <trkpt lat="43.689" lon="3.15217">
        <ele>575.49</ele>
        <time>2018-08-11T13:07:20Z</time>
      </trkpt>
      <trkpt lat="43.68901" lon="3.15219">
        <ele>574.53</ele>
        <time>2018-08-11T13:07:35Z</time>
      </trkpt>
      <trkpt lat="43.68901" lon="3.15219">
        <ele>574.04</ele>
        <time>2018-08-11T13:07:50Z</time>
      </trkpt>
      <trkpt lat="43.68913" lon="3.15232">
        <ele>573.56</ele>
        <time>2018-08-11T13:08:19Z</time>
      </trkpt>
      <trkpt lat="43.68922" lon="3.15238">
        <ele>574.04</ele>
        <time>2018-08-11T13:08:52Z</time>
      </trkpt>
      <trkpt lat="43.68917" lon="3.15242">
        <ele>573.56</ele>
        <time>2018-08-11T13:09:19Z</time>
      </trkpt>
      <trkpt lat="43.68916" lon="3.15243">
        <ele>573.56</ele>
        <time>2018-08-11T13:09:44Z</time>
      </trkpt>
      <trkpt lat="43.68915" lon="3.15244">
        <ele>572.6</ele>
        <time>2018-08-11T13:10:06Z</time>
      </trkpt>
      <trkpt lat="43.68915" lon="3.15244">
        <ele>572.6</ele>
        <time>2018-08-11T13:10:34Z</time>
      </trkpt>
      <trkpt lat="43.68914" lon="3.15244">
        <ele>572.12</ele>
        <time>2018-08-11T13:10:57Z</time>
      </trkpt>
      <trkpt lat="43.68915" lon="3.15247">
        <ele>571.16</ele>
        <time>2018-08-11T13:11:16Z</time>
      </trkpt>
      <trkpt lat="43.68916" lon="3.15249">
        <ele>571.16</ele>
        <time>2018-08-11T13:11:43Z</time>
      </trkpt>
      <trkpt lat="43.68915" lon="3.15249">
        <ele>570.2</ele>
        <time>2018-08-11T13:12:04Z</time>
      </trkpt>
      <trkpt lat="43.68914" lon="3.1525">
        <ele>570.2</ele>
        <time>2018-08-11T13:12:27Z</time>
      </trkpt>
      <trkpt lat="43.68913" lon="3.1525">
        <ele>568.76</ele>
        <time>2018-08-11T13:12:43Z</time>
      </trkpt>
      <trkpt lat="43.68912" lon="3.15252">
        <ele>567.8</ele>
        <time>2018-08-11T13:12:59Z</time>
      </trkpt>
      <trkpt lat="43.68909" lon="3.15254">
        <ele>567.8</ele>
        <time>2018-08-11T13:13:28Z</time>
      </trkpt>
      <trkpt lat="43.68909" lon="3.15255">
        <ele>567.32</ele>
        <time>2018-08-11T13:13:39Z</time>
      </trkpt>
      <trkpt lat="43.6891" lon="3.15256">
        <ele>566.35</ele>
        <time>2018-08-11T13:14:02Z</time>
      </trkpt>
      <trkpt lat="43.6891" lon="3.15256">
        <ele>566.35</ele>
        <time>2018-08-11T13:14:23Z</time>
      </trkpt>
      <trkpt lat="43.6891" lon="3.15259">
        <ele>565.39</ele>
        <time>2018-08-11T13:14:42Z</time>
      </trkpt>
      <trkpt lat="43.68912" lon="3.1526">
        <ele>563.47</ele>
        <time>2018-08-11T13:14:57Z</time>
      </trkpt>
      <trkpt lat="43.68912" lon="3.15262">
        <ele>562.51</ele>
        <time>2018-08-11T13:15:13Z</time>
      </trkpt>
      <trkpt lat="43.68912" lon="3.15262">
        <ele>561.55</ele>
        <time>2018-08-11T13:15:26Z</time>
      </trkpt>
      <trkpt lat="43.68912" lon="3.15264">
        <ele>561.07</ele>
        <time>2018-08-11T13:15:42Z</time>
      </trkpt>
      <trkpt lat="43.68913" lon="3.15263">
        <ele>559.14</ele>
        <time>2018-08-11T13:15:58Z</time>
      </trkpt>
      <trkpt lat="43.68916" lon="3.15262">
        <ele>558.66</ele>
        <time>2018-08-11T13:16:11Z</time>
      </trkpt>
      <trkpt lat="43.68921" lon="3.15262">
        <ele>558.18</ele>
        <time>2018-08-11T13:16:24Z</time>
      </trkpt>
      <trkpt lat="43.68922" lon="3.15261">
        <ele>558.18</ele>
        <time>2018-08-11T13:16:51Z</time>
      </trkpt>
      <trkpt lat="43.68922" lon="3.15262">
        <ele>557.7</ele>
        <time>2018-08-11T13:17:14Z</time>
      </trkpt>
      <trkpt lat="43.68922" lon="3.15261">
        <ele>556.26</ele>
        <time>2018-08-11T13:17:31Z</time>
      </trkpt>
      <trkpt lat="43.68922" lon="3.15263">
        <ele>554.82</ele>
        <time>2018-08-11T13:17:46Z</time>
      </trkpt>
      <trkpt lat="43.68924" lon="3.15265">
        <ele>552.9</ele>
        <time>2018-08-11T13:18:01Z</time>
      </trkpt>
      <trkpt lat="43.68931" lon="3.15275">
        <ele>552.41</ele>
        <time>2018-08-11T13:18:14Z</time>
      </trkpt>
      <trkpt lat="43.6892" lon="3.15288">
        <ele>551.45</ele>
        <time>2018-08-11T13:18:28Z</time>
      </trkpt>
      <trkpt lat="43.68922" lon="3.1529">
        <ele>550.49</ele>
        <time>2018-08-11T13:18:47Z</time>
      </trkpt>
      <trkpt lat="43.68925" lon="3.1529">
        <ele>548.57</ele>
        <time>2018-08-11T13:18:59Z</time>
      </trkpt>
      <trkpt lat="43.68931" lon="3.15298">
        <ele>550.01</ele>
        <time>2018-08-11T13:19:15Z</time>
      </trkpt>
      <trkpt lat="43.68934" lon="3.15298">
        <ele>550.49</ele>
        <time>2018-08-11T13:19:31Z</time>
      </trkpt>
      <trkpt lat="43.68935" lon="3.15302">
        <ele>550.49</ele>
        <time>2018-08-11T13:19:46Z</time>
      </trkpt>
      <trkpt lat="43.68944" lon="3.1531">
        <ele>550.49</ele>
        <time>2018-08-11T13:19:58Z</time>
      </trkpt>
      <trkpt lat="43.68943" lon="3.15318">
        <ele>550.49</ele>
        <time>2018-08-11T13:20:14Z</time>
      </trkpt>
      <trkpt lat="43.68939" lon="3.15333">
        <ele>549.05</ele>
        <time>2018-08-11T13:20:27Z</time>
      </trkpt>
      <trkpt lat="43.68941" lon="3.15337">
        <ele>547.61</ele>
        <time>2018-08-11T13:20:43Z</time>
      </trkpt>
      <trkpt lat="43.68944" lon="3.15342">
        <ele>546.17</ele>
        <time>2018-08-11T13:20:59Z</time>
      </trkpt>
      <trkpt lat="43.68945" lon="3.1535">
        <ele>544.72</ele>
        <time>2018-08-11T13:21:13Z</time>
      </trkpt>
      <trkpt lat="43.68949" lon="3.15355">
        <ele>545.2</ele>
        <time>2018-08-11T13:21:43Z</time>
      </trkpt>
      <trkpt lat="43.68949" lon="3.15361">
        <ele>544.72</ele>
        <time>2018-08-11T13:22:08Z</time>
      </trkpt>
      <trkpt lat="43.68949" lon="3.15371">
        <ele>543.76</ele>
        <time>2018-08-11T13:22:22Z</time>
      </trkpt>
      <trkpt lat="43.68951" lon="3.15377">
        <ele>542.8</ele>
        <time>2018-08-11T13:22:36Z</time>
      </trkpt>
      <trkpt lat="43.68949" lon="3.15389">
        <ele>541.36</ele>
        <time>2018-08-11T13:22:50Z</time>
      </trkpt>
      <trkpt lat="43.68947" lon="3.15392">
        <ele>540.4</ele>
        <time>2018-08-11T13:23:07Z</time>
      </trkpt>
      <trkpt lat="43.68948" lon="3.15401">
        <ele>540.4</ele>
        <time>2018-08-11T13:23:18Z</time>
      </trkpt>
      <trkpt lat="43.68948" lon="3.15416">
        <ele>540.4</ele>
        <time>2018-08-11T13:23:30Z</time>
      </trkpt>
      <trkpt lat="43.68951" lon="3.15417">
        <ele>538.48</ele>
        <time>2018-08-11T13:23:49Z</time>
      </trkpt>
      <trkpt lat="43.68953" lon="3.15418">
        <ele>537.51</ele>
        <time>2018-08-11T13:24:08Z</time>
      </trkpt>
      <trkpt lat="43.68955" lon="3.1542">
        <ele>536.07</ele>
        <time>2018-08-11T13:24:24Z</time>
      </trkpt>
      <trkpt lat="43.6896" lon="3.15424">
        <ele>535.59</ele>
        <time>2018-08-11T13:24:36Z</time>
      </trkpt>
      <trkpt lat="43.68963" lon="3.15425">
        <ele>535.59</ele>
        <time>2018-08-11T13:25:05Z</time>
      </trkpt>
      <trkpt lat="43.68962" lon="3.15426">
        <ele>534.15</ele>
        <time>2018-08-11T13:25:20Z</time>
      </trkpt>
      <trkpt lat="43.68963" lon="3.15426">
        <ele>532.71</ele>
        <time>2018-08-11T13:25:37Z</time>
      </trkpt>
      <trkpt lat="43.68965" lon="3.15428">
        <ele>531.75</ele>
        <time>2018-08-11T13:25:52Z</time>
      </trkpt>
      <trkpt lat="43.68969" lon="3.15431">
        <ele>530.3</ele>
        <time>2018-08-11T13:26:08Z</time>
      </trkpt>
      <trkpt lat="43.68974" lon="3.15439">
        <ele>528.86</ele>
        <time>2018-08-11T13:26:24Z</time>
      </trkpt>
      <trkpt lat="43.68981" lon="3.15449">
        <ele>527.9</ele>
        <time>2018-08-11T13:26:36Z</time>
      </trkpt>
      <trkpt lat="43.6898" lon="3.15456">
        <ele>527.42</ele>
        <time>2018-08-11T13:26:49Z</time>
      </trkpt>
      <trkpt lat="43.68978" lon="3.15455">
        <ele>527.9</ele>
        <time>2018-08-11T13:27:03Z</time>
      </trkpt>
      <trkpt lat="43.68979" lon="3.15453">
        <ele>526.94</ele>
        <time>2018-08-11T13:27:18Z</time>
      </trkpt>
      <trkpt lat="43.68979" lon="3.15454">
        <ele>526.46</ele>
        <time>2018-08-11T13:27:34Z</time>
      </trkpt>
      <trkpt lat="43.6898" lon="3.15454">
        <ele>525.02</ele>
        <time>2018-08-11T13:27:51Z</time>
      </trkpt>
      <trkpt lat="43.68981" lon="3.15452">
        <ele>524.54</ele>
        <time>2018-08-11T13:28:09Z</time>
      </trkpt>
      <trkpt lat="43.68981" lon="3.15452">
        <ele>523.58</ele>
        <time>2018-08-11T13:28:31Z</time>
      </trkpt>
      <trkpt lat="43.68982" lon="3.15451">
        <ele>522.61</ele>
        <time>2018-08-11T13:28:47Z</time>
      </trkpt>
      <trkpt lat="43.68985" lon="3.15454">
        <ele>521.17</ele>
        <time>2018-08-11T13:29:02Z</time>
      </trkpt>
      <trkpt lat="43.68991" lon="3.1546">
        <ele>520.69</ele>
        <time>2018-08-11T13:29:20Z</time>
      </trkpt>
      <trkpt lat="43.68997" lon="3.15465">
        <ele>519.73</ele>
        <time>2018-08-11T13:29:36Z</time>
      </trkpt>
      <trkpt lat="43.68994" lon="3.15472">
        <ele>519.73</ele>
        <time>2018-08-11T13:29:57Z</time>
      </trkpt>
      <trkpt lat="43.68995" lon="3.15474">
        <ele>519.73</ele>
        <time>2018-08-11T13:30:18Z</time>
      </trkpt>
      <trkpt lat="43.68995" lon="3.15475">
        <ele>517.81</ele>
        <time>2018-08-11T13:30:35Z</time>
      </trkpt>
      <trkpt lat="43.68996" lon="3.15475">
        <ele>516.37</ele>
        <time>2018-08-11T13:30:46Z</time>
      </trkpt>
      <trkpt lat="43.68998" lon="3.15477">
        <ele>514.92</ele>
        <time>2018-08-11T13:31:04Z</time>
      </trkpt>
      <trkpt lat="43.69" lon="3.15479">
        <ele>514.44</ele>
        <time>2018-08-11T13:31:20Z</time>
      </trkpt>
      <trkpt lat="43.69003" lon="3.15479">
        <ele>513</ele>
        <time>2018-08-11T13:31:46Z</time>
      </trkpt>
      <trkpt lat="43.69005" lon="3.1548">
        <ele>513</ele>
        <time>2018-08-11T13:32:00Z</time>
      </trkpt>
      <trkpt lat="43.69012" lon="3.15487">
        <ele>511.56</ele>
        <time>2018-08-11T13:32:12Z</time>
      </trkpt>
      <trkpt lat="43.69013" lon="3.15486">
        <ele>511.08</ele>
        <time>2018-08-11T13:32:27Z</time>
      </trkpt>
      <trkpt lat="43.69017" lon="3.1549">
        <ele>509.64</ele>
        <time>2018-08-11T13:32:42Z</time>
      </trkpt>
      <trkpt lat="43.69019" lon="3.15489">
        <ele>509.16</ele>
        <time>2018-08-11T13:32:56Z</time>
      </trkpt>
      <trkpt lat="43.6902" lon="3.15488">
        <ele>509.16</ele>
        <time>2018-08-11T13:33:09Z</time>
      </trkpt>
      <trkpt lat="43.69019" lon="3.15488">
        <ele>508.67</ele>
        <time>2018-08-11T13:33:38Z</time>
      </trkpt>
      <trkpt lat="43.6902" lon="3.15488">
        <ele>508.19</ele>
        <time>2018-08-11T13:34:06Z</time>
      </trkpt>
      <trkpt lat="43.69019" lon="3.15488">
        <ele>507.71</ele>
        <time>2018-08-11T13:34:23Z</time>
      </trkpt>
      <trkpt lat="43.6902" lon="3.15491">
        <ele>508.19</ele>
        <time>2018-08-11T13:34:26Z</time>
      </trkpt>
      <trkpt lat="43.69021" lon="3.15498">
        <ele>507.71</ele>
        <time>2018-08-11T13:34:36Z</time>
      </trkpt>
      <trkpt lat="43.69019" lon="3.15513">
        <ele>507.71</ele>
        <time>2018-08-11T13:34:49Z</time>
      </trkpt>
      <trkpt lat="43.69017" lon="3.15525">
        <ele>507.71</ele>
        <time>2018-08-11T13:34:56Z</time>
      </trkpt>
      <trkpt lat="43.69016" lon="3.15534">
        <ele>507.23</ele>
        <time>2018-08-11T13:35:02Z</time>
      </trkpt>
      <trkpt lat="43.69014" lon="3.15541">
        <ele>507.23</ele>
        <time>2018-08-11T13:35:07Z</time>
      </trkpt>
      <trkpt lat="43.69014" lon="3.15544">
        <ele>507.71</ele>
        <time>2018-08-11T13:35:10Z</time>
      </trkpt>
      <trkpt lat="43.69011" lon="3.15548">
        <ele>506.75</ele>
        <time>2018-08-11T13:35:14Z</time>
      </trkpt>
      <trkpt lat="43.69007" lon="3.15551">
        <ele>507.23</ele>
        <time>2018-08-11T13:35:17Z</time>
      </trkpt>
      <trkpt lat="43.69006" lon="3.15559">
        <ele>507.23</ele>
        <time>2018-08-11T13:35:22Z</time>
      </trkpt>
      <trkpt lat="43.69003" lon="3.15562">
        <ele>506.27</ele>
        <time>2018-08-11T13:35:25Z</time>
      </trkpt>
      <trkpt lat="43.69003" lon="3.15566">
        <ele>506.27</ele>
        <time>2018-08-11T13:35:28Z</time>
      </trkpt>
      <trkpt lat="43.69002" lon="3.1557">
        <ele>506.27</ele>
        <time>2018-08-11T13:35:31Z</time>
      </trkpt>
      <trkpt lat="43.69002" lon="3.1558">
        <ele>506.27</ele>
        <time>2018-08-11T13:35:43Z</time>
      </trkpt>
      <trkpt lat="43.69003" lon="3.15583">
        <ele>505.79</ele>
        <time>2018-08-11T13:35:50Z</time>
      </trkpt>
      <trkpt lat="43.69004" lon="3.15586">
        <ele>506.27</ele>
        <time>2018-08-11T13:36:03Z</time>
      </trkpt>
      <trkpt lat="43.69007" lon="3.15586">
        <ele>504.83</ele>
        <time>2018-08-11T13:36:18Z</time>
      </trkpt>
      <trkpt lat="43.69008" lon="3.15587">
        <ele>503.87</ele>
        <time>2018-08-11T13:36:33Z</time>
      </trkpt>
      <trkpt lat="43.69012" lon="3.15591">
        <ele>501.46</ele>
        <time>2018-08-11T13:36:47Z</time>
      </trkpt>
      <trkpt lat="43.69014" lon="3.15598">
        <ele>499.06</ele>
        <time>2018-08-11T13:37:03Z</time>
      </trkpt>
      <trkpt lat="43.69016" lon="3.15604">
        <ele>498.1</ele>
        <time>2018-08-11T13:37:17Z</time>
      </trkpt>
      <trkpt lat="43.69017" lon="3.15608">
        <ele>497.62</ele>
        <time>2018-08-11T13:37:31Z</time>
      </trkpt>
      <trkpt lat="43.69016" lon="3.15609">
        <ele>496.18</ele>
        <time>2018-08-11T13:37:48Z</time>
      </trkpt>
      <trkpt lat="43.69016" lon="3.15612">
        <ele>494.74</ele>
        <time>2018-08-11T13:38:04Z</time>
      </trkpt>
      <trkpt lat="43.69018" lon="3.15614">
        <ele>492.81</ele>
        <time>2018-08-11T13:38:16Z</time>
      </trkpt>
      <trkpt lat="43.69027" lon="3.15621">
        <ele>490.41</ele>
        <time>2018-08-11T13:38:29Z</time>
      </trkpt>
      <trkpt lat="43.69031" lon="3.15611">
        <ele>490.41</ele>
        <time>2018-08-11T13:38:40Z</time>
      </trkpt>
      <trkpt lat="43.69036" lon="3.15608">
        <ele>489.45</ele>
        <time>2018-08-11T13:39:02Z</time>
      </trkpt>
      <trkpt lat="43.69042" lon="3.15602">
        <ele>487.05</ele>
        <time>2018-08-11T13:39:15Z</time>
      </trkpt>
      <trkpt lat="43.69046" lon="3.15604">
        <ele>485.6</ele>
        <time>2018-08-11T13:39:29Z</time>
      </trkpt>
      <trkpt lat="43.69049" lon="3.15607">
        <ele>483.2</ele>
        <time>2018-08-11T13:39:40Z</time>
      </trkpt>
      <trkpt lat="43.6905" lon="3.15603">
        <ele>482.72</ele>
        <time>2018-08-11T13:39:54Z</time>
      </trkpt>
      <trkpt lat="43.69054" lon="3.15611">
        <ele>480.8</ele>
        <time>2018-08-11T13:40:06Z</time>
      </trkpt>
      <trkpt lat="43.69058" lon="3.15613">
        <ele>478.39</ele>
        <time>2018-08-11T13:40:18Z</time>
      </trkpt>
      <trkpt lat="43.69064" lon="3.15618">
        <ele>479.35</ele>
        <time>2018-08-11T13:40:43Z</time>
      </trkpt>
      <trkpt lat="43.69069" lon="3.1562">
        <ele>477.43</ele>
        <time>2018-08-11T13:41:01Z</time>
      </trkpt>
      <trkpt lat="43.6907" lon="3.15619">
        <ele>475.99</ele>
        <time>2018-08-11T13:41:13Z</time>
      </trkpt>
      <trkpt lat="43.69074" lon="3.1562">
        <ele>475.51</ele>
        <time>2018-08-11T13:41:31Z</time>
      </trkpt>
      <trkpt lat="43.69076" lon="3.15621">
        <ele>473.11</ele>
        <time>2018-08-11T13:41:45Z</time>
      </trkpt>
      <trkpt lat="43.69079" lon="3.15622">
        <ele>470.7</ele>
        <time>2018-08-11T13:41:58Z</time>
      </trkpt>
      <trkpt lat="43.69086" lon="3.15624">
        <ele>469.26</ele>
        <time>2018-08-11T13:42:12Z</time>
      </trkpt>
      <trkpt lat="43.6909" lon="3.15623">
        <ele>467.82</ele>
        <time>2018-08-11T13:42:28Z</time>
      </trkpt>
      <trkpt lat="43.69092" lon="3.15623">
        <ele>467.34</ele>
        <time>2018-08-11T13:42:48Z</time>
      </trkpt>
      <trkpt lat="43.69093" lon="3.15623">
        <ele>467.34</ele>
        <time>2018-08-11T13:43:07Z</time>
      </trkpt>
      <trkpt lat="43.69093" lon="3.15623">
        <ele>465.9</ele>
        <time>2018-08-11T13:43:29Z</time>
      </trkpt>
      <trkpt lat="43.69093" lon="3.15623">
        <ele>464.93</ele>
        <time>2018-08-11T13:43:34Z</time>
      </trkpt>
      <trkpt lat="43.69097" lon="3.15632">
        <ele>463.49</ele>
        <time>2018-08-11T13:43:46Z</time>
      </trkpt>
      <trkpt lat="43.69103" lon="3.15639">
        <ele>462.53</ele>
        <time>2018-08-11T13:44:05Z</time>
      </trkpt>
      <trkpt lat="43.69105" lon="3.15642">
        <ele>461.57</ele>
        <time>2018-08-11T13:44:18Z</time>
      </trkpt>
      <trkpt lat="43.69107" lon="3.15652">
        <ele>463.01</ele>
        <time>2018-08-11T13:44:28Z</time>
      </trkpt>
      <trkpt lat="43.69106" lon="3.15655">
        <ele>463.01</ele>
        <time>2018-08-11T13:44:42Z</time>
      </trkpt>
      <trkpt lat="43.69107" lon="3.15657">
        <ele>462.53</ele>
        <time>2018-08-11T13:45:00Z</time>
      </trkpt>
      <trkpt lat="43.69106" lon="3.15658">
        <ele>462.05</ele>
        <time>2018-08-11T13:45:21Z</time>
      </trkpt>
      <trkpt lat="43.69104" lon="3.15661">
        <ele>461.57</ele>
        <time>2018-08-11T13:45:42Z</time>
      </trkpt>
      <trkpt lat="43.69105" lon="3.15662">
        <ele>462.53</ele>
        <time>2018-08-11T13:46:18Z</time>
      </trkpt>
      <trkpt lat="43.69105" lon="3.15663">
        <ele>461.57</ele>
        <time>2018-08-11T13:46:49Z</time>
      </trkpt>
      <trkpt lat="43.69105" lon="3.1567">
        <ele>460.61</ele>
        <time>2018-08-11T13:47:09Z</time>
      </trkpt>
      <trkpt lat="43.69106" lon="3.1568">
        <ele>460.61</ele>
        <time>2018-08-11T13:47:21Z</time>
      </trkpt>
      <trkpt lat="43.69105" lon="3.15683">
        <ele>461.09</ele>
        <time>2018-08-11T13:47:33Z</time>
      </trkpt>
      <trkpt lat="43.69108" lon="3.1569">
        <ele>461.09</ele>
        <time>2018-08-11T13:47:51Z</time>
      </trkpt>
      <trkpt lat="43.69108" lon="3.15701">
        <ele>460.61</ele>
        <time>2018-08-11T13:48:04Z</time>
      </trkpt>
      <trkpt lat="43.6911" lon="3.15711">
        <ele>458.69</ele>
        <time>2018-08-11T13:48:17Z</time>
      </trkpt>
      <trkpt lat="43.69113" lon="3.15725">
        <ele>456.76</ele>
        <time>2018-08-11T13:48:30Z</time>
      </trkpt>
      <trkpt lat="43.69112" lon="3.15734">
        <ele>455.8</ele>
        <time>2018-08-11T13:48:42Z</time>
      </trkpt>
      <trkpt lat="43.69113" lon="3.15743">
        <ele>454.36</ele>
        <time>2018-08-11T13:48:53Z</time>
      </trkpt>
      <trkpt lat="43.69117" lon="3.15764">
        <ele>451.96</ele>
        <time>2018-08-11T13:49:06Z</time>
      </trkpt>
      <trkpt lat="43.69119" lon="3.15775">
        <ele>450.03</ele>
        <time>2018-08-11T13:49:19Z</time>
      </trkpt>
      <trkpt lat="43.69118" lon="3.15786">
        <ele>450.03</ele>
        <time>2018-08-11T13:49:30Z</time>
      </trkpt>
      <trkpt lat="43.69118" lon="3.15789">
        <ele>450.52</ele>
        <time>2018-08-11T13:49:34Z</time>
      </trkpt>
      <trkpt lat="43.69113" lon="3.15796">
        <ele>451</ele>
        <time>2018-08-11T13:49:45Z</time>
      </trkpt>
      <trkpt lat="43.69112" lon="3.15805">
        <ele>450.03</ele>
        <time>2018-08-11T13:50:00Z</time>
      </trkpt>
      <trkpt lat="43.6911" lon="3.15817">
        <ele>449.07</ele>
        <time>2018-08-11T13:50:10Z</time>
      </trkpt>
      <trkpt lat="43.6911" lon="3.15833">
        <ele>449.07</ele>
        <time>2018-08-11T13:50:22Z</time>
      </trkpt>
      <trkpt lat="43.69108" lon="3.15849">
        <ele>447.63</ele>
        <time>2018-08-11T13:50:35Z</time>
      </trkpt>
      <trkpt lat="43.69102" lon="3.1586">
        <ele>445.71</ele>
        <time>2018-08-11T13:50:47Z</time>
      </trkpt>
      <trkpt lat="43.69096" lon="3.15871">
        <ele>444.75</ele>
        <time>2018-08-11T13:50:59Z</time>
      </trkpt>
      <trkpt lat="43.69086" lon="3.1588">
        <ele>444.75</ele>
        <time>2018-08-11T13:51:10Z</time>
      </trkpt>
      <trkpt lat="43.69079" lon="3.15894">
        <ele>442.82</ele>
        <time>2018-08-11T13:51:23Z</time>
      </trkpt>
      <trkpt lat="43.69076" lon="3.15898">
        <ele>442.82</ele>
        <time>2018-08-11T13:51:36Z</time>
      </trkpt>
      <trkpt lat="43.69072" lon="3.15904">
        <ele>442.82</ele>
        <time>2018-08-11T13:51:46Z</time>
      </trkpt>
      <trkpt lat="43.69064" lon="3.15909">
        <ele>442.34</ele>
        <time>2018-08-11T13:51:59Z</time>
      </trkpt>
      <trkpt lat="43.69057" lon="3.1592">
        <ele>440.42</ele>
        <time>2018-08-11T13:52:12Z</time>
      </trkpt>
      <trkpt lat="43.6905" lon="3.15925">
        <ele>440.42</ele>
        <time>2018-08-11T13:52:25Z</time>
      </trkpt>
      <trkpt lat="43.69043" lon="3.15934">
        <ele>439.46</ele>
        <time>2018-08-11T13:52:39Z</time>
      </trkpt>
      <trkpt lat="43.69039" lon="3.1594">
        <ele>438.02</ele>
        <time>2018-08-11T13:52:55Z</time>
      </trkpt>
      <trkpt lat="43.69032" lon="3.15951">
        <ele>438.02</ele>
        <time>2018-08-11T13:53:07Z</time>
      </trkpt>
      <trkpt lat="43.69022" lon="3.1596">
        <ele>438.98</ele>
        <time>2018-08-11T13:53:18Z</time>
      </trkpt>
      <trkpt lat="43.69016" lon="3.15964">
        <ele>440.9</ele>
        <time>2018-08-11T13:53:29Z</time>
      </trkpt>
      <trkpt lat="43.6901" lon="3.15971">
        <ele>439.94</ele>
        <time>2018-08-11T13:53:41Z</time>
      </trkpt>
      <trkpt lat="43.69004" lon="3.15975">
        <ele>438.5</ele>
        <time>2018-08-11T13:53:57Z</time>
      </trkpt>
      <trkpt lat="43.69004" lon="3.15979">
        <ele>437.06</ele>
        <time>2018-08-11T13:54:09Z</time>
      </trkpt>
      <trkpt lat="43.69004" lon="3.15979">
        <ele>437.06</ele>
        <time>2018-08-11T13:54:25Z</time>
      </trkpt>
      <trkpt lat="43.69003" lon="3.1598">
        <ele>436.1</ele>
        <time>2018-08-11T13:54:38Z</time>
      </trkpt>
      <trkpt lat="43.69004" lon="3.15983">
        <ele>434.65</ele>
        <time>2018-08-11T13:54:50Z</time>
      </trkpt>
      <trkpt lat="43.69004" lon="3.15986">
        <ele>433.69</ele>
        <time>2018-08-11T13:55:03Z</time>
      </trkpt>
      <trkpt lat="43.69005" lon="3.15987">
        <ele>433.21</ele>
        <time>2018-08-11T13:55:32Z</time>
      </trkpt>
      <trkpt lat="43.69006" lon="3.15988">
        <ele>432.73</ele>
        <time>2018-08-11T13:55:48Z</time>
      </trkpt>
      <trkpt lat="43.69007" lon="3.15998">
        <ele>430.33</ele>
        <time>2018-08-11T13:56:03Z</time>
      </trkpt>
      <trkpt lat="43.69007" lon="3.15999">
        <ele>429.85</ele>
        <time>2018-08-11T13:56:05Z</time>
      </trkpt>
      <trkpt lat="43.69007" lon="3.16006">
        <ele>428.4</ele>
        <time>2018-08-11T13:56:17Z</time>
      </trkpt>
      <trkpt lat="43.69008" lon="3.16005">
        <ele>427.92</ele>
        <time>2018-08-11T13:56:31Z</time>
      </trkpt>
      <trkpt lat="43.69008" lon="3.16009">
        <ele>427.92</ele>
        <time>2018-08-11T13:56:56Z</time>
      </trkpt>
      <trkpt lat="43.69009" lon="3.1601">
        <ele>427.92</ele>
        <time>2018-08-11T13:57:18Z</time>
      </trkpt>
      <trkpt lat="43.69009" lon="3.16012">
        <ele>426.96</ele>
        <time>2018-08-11T13:57:35Z</time>
      </trkpt>
      <trkpt lat="43.69008" lon="3.1602">
        <ele>425.52</ele>
        <time>2018-08-11T13:57:46Z</time>
      </trkpt>
      <trkpt lat="43.69007" lon="3.16025">
        <ele>425.04</ele>
        <time>2018-08-11T13:58:05Z</time>
      </trkpt>
      <trkpt lat="43.69004" lon="3.16033">
        <ele>425.52</ele>
        <time>2018-08-11T13:58:20Z</time>
      </trkpt>
      <trkpt lat="43.68999" lon="3.1604">
        <ele>425.04</ele>
        <time>2018-08-11T13:58:31Z</time>
      </trkpt>
      <trkpt lat="43.68996" lon="3.1605">
        <ele>423.6</ele>
        <time>2018-08-11T13:58:43Z</time>
      </trkpt>
      <trkpt lat="43.68994" lon="3.16061">
        <ele>421.68</ele>
        <time>2018-08-11T13:58:52Z</time>
      </trkpt>
      <trkpt lat="43.68994" lon="3.16074">
        <ele>420.71</ele>
        <time>2018-08-11T13:59:01Z</time>
      </trkpt>
      <trkpt lat="43.69003" lon="3.16092">
        <ele>419.27</ele>
        <time>2018-08-11T13:59:14Z</time>
      </trkpt>
      <trkpt lat="43.69004" lon="3.16092">
        <ele>419.27</ele>
        <time>2018-08-11T13:59:15Z</time>
      </trkpt>
      <trkpt lat="43.6901" lon="3.161">
        <ele>418.79</ele>
        <time>2018-08-11T13:59:27Z</time>
      </trkpt>
      <trkpt lat="43.69011" lon="3.161">
        <ele>417.83</ele>
        <time>2018-08-11T13:59:41Z</time>
      </trkpt>
      <trkpt lat="43.69012" lon="3.16099">
        <ele>417.83</ele>
        <time>2018-08-11T14:00:03Z</time>
      </trkpt>
      <trkpt lat="43.69015" lon="3.16097">
        <ele>417.35</ele>
        <time>2018-08-11T14:00:35Z</time>
      </trkpt>
      <trkpt lat="43.69016" lon="3.16097">
        <ele>418.31</ele>
        <time>2018-08-11T14:00:51Z</time>
      </trkpt>
      <trkpt lat="43.69016" lon="3.16098">
        <ele>417.35</ele>
        <time>2018-08-11T14:01:13Z</time>
      </trkpt>
      <trkpt lat="43.69017" lon="3.16099">
        <ele>415.91</ele>
        <time>2018-08-11T14:01:27Z</time>
      </trkpt>
      <trkpt lat="43.69019" lon="3.16105">
        <ele>413.98</ele>
        <time>2018-08-11T14:01:38Z</time>
      </trkpt>
      <trkpt lat="43.69022" lon="3.16109">
        <ele>413.5</ele>
        <time>2018-08-11T14:01:55Z</time>
      </trkpt>
      <trkpt lat="43.69023" lon="3.16115">
        <ele>412.06</ele>
        <time>2018-08-11T14:02:09Z</time>
      </trkpt>
      <trkpt lat="43.69023" lon="3.16118">
        <ele>411.58</ele>
        <time>2018-08-11T14:02:22Z</time>
      </trkpt>
      <trkpt lat="43.69025" lon="3.16125">
        <ele>409.18</ele>
        <time>2018-08-11T14:02:37Z</time>
      </trkpt>
      <trkpt lat="43.69023" lon="3.16128">
        <ele>408.7</ele>
        <time>2018-08-11T14:02:46Z</time>
      </trkpt>
      <trkpt lat="43.69021" lon="3.1613">
        <ele>407.74</ele>
        <time>2018-08-11T14:02:54Z</time>
      </trkpt>
      <trkpt lat="43.69021" lon="3.1613">
        <ele>407.26</ele>
        <time>2018-08-11T14:02:55Z</time>
      </trkpt>
      <trkpt lat="43.6902" lon="3.1613">
        <ele>408.7</ele>
        <time>2018-08-11T14:03:15Z</time>
      </trkpt>
      <trkpt lat="43.6902" lon="3.16131">
        <ele>408.22</ele>
        <time>2018-08-11T14:03:38Z</time>
      </trkpt>
      <trkpt lat="43.69019" lon="3.1613">
        <ele>407.74</ele>
        <time>2018-08-11T14:04:05Z</time>
      </trkpt>
      <trkpt lat="43.69018" lon="3.1613">
        <ele>407.26</ele>
        <time>2018-08-11T14:04:33Z</time>
      </trkpt>
      <trkpt lat="43.69018" lon="3.1613">
        <ele>407.26</ele>
        <time>2018-08-11T14:05:08Z</time>
      </trkpt>
      <trkpt lat="43.69018" lon="3.16128">
        <ele>406.77</ele>
        <time>2018-08-11T14:05:47Z</time>
      </trkpt>
      <trkpt lat="43.69018" lon="3.16128">
        <ele>407.26</ele>
        <time>2018-08-11T14:06:15Z</time>
      </trkpt>
      <trkpt lat="43.69018" lon="3.16129">
        <ele>406.77</ele>
        <time>2018-08-11T14:06:48Z</time>
      </trkpt>
      <trkpt lat="43.69018" lon="3.1613">
        <ele>407.26</ele>
        <time>2018-08-11T14:07:18Z</time>
      </trkpt>
      <trkpt lat="43.69018" lon="3.16128">
        <ele>407.26</ele>
        <time>2018-08-11T14:07:42Z</time>
      </trkpt>
      <trkpt lat="43.69018" lon="3.16129">
        <ele>406.77</ele>
        <time>2018-08-11T14:07:54Z</time>
      </trkpt>
      <trkpt lat="43.69018" lon="3.1613">
        <ele>406.77</ele>
        <time>2018-08-11T14:08:19Z</time>
      </trkpt>
      <trkpt lat="43.69019" lon="3.16131">
        <ele>407.26</ele>
        <time>2018-08-11T14:08:41Z</time>
      </trkpt>
      <trkpt lat="43.69016" lon="3.16132">
        <ele>406.77</ele>
        <time>2018-08-11T14:08:58Z</time>
      </trkpt>
      <trkpt lat="43.69017" lon="3.16132">
        <ele>406.29</ele>
        <time>2018-08-11T14:09:11Z</time>
      </trkpt>
      <trkpt lat="43.69017" lon="3.16131">
        <ele>406.77</ele>
        <time>2018-08-11T14:09:36Z</time>
      </trkpt>
      <trkpt lat="43.69018" lon="3.16131">
        <ele>405.81</ele>
        <time>2018-08-11T14:09:53Z</time>
      </trkpt>
      <trkpt lat="43.69018" lon="3.16132">
        <ele>405.81</ele>
        <time>2018-08-11T14:10:24Z</time>
      </trkpt>
      <trkpt lat="43.69017" lon="3.16132">
        <ele>405.81</ele>
        <time>2018-08-11T14:10:45Z</time>
      </trkpt>
      <trkpt lat="43.69017" lon="3.16131">
        <ele>405.81</ele>
        <time>2018-08-11T14:11:00Z</time>
      </trkpt>
      <trkpt lat="43.69016" lon="3.16132">
        <ele>405.33</ele>
        <time>2018-08-11T14:11:24Z</time>
      </trkpt>
      <trkpt lat="43.69016" lon="3.16131">
        <ele>405.81</ele>
        <time>2018-08-11T14:11:33Z</time>
      </trkpt>
      <trkpt lat="43.69016" lon="3.16129">
        <ele>404.85</ele>
        <time>2018-08-11T14:11:56Z</time>
      </trkpt>
      <trkpt lat="43.69015" lon="3.1613">
        <ele>404.85</ele>
        <time>2018-08-11T14:12:09Z</time>
      </trkpt>
      <trkpt lat="43.69006" lon="3.16131">
        <ele>404.37</ele>
        <time>2018-08-11T14:12:23Z</time>
      </trkpt>
      <trkpt lat="43.69" lon="3.16131">
        <ele>403.41</ele>
        <time>2018-08-11T14:12:36Z</time>
      </trkpt>
      <trkpt lat="43.68994" lon="3.16131">
        <ele>403.89</ele>
        <time>2018-08-11T14:12:43Z</time>
      </trkpt>
      <trkpt lat="43.68992" lon="3.16132">
        <ele>403.41</ele>
        <time>2018-08-11T14:12:45Z</time>
      </trkpt>
      <trkpt lat="43.68984" lon="3.16133">
        <ele>404.37</ele>
        <time>2018-08-11T14:12:55Z</time>
      </trkpt>
      <trkpt lat="43.68979" lon="3.16135">
        <ele>403.89</ele>
        <time>2018-08-11T14:13:01Z</time>
      </trkpt>
      <trkpt lat="43.68976" lon="3.16135">
        <ele>403.41</ele>
        <time>2018-08-11T14:13:04Z</time>
      </trkpt>
      <trkpt lat="43.68971" lon="3.16136">
        <ele>403.89</ele>
        <time>2018-08-11T14:13:08Z</time>
      </trkpt>
      <trkpt lat="43.68958" lon="3.16138">
        <ele>403.41</ele>
        <time>2018-08-11T14:13:21Z</time>
      </trkpt>
      <trkpt lat="43.68949" lon="3.16139">
        <ele>402.93</ele>
        <time>2018-08-11T14:13:30Z</time>
      </trkpt>
      <trkpt lat="43.68934" lon="3.16135">
        <ele>403.41</ele>
        <time>2018-08-11T14:13:44Z</time>
      </trkpt>
      <trkpt lat="43.68922" lon="3.16129">
        <ele>402.45</ele>
        <time>2018-08-11T14:13:58Z</time>
      </trkpt>
      <trkpt lat="43.68915" lon="3.16127">
        <ele>401.97</ele>
        <time>2018-08-11T14:14:07Z</time>
      </trkpt>
      <trkpt lat="43.68906" lon="3.16121">
        <ele>401.97</ele>
        <time>2018-08-11T14:14:18Z</time>
      </trkpt>
      <trkpt lat="43.68904" lon="3.16119">
        <ele>402.45</ele>
        <time>2018-08-11T14:14:21Z</time>
      </trkpt>
      <trkpt lat="43.68893" lon="3.16114">
        <ele>401.97</ele>
        <time>2018-08-11T14:14:34Z</time>
      </trkpt>
      <trkpt lat="43.68882" lon="3.16105">
        <ele>401.49</ele>
        <time>2018-08-11T14:14:47Z</time>
      </trkpt>
      <trkpt lat="43.68871" lon="3.16096">
        <ele>400.53</ele>
        <time>2018-08-11T14:15:01Z</time>
      </trkpt>
      <trkpt lat="43.6886" lon="3.16094">
        <ele>400.05</ele>
        <time>2018-08-11T14:15:14Z</time>
      </trkpt>
      <trkpt lat="43.6885" lon="3.16091">
        <ele>398.6</ele>
        <time>2018-08-11T14:15:28Z</time>
      </trkpt>
      <trkpt lat="43.68846" lon="3.16092">
        <ele>398.6</ele>
        <time>2018-08-11T14:15:32Z</time>
      </trkpt>
      <trkpt lat="43.68834" lon="3.16095">
        <ele>396.68</ele>
        <time>2018-08-11T14:15:44Z</time>
      </trkpt>
      <trkpt lat="43.68824" lon="3.16095">
        <ele>396.2</ele>
        <time>2018-08-11T14:15:57Z</time>
      </trkpt>
      <trkpt lat="43.68814" lon="3.16096">
        <ele>395.72</ele>
        <time>2018-08-11T14:16:09Z</time>
      </trkpt>
      <trkpt lat="43.68802" lon="3.16097">
        <ele>394.28</ele>
        <time>2018-08-11T14:16:22Z</time>
      </trkpt>
      <trkpt lat="43.68801" lon="3.16097">
        <ele>394.76</ele>
        <time>2018-08-11T14:16:25Z</time>
      </trkpt>
      <trkpt lat="43.68797" lon="3.16098">
        <ele>394.28</ele>
        <time>2018-08-11T14:16:28Z</time>
      </trkpt>
      <trkpt lat="43.68782" lon="3.16103">
        <ele>393.32</ele>
        <time>2018-08-11T14:16:44Z</time>
      </trkpt>
      <trkpt lat="43.68768" lon="3.16105">
        <ele>392.36</ele>
        <time>2018-08-11T14:16:56Z</time>
      </trkpt>
      <trkpt lat="43.68753" lon="3.16112">
        <ele>391.39</ele>
        <time>2018-08-11T14:17:12Z</time>
      </trkpt>
      <trkpt lat="43.68748" lon="3.16114">
        <ele>391.39</ele>
        <time>2018-08-11T14:17:19Z</time>
      </trkpt>
      <trkpt lat="43.68746" lon="3.16115">
        <ele>390.91</ele>
        <time>2018-08-11T14:17:21Z</time>
      </trkpt>
      <trkpt lat="43.68739" lon="3.16117">
        <ele>389.95</ele>
        <time>2018-08-11T14:17:27Z</time>
      </trkpt>
      <trkpt lat="43.68735" lon="3.16117">
        <ele>389.95</ele>
        <time>2018-08-11T14:17:31Z</time>
      </trkpt>
      <trkpt lat="43.68732" lon="3.16119">
        <ele>388.99</ele>
        <time>2018-08-11T14:17:34Z</time>
      </trkpt>
      <trkpt lat="43.68729" lon="3.16119">
        <ele>388.99</ele>
        <time>2018-08-11T14:17:37Z</time>
      </trkpt>
      <trkpt lat="43.68729" lon="3.16123">
        <ele>389.47</ele>
        <time>2018-08-11T14:17:42Z</time>
      </trkpt>
      <trkpt lat="43.68734" lon="3.16125">
        <ele>389.47</ele>
        <time>2018-08-11T14:17:56Z</time>
      </trkpt>
      <trkpt lat="43.68736" lon="3.16123">
        <ele>388.99</ele>
        <time>2018-08-11T14:18:21Z</time>
      </trkpt>
      <trkpt lat="43.68738" lon="3.16122">
        <ele>388.03</ele>
        <time>2018-08-11T14:18:40Z</time>
      </trkpt>
      <trkpt lat="43.6874" lon="3.16121">
        <ele>388.51</ele>
        <time>2018-08-11T14:18:56Z</time>
      </trkpt>
      <trkpt lat="43.6874" lon="3.16121">
        <ele>388.51</ele>
        <time>2018-08-11T14:18:58Z</time>
      </trkpt>
      <trkpt lat="43.68747" lon="3.1612">
        <ele>388.51</ele>
        <time>2018-08-11T14:19:10Z</time>
      </trkpt>
      <trkpt lat="43.6875" lon="3.16119">
        <ele>388.51</ele>
        <time>2018-08-11T14:19:13Z</time>
      </trkpt>
      <trkpt lat="43.68756" lon="3.16119">
        <ele>388.03</ele>
        <time>2018-08-11T14:19:23Z</time>
      </trkpt>
      <trkpt lat="43.6876" lon="3.16117">
        <ele>387.07</ele>
        <time>2018-08-11T14:19:38Z</time>
      </trkpt>
      <trkpt lat="43.68765" lon="3.16118">
        <ele>386.11</ele>
        <time>2018-08-11T14:20:00Z</time>
      </trkpt>
      <trkpt lat="43.68768" lon="3.16124">
        <ele>384.66</ele>
        <time>2018-08-11T14:20:11Z</time>
      </trkpt>
      <trkpt lat="43.68773" lon="3.16133">
        <ele>382.74</ele>
        <time>2018-08-11T14:20:23Z</time>
      </trkpt>
      <trkpt lat="43.68774" lon="3.16137">
        <ele>382.26</ele>
        <time>2018-08-11T14:20:27Z</time>
      </trkpt>
      <trkpt lat="43.68779" lon="3.16144">
        <ele>381.3</ele>
        <time>2018-08-11T14:20:40Z</time>
      </trkpt>
      <trkpt lat="43.68785" lon="3.16151">
        <ele>379.86</ele>
        <time>2018-08-11T14:20:50Z</time>
      </trkpt>
      <trkpt lat="43.68789" lon="3.16155">
        <ele>378.42</ele>
        <time>2018-08-11T14:20:55Z</time>
      </trkpt>
      <trkpt lat="43.68804" lon="3.16162">
        <ele>377.94</ele>
        <time>2018-08-11T14:21:07Z</time>
      </trkpt>
      <trkpt lat="43.68805" lon="3.16163">
        <ele>377.94</ele>
        <time>2018-08-11T14:21:08Z</time>
      </trkpt>
      <trkpt lat="43.68808" lon="3.16165">
        <ele>376.97</ele>
        <time>2018-08-11T14:21:11Z</time>
      </trkpt>
      <trkpt lat="43.68816" lon="3.16167">
        <ele>377.45</ele>
        <time>2018-08-11T14:21:28Z</time>
      </trkpt>
      <trkpt lat="43.68816" lon="3.16167">
        <ele>376.97</ele>
        <time>2018-08-11T14:21:32Z</time>
      </trkpt>
      <trkpt lat="43.68819" lon="3.16168">
        <ele>376.97</ele>
        <time>2018-08-11T14:21:45Z</time>
      </trkpt>
      <trkpt lat="43.68822" lon="3.16168">
        <ele>376.97</ele>
        <time>2018-08-11T14:22:19Z</time>
      </trkpt>
      <trkpt lat="43.68827" lon="3.16176">
        <ele>376.01</ele>
        <time>2018-08-11T14:22:30Z</time>
      </trkpt>
      <trkpt lat="43.68835" lon="3.16186">
        <ele>376.01</ele>
        <time>2018-08-11T14:22:44Z</time>
      </trkpt>
      <trkpt lat="43.68842" lon="3.16192">
        <ele>376.01</ele>
        <time>2018-08-11T14:23:02Z</time>
      </trkpt>
      <trkpt lat="43.68844" lon="3.16194">
        <ele>376.01</ele>
        <time>2018-08-11T14:23:33Z</time>
      </trkpt>
      <trkpt lat="43.68847" lon="3.16193">
        <ele>376.01</ele>
        <time>2018-08-11T14:23:43Z</time>
      </trkpt>
      <trkpt lat="43.68856" lon="3.16199">
        <ele>375.05</ele>
        <time>2018-08-11T14:23:57Z</time>
      </trkpt>
      <trkpt lat="43.68862" lon="3.16203">
        <ele>374.57</ele>
        <time>2018-08-11T14:24:08Z</time>
      </trkpt>
      <trkpt lat="43.68866" lon="3.16203">
        <ele>374.09</ele>
        <time>2018-08-11T14:24:25Z</time>
      </trkpt>
      <trkpt lat="43.68873" lon="3.1621">
        <ele>373.13</ele>
        <time>2018-08-11T14:24:37Z</time>
      </trkpt>
      <trkpt lat="43.6888" lon="3.16217">
        <ele>372.17</ele>
        <time>2018-08-11T14:24:48Z</time>
      </trkpt>
      <trkpt lat="43.68886" lon="3.1622">
        <ele>371.69</ele>
        <time>2018-08-11T14:24:56Z</time>
      </trkpt>
      <trkpt lat="43.68893" lon="3.16226">
        <ele>370.73</ele>
        <time>2018-08-11T14:25:12Z</time>
      </trkpt>
      <trkpt lat="43.68902" lon="3.16235">
        <ele>367.36</ele>
        <time>2018-08-11T14:25:25Z</time>
      </trkpt>
      <trkpt lat="43.68911" lon="3.16243">
        <ele>365.44</ele>
        <time>2018-08-11T14:25:37Z</time>
      </trkpt>
      <trkpt lat="43.68921" lon="3.16248">
        <ele>363.52</ele>
        <time>2018-08-11T14:25:51Z</time>
      </trkpt>
      <trkpt lat="43.68925" lon="3.1625">
        <ele>363.52</ele>
        <time>2018-08-11T14:26:12Z</time>
      </trkpt>
      <trkpt lat="43.68929" lon="3.16252">
        <ele>362.55</ele>
        <time>2018-08-11T14:26:28Z</time>
      </trkpt>
      <trkpt lat="43.68933" lon="3.16255">
        <ele>361.59</ele>
        <time>2018-08-11T14:26:40Z</time>
      </trkpt>
      <trkpt lat="43.68935" lon="3.16257">
        <ele>360.63</ele>
        <time>2018-08-11T14:26:48Z</time>
      </trkpt>
      <trkpt lat="43.68939" lon="3.16262">
        <ele>359.19</ele>
        <time>2018-08-11T14:26:58Z</time>
      </trkpt>
      <trkpt lat="43.68945" lon="3.1627">
        <ele>357.27</ele>
        <time>2018-08-11T14:27:10Z</time>
      </trkpt>
      <trkpt lat="43.68954" lon="3.16277">
        <ele>356.31</ele>
        <time>2018-08-11T14:27:22Z</time>
      </trkpt>
      <trkpt lat="43.68964" lon="3.16284">
        <ele>354.86</ele>
        <time>2018-08-11T14:27:33Z</time>
      </trkpt>
      <trkpt lat="43.6897" lon="3.16291">
        <ele>352.94</ele>
        <time>2018-08-11T14:27:45Z</time>
      </trkpt>
      <trkpt lat="43.68975" lon="3.16298">
        <ele>351.02</ele>
        <time>2018-08-11T14:27:55Z</time>
      </trkpt>
      <trkpt lat="43.68985" lon="3.16309">
        <ele>350.06</ele>
        <time>2018-08-11T14:28:09Z</time>
      </trkpt>
      <trkpt lat="43.68991" lon="3.16317">
        <ele>348.62</ele>
        <time>2018-08-11T14:28:18Z</time>
      </trkpt>
      <trkpt lat="43.68995" lon="3.1632">
        <ele>348.62</ele>
        <time>2018-08-11T14:28:22Z</time>
      </trkpt>
      <trkpt lat="43.69005" lon="3.16331">
        <ele>346.21</ele>
        <time>2018-08-11T14:28:37Z</time>
      </trkpt>
      <trkpt lat="43.69008" lon="3.16335">
        <ele>345.73</ele>
        <time>2018-08-11T14:28:42Z</time>
      </trkpt>
      <trkpt lat="43.69011" lon="3.16338">
        <ele>345.73</ele>
        <time>2018-08-11T14:28:45Z</time>
      </trkpt>
      <trkpt lat="43.6902" lon="3.16342">
        <ele>344.77</ele>
        <time>2018-08-11T14:28:56Z</time>
      </trkpt>
      <trkpt lat="43.6903" lon="3.16346">
        <ele>344.29</ele>
        <time>2018-08-11T14:29:06Z</time>
      </trkpt>
      <trkpt lat="43.69038" lon="3.16348">
        <ele>343.33</ele>
        <time>2018-08-11T14:29:21Z</time>
      </trkpt>
      <trkpt lat="43.69039" lon="3.16348">
        <ele>343.81</ele>
        <time>2018-08-11T14:29:27Z</time>
      </trkpt>
      <trkpt lat="43.69041" lon="3.16352">
        <ele>343.81</ele>
        <time>2018-08-11T14:29:31Z</time>
      </trkpt>
      <trkpt lat="43.69043" lon="3.16359">
        <ele>342.37</ele>
        <time>2018-08-11T14:29:44Z</time>
      </trkpt>
      <trkpt lat="43.69046" lon="3.16371">
        <ele>341.41</ele>
        <time>2018-08-11T14:29:54Z</time>
      </trkpt>
      <trkpt lat="43.6905" lon="3.1638">
        <ele>339.96</ele>
        <time>2018-08-11T14:30:03Z</time>
      </trkpt>
      <trkpt lat="43.69056" lon="3.16393">
        <ele>339</ele>
        <time>2018-08-11T14:30:16Z</time>
      </trkpt>
      <trkpt lat="43.69064" lon="3.16401">
        <ele>337.56</ele>
        <time>2018-08-11T14:30:29Z</time>
      </trkpt>
      <trkpt lat="43.69068" lon="3.1641">
        <ele>336.12</ele>
        <time>2018-08-11T14:30:40Z</time>
      </trkpt>
      <trkpt lat="43.6907" lon="3.16416">
        <ele>334.2</ele>
        <time>2018-08-11T14:30:50Z</time>
      </trkpt>
      <trkpt lat="43.69073" lon="3.16418">
        <ele>334.2</ele>
        <time>2018-08-11T14:31:05Z</time>
      </trkpt>
      <trkpt lat="43.69078" lon="3.16425">
        <ele>332.75</ele>
        <time>2018-08-11T14:31:16Z</time>
      </trkpt>
      <trkpt lat="43.69086" lon="3.16432">
        <ele>330.83</ele>
        <time>2018-08-11T14:31:28Z</time>
      </trkpt>
      <trkpt lat="43.69093" lon="3.1644">
        <ele>328.91</ele>
        <time>2018-08-11T14:31:40Z</time>
      </trkpt>
      <trkpt lat="43.69096" lon="3.16442">
        <ele>328.91</ele>
        <time>2018-08-11T14:31:44Z</time>
      </trkpt>
      <trkpt lat="43.69101" lon="3.16445">
        <ele>326.99</ele>
        <time>2018-08-11T14:31:56Z</time>
      </trkpt>
      <trkpt lat="43.69104" lon="3.16446">
        <ele>326.99</ele>
        <time>2018-08-11T14:32:02Z</time>
      </trkpt>
      <trkpt lat="43.69112" lon="3.16451">
        <ele>325.06</ele>
        <time>2018-08-11T14:32:13Z</time>
      </trkpt>
      <trkpt lat="43.69116" lon="3.16453">
        <ele>324.58</ele>
        <time>2018-08-11T14:32:19Z</time>
      </trkpt>
      <trkpt lat="43.69126" lon="3.16454">
        <ele>322.66</ele>
        <time>2018-08-11T14:32:30Z</time>
      </trkpt>
      <trkpt lat="43.69127" lon="3.16456">
        <ele>322.18</ele>
        <time>2018-08-11T14:32:32Z</time>
      </trkpt>
      <trkpt lat="43.69124" lon="3.16461">
        <ele>320.74</ele>
        <time>2018-08-11T14:32:44Z</time>
      </trkpt>
      <trkpt lat="43.69119" lon="3.16468">
        <ele>319.78</ele>
        <time>2018-08-11T14:32:56Z</time>
      </trkpt>
      <trkpt lat="43.69117" lon="3.1647">
        <ele>319.78</ele>
        <time>2018-08-11T14:33:14Z</time>
      </trkpt>
      <trkpt lat="43.69118" lon="3.16468">
        <ele>319.78</ele>
        <time>2018-08-11T14:33:32Z</time>
      </trkpt>
      <trkpt lat="43.69118" lon="3.16467">
        <ele>319.78</ele>
        <time>2018-08-11T14:33:56Z</time>
      </trkpt>
      <trkpt lat="43.69117" lon="3.1647">
        <ele>318.81</ele>
        <time>2018-08-11T14:34:24Z</time>
      </trkpt>
      <trkpt lat="43.69118" lon="3.16472">
        <ele>317.85</ele>
        <time>2018-08-11T14:34:30Z</time>
      </trkpt>
      <trkpt lat="43.69126" lon="3.16474">
        <ele>316.41</ele>
        <time>2018-08-11T14:34:43Z</time>
      </trkpt>
      <trkpt lat="43.69134" lon="3.16479">
        <ele>314.49</ele>
        <time>2018-08-11T14:34:55Z</time>
      </trkpt>
      <trkpt lat="43.69135" lon="3.16478">
        <ele>314.97</ele>
        <time>2018-08-11T14:34:56Z</time>
      </trkpt>
      <trkpt lat="43.69139" lon="3.16477">
        <ele>314.49</ele>
        <time>2018-08-11T14:35:00Z</time>
      </trkpt>
      <trkpt lat="43.69143" lon="3.16477">
        <ele>314.01</ele>
        <time>2018-08-11T14:35:03Z</time>
      </trkpt>
      <trkpt lat="43.69153" lon="3.16477">
        <ele>312.57</ele>
        <time>2018-08-11T14:35:16Z</time>
      </trkpt>
      <trkpt lat="43.69155" lon="3.16476">
        <ele>311.6</ele>
        <time>2018-08-11T14:35:18Z</time>
      </trkpt>
      <trkpt lat="43.69164" lon="3.16471">
        <ele>310.64</ele>
        <time>2018-08-11T14:35:29Z</time>
      </trkpt>
      <trkpt lat="43.69173" lon="3.16468">
        <ele>307.76</ele>
        <time>2018-08-11T14:35:43Z</time>
      </trkpt>
      <trkpt lat="43.69183" lon="3.16464">
        <ele>305.84</ele>
        <time>2018-08-11T14:35:55Z</time>
      </trkpt>
      <trkpt lat="43.69196" lon="3.16458">
        <ele>304.39</ele>
        <time>2018-08-11T14:36:07Z</time>
      </trkpt>
      <trkpt lat="43.69198" lon="3.16456">
        <ele>303.91</ele>
        <time>2018-08-11T14:36:10Z</time>
      </trkpt>
      <trkpt lat="43.69212" lon="3.1645">
        <ele>302.47</ele>
        <time>2018-08-11T14:36:24Z</time>
      </trkpt>
      <trkpt lat="43.69216" lon="3.16449">
        <ele>302.47</ele>
        <time>2018-08-11T14:36:27Z</time>
      </trkpt>
      <trkpt lat="43.69224" lon="3.16449">
        <ele>302.47</ele>
        <time>2018-08-11T14:36:34Z</time>
      </trkpt>
      <trkpt lat="43.69227" lon="3.16451">
        <ele>301.51</ele>
        <time>2018-08-11T14:36:37Z</time>
      </trkpt>
      <trkpt lat="43.69232" lon="3.16452">
        <ele>301.03</ele>
        <time>2018-08-11T14:36:42Z</time>
      </trkpt>
      <trkpt lat="43.69234" lon="3.16454">
        <ele>301.03</ele>
        <time>2018-08-11T14:36:45Z</time>
      </trkpt>
      <trkpt lat="43.69243" lon="3.16454">
        <ele>300.07</ele>
        <time>2018-08-11T14:36:53Z</time>
      </trkpt>
      <trkpt lat="43.69247" lon="3.16455">
        <ele>299.59</ele>
        <time>2018-08-11T14:36:57Z</time>
      </trkpt>
      <trkpt lat="43.69253" lon="3.16454">
        <ele>300.07</ele>
        <time>2018-08-11T14:37:05Z</time>
      </trkpt>
      <trkpt lat="43.69258" lon="3.16455">
        <ele>300.07</ele>
        <time>2018-08-11T14:37:09Z</time>
      </trkpt>
      <trkpt lat="43.6926" lon="3.16455">
        <ele>300.07</ele>
        <time>2018-08-11T14:37:12Z</time>
      </trkpt>
      <trkpt lat="43.69262" lon="3.16455">
        <ele>299.59</ele>
        <time>2018-08-11T14:37:14Z</time>
      </trkpt>
      <trkpt lat="43.69267" lon="3.16455">
        <ele>299.11</ele>
        <time>2018-08-11T14:37:18Z</time>
      </trkpt>
      <trkpt lat="43.6927" lon="3.16456">
        <ele>299.11</ele>
        <time>2018-08-11T14:37:21Z</time>
      </trkpt>
      <trkpt lat="43.69273" lon="3.16454">
        <ele>298.63</ele>
        <time>2018-08-11T14:37:24Z</time>
      </trkpt>
      <trkpt lat="43.69283" lon="3.16455">
        <ele>298.63</ele>
        <time>2018-08-11T14:37:37Z</time>
      </trkpt>
      <trkpt lat="43.69295" lon="3.16456">
        <ele>297.67</ele>
        <time>2018-08-11T14:37:48Z</time>
      </trkpt>
      <trkpt lat="43.69306" lon="3.1646">
        <ele>297.18</ele>
        <time>2018-08-11T14:38:01Z</time>
      </trkpt>
      <trkpt lat="43.69309" lon="3.1646">
        <ele>296.7</ele>
        <time>2018-08-11T14:38:06Z</time>
      </trkpt>
      <trkpt lat="43.69311" lon="3.16462">
        <ele>296.22</ele>
        <time>2018-08-11T14:38:09Z</time>
      </trkpt>
      <trkpt lat="43.69324" lon="3.16465">
        <ele>294.3</ele>
        <time>2018-08-11T14:38:22Z</time>
      </trkpt>
      <trkpt lat="43.69326" lon="3.16465">
        <ele>294.78</ele>
        <time>2018-08-11T14:38:24Z</time>
      </trkpt>
      <trkpt lat="43.69328" lon="3.16465">
        <ele>294.3</ele>
        <time>2018-08-11T14:38:26Z</time>
      </trkpt>
      <trkpt lat="43.69331" lon="3.16465">
        <ele>294.3</ele>
        <time>2018-08-11T14:38:29Z</time>
      </trkpt>
      <trkpt lat="43.69333" lon="3.16465">
        <ele>293.82</ele>
        <time>2018-08-11T14:38:32Z</time>
      </trkpt>
      <trkpt lat="43.69339" lon="3.16465">
        <ele>292.38</ele>
        <time>2018-08-11T14:38:42Z</time>
      </trkpt>
      <trkpt lat="43.69343" lon="3.16465">
        <ele>291.42</ele>
        <time>2018-08-11T14:38:54Z</time>
      </trkpt>
      <trkpt lat="43.69345" lon="3.16464">
        <ele>290.94</ele>
        <time>2018-08-11T14:39:24Z</time>
      </trkpt>
      <trkpt lat="43.69345" lon="3.16464">
        <ele>291.42</ele>
        <time>2018-08-11T14:39:59Z</time>
      </trkpt>
      <trkpt lat="43.69345" lon="3.16463">
        <ele>291.42</ele>
        <time>2018-08-11T14:40:17Z</time>
      </trkpt>
      <trkpt lat="43.69348" lon="3.16462">
        <ele>290.46</ele>
        <time>2018-08-11T14:40:29Z</time>
      </trkpt>
      <trkpt lat="43.69357" lon="3.16455">
        <ele>289.49</ele>
        <time>2018-08-11T14:40:41Z</time>
      </trkpt>
      <trkpt lat="43.69368" lon="3.16456">
        <ele>287.09</ele>
        <time>2018-08-11T14:40:54Z</time>
      </trkpt>
      <trkpt lat="43.69376" lon="3.16458">
        <ele>286.61</ele>
        <time>2018-08-11T14:41:05Z</time>
      </trkpt>
      <trkpt lat="43.69375" lon="3.16458">
        <ele>286.61</ele>
        <time>2018-08-11T14:41:17Z</time>
      </trkpt>
      <trkpt lat="43.69376" lon="3.16456">
        <ele>286.61</ele>
        <time>2018-08-11T14:41:36Z</time>
      </trkpt>
      <trkpt lat="43.69375" lon="3.16456">
        <ele>286.61</ele>
        <time>2018-08-11T14:41:55Z</time>
      </trkpt>
      <trkpt lat="43.69371" lon="3.16456">
        <ele>286.61</ele>
        <time>2018-08-11T14:42:17Z</time>
      </trkpt>
      <trkpt lat="43.69371" lon="3.16456">
        <ele>286.61</ele>
        <time>2018-08-11T14:42:18Z</time>
      </trkpt>
      <trkpt lat="43.69374" lon="3.16456">
        <ele>286.61</ele>
        <time>2018-08-11T14:42:35Z</time>
      </trkpt>
      <trkpt lat="43.69375" lon="3.16456">
        <ele>286.13</ele>
        <time>2018-08-11T14:43:02Z</time>
      </trkpt>
      <trkpt lat="43.69377" lon="3.16457">
        <ele>284.69</ele>
        <time>2018-08-11T14:43:15Z</time>
      </trkpt>
      <trkpt lat="43.69378" lon="3.16457">
        <ele>284.69</ele>
        <time>2018-08-11T14:43:43Z</time>
      </trkpt>
      <trkpt lat="43.69379" lon="3.16456">
        <ele>284.21</ele>
        <time>2018-08-11T14:44:17Z</time>
      </trkpt>
      <trkpt lat="43.6938" lon="3.16456">
        <ele>284.21</ele>
        <time>2018-08-11T14:44:43Z</time>
      </trkpt>
      <trkpt lat="43.69381" lon="3.16455">
        <ele>284.21</ele>
        <time>2018-08-11T14:45:12Z</time>
      </trkpt>
      <trkpt lat="43.69382" lon="3.16455">
        <ele>283.25</ele>
        <time>2018-08-11T14:45:40Z</time>
      </trkpt>
      <trkpt lat="43.69382" lon="3.16454">
        <ele>283.73</ele>
        <time>2018-08-11T14:46:04Z</time>
      </trkpt>
      <trkpt lat="43.69382" lon="3.16453">
        <ele>283.25</ele>
        <time>2018-08-11T14:46:32Z</time>
      </trkpt>
      <trkpt lat="43.69381" lon="3.16453">
        <ele>283.25</ele>
        <time>2018-08-11T14:46:59Z</time>
      </trkpt>
      <trkpt lat="43.69381" lon="3.16453">
        <ele>282.77</ele>
        <time>2018-08-11T14:47:31Z</time>
      </trkpt>
      <trkpt lat="43.6938" lon="3.16452">
        <ele>283.25</ele>
        <time>2018-08-11T14:48:03Z</time>
      </trkpt>
      <trkpt lat="43.6938" lon="3.16452">
        <ele>282.28</ele>
        <time>2018-08-11T14:48:37Z</time>
      </trkpt>
      <trkpt lat="43.6938" lon="3.16451">
        <ele>282.77</ele>
        <time>2018-08-11T14:49:10Z</time>
      </trkpt>
      <trkpt lat="43.6938" lon="3.1645">
        <ele>282.28</ele>
        <time>2018-08-11T14:49:43Z</time>
      </trkpt>
      <trkpt lat="43.6938" lon="3.1645">
        <ele>281.8</ele>
        <time>2018-08-11T14:50:13Z</time>
      </trkpt>
      <trkpt lat="43.6938" lon="3.16449">
        <ele>281.8</ele>
        <time>2018-08-11T14:50:45Z</time>
      </trkpt>
      <trkpt lat="43.6938" lon="3.16449">
        <ele>281.8</ele>
        <time>2018-08-11T14:51:11Z</time>
      </trkpt>
      <trkpt lat="43.69379" lon="3.16448">
        <ele>281.8</ele>
        <time>2018-08-11T14:51:45Z</time>
      </trkpt>
      <trkpt lat="43.69379" lon="3.16448">
        <ele>280.84</ele>
        <time>2018-08-11T14:52:18Z</time>
      </trkpt>
      <trkpt lat="43.69379" lon="3.16448">
        <ele>281.32</ele>
        <time>2018-08-11T14:52:49Z</time>
      </trkpt>
      <trkpt lat="43.69379" lon="3.16448">
        <ele>281.32</ele>
        <time>2018-08-11T14:53:18Z</time>
      </trkpt>
      <trkpt lat="43.69379" lon="3.16449">
        <ele>280.36</ele>
        <time>2018-08-11T14:53:47Z</time>
      </trkpt>
      <trkpt lat="43.69379" lon="3.16449">
        <ele>279.88</ele>
        <time>2018-08-11T14:54:22Z</time>
      </trkpt>
      <trkpt lat="43.69379" lon="3.16449">
        <ele>280.36</ele>
        <time>2018-08-11T14:54:55Z</time>
      </trkpt>
      <trkpt lat="43.69379" lon="3.16449">
        <ele>279.88</ele>
        <time>2018-08-11T14:55:17Z</time>
      </trkpt>
      <trkpt lat="43.69378" lon="3.16448">
        <ele>279.4</ele>
        <time>2018-08-11T14:55:48Z</time>
      </trkpt>
      <trkpt lat="43.69378" lon="3.16448">
        <ele>279.4</ele>
        <time>2018-08-11T14:56:18Z</time>
      </trkpt>
      <trkpt lat="43.69378" lon="3.16448">
        <ele>279.4</ele>
        <time>2018-08-11T14:56:44Z</time>
      </trkpt>
      <trkpt lat="43.69378" lon="3.16448">
        <ele>279.4</ele>
        <time>2018-08-11T14:57:13Z</time>
      </trkpt>
      <trkpt lat="43.69378" lon="3.16447">
        <ele>279.4</ele>
        <time>2018-08-11T14:57:40Z</time>
      </trkpt>
      <trkpt lat="43.69379" lon="3.16447">
        <ele>278.44</ele>
        <time>2018-08-11T14:58:10Z</time>
      </trkpt>
      <trkpt lat="43.69379" lon="3.16447">
        <ele>278.44</ele>
        <time>2018-08-11T14:58:43Z</time>
      </trkpt>
      <trkpt lat="43.69379" lon="3.16447">
        <ele>279.4</ele>
        <time>2018-08-11T14:59:08Z</time>
      </trkpt>
      <trkpt lat="43.69379" lon="3.16449">
        <ele>279.4</ele>
        <time>2018-08-11T14:59:23Z</time>
      </trkpt>
      <trkpt lat="43.69378" lon="3.16452">
        <ele>279.4</ele>
        <time>2018-08-11T14:59:45Z</time>
      </trkpt>
      <trkpt lat="43.69378" lon="3.16452">
        <ele>278.92</ele>
        <time>2018-08-11T15:00:04Z</time>
      </trkpt>
      <trkpt lat="43.69377" lon="3.16447">
        <ele>278.44</ele>
        <time>2018-08-11T15:00:25Z</time>
      </trkpt>
      <trkpt lat="43.69369" lon="3.16439">
        <ele>278.44</ele>
        <time>2018-08-11T15:00:46Z</time>
      </trkpt>
      <trkpt lat="43.69358" lon="3.16454">
        <ele>278.44</ele>
        <time>2018-08-11T15:01:14Z</time>
      </trkpt>
      <trkpt lat="43.69345" lon="3.16441">
        <ele>277.96</ele>
        <time>2018-08-11T15:01:37Z</time>
      </trkpt>
      <trkpt lat="43.69368" lon="3.16436">
        <ele>290.94</ele>
        <time>2018-08-11T16:34:56Z</time>
      </trkpt>
      <trkpt lat="43.69375" lon="3.1643">
        <ele>290.94</ele>
        <time>2018-08-11T16:35:10Z</time>
      </trkpt>
      <trkpt lat="43.69377" lon="3.16436">
        <ele>290.94</ele>
        <time>2018-08-11T16:35:28Z</time>
      </trkpt>
      <trkpt lat="43.69377" lon="3.16437">
        <ele>290.46</ele>
        <time>2018-08-11T16:35:30Z</time>
      </trkpt>
      <trkpt lat="43.69376" lon="3.16436">
        <ele>289.97</ele>
        <time>2018-08-11T16:40:16Z</time>
      </trkpt>
      <trkpt lat="43.69376" lon="3.16437">
        <ele>289.97</ele>
        <time>2018-08-11T16:40:17Z</time>
      </trkpt>
    </trkseg>
  </trk>
</gpx>